Provisional Data: Kishacoquillas Creek near Belleville, PA


Please select a monitoring station.
Please select start date.
Please select start date.

Toggle Unit: C/F Toggle Unit: C/F
Sample Time Temperature (C) Temperature (F) Specific Conductivity (mS/cm) pH   Turbidity (NTU+) DO (mg/L)
3/7/2021 12:00:00 AM 5.32 41.576 0.452 7.74 44.11 11.72
3/7/2021 12:15:00 AM 5.27 41.486 0.452 7.75 38.92 11.73
3/7/2021 12:30:00 AM 5.23 41.414 0.452 7.74 46.08 11.72
3/7/2021 12:45:00 AM 5.18 41.324 0.452 7.74 38.78 11.75
3/7/2021 1:00:00 AM 5.14 41.252 0.452 7.75 45.18 11.76
3/7/2021 1:15:00 AM 5.1 41.18 0.453 7.75 43.18 11.77
3/7/2021 1:30:00 AM 5.06 41.108 0.454 7.75 46.7 11.78
3/7/2021 1:45:00 AM 5.02 41.036 0.453 7.74 42.9 11.8
3/7/2021 2:00:00 AM 4.98 40.964 0.454 7.74 41.52 11.82
3/7/2021 2:15:00 AM 4.94 40.892 0.453 7.71 46.48 11.83
3/7/2021 2:30:00 AM 4.91 40.838 0.454 7.74 51.63 11.85
3/7/2021 2:45:00 AM 4.88 40.784 0.454 7.71 52.84 11.85
3/7/2021 3:00:00 AM 4.84 40.712 0.454 7.74 48.8 11.87
3/7/2021 3:15:00 AM 4.82 40.676 0.455 7.74 41.03 11.88
3/7/2021 3:30:00 AM 4.79 40.622 0.455 7.75 52.96 11.87
3/7/2021 3:45:00 AM 4.75 40.55 0.455 7.75 45.24 11.89
3/7/2021 4:00:00 AM 4.73 40.514 0.455 7.75 43.17 11.89
3/7/2021 4:15:00 AM 4.71 40.478 0.455 7.74 42.86 11.92
3/7/2021 4:30:00 AM 4.68 40.424 0.455 7.72 58.04 11.93
3/7/2021 4:45:00 AM 4.65 40.37 0.455 7.74 48.69 11.94
3/7/2021 5:00:00 AM 4.62 40.316 0.455 7.75 48.11 11.96
3/7/2021 5:15:00 AM 4.59 40.262 0.456 7.74 39.64 11.97
3/7/2021 5:30:00 AM 4.57 40.226 0.456 7.75 40.49 11.98
3/7/2021 5:45:00 AM 4.55 40.19 0.456 7.75 43.52 11.99
3/7/2021 6:00:00 AM 4.53 40.154 0.456 7.72 43.95 12
3/7/2021 6:15:00 AM 4.5 40.1 0.457 7.75 51.6 12
3/7/2021 6:30:00 AM 4.48 40.064 0.457 7.75 52.33 12.02
3/7/2021 6:45:00 AM 4.46 40.028 0.457 7.75 53.31 12.03
3/7/2021 7:00:00 AM 4.44 39.992 0.457 7.75 44.95 12.05
3/7/2021 7:15:00 AM 4.42 39.956 0.457 7.75 40.22 12.08
3/7/2021 7:30:00 AM 4.42 39.956 0.457 7.76 47.84 12.12
3/7/2021 7:45:00 AM 4.43 39.974 0.457 7.75 45.66 12.17
3/7/2021 8:00:00 AM 4.45 40.01 0.458 7.76 46.17 12.22
3/7/2021 8:15:00 AM 4.49 40.082 0.458 7.76 50.4 12.3
3/7/2021 8:30:00 AM 4.54 40.172 0.457 7.77 44.46 12.37
3/7/2021 8:45:00 AM 4.6 40.28 0.457 7.74 45.28 12.43
3/7/2021 9:00:00 AM 4.68 40.424 0.457 7.77 43.02 12.48
3/7/2021 9:15:00 AM 4.77 40.586 0.457 7.78 48.29 12.55
3/7/2021 9:30:00 AM 4.87 40.766 0.457 7.79 48.55 12.61
3/7/2021 9:45:00 AM 4.99 40.982 0.458 7.78 37 12.67
3/7/2021 10:00:00 AM 5.11 41.198 0.457 7.8 44.01 12.72
3/7/2021 10:15:00 AM 5.26 41.468 0.457 7.8 40.44 12.75
3/7/2021 10:30:00 AM 5.41 41.738 0.457 7.81 42.57 12.8
3/7/2021 10:45:00 AM 5.58 42.044 0.458 7.82 47.22 12.84
3/7/2021 11:00:00 AM 5.75 42.35 0.458 7.82 44.65 12.87
3/7/2021 11:15:00 AM 5.94 42.692 0.458 7.82 54.06 12.9
3/7/2021 11:30:00 AM 6.12 43.016 0.458 7.83 44.62 12.93
3/7/2021 11:45:00 AM 6.33 43.394 0.458 7.83 39.61 12.94
3/7/2021 12:00:00 PM 6.54 43.772 0.458 7.84 47.86 12.94
3/7/2021 12:15:00 PM 6.75 44.15 0.458 7.8 44.45 12.96
3/7/2021 12:30:00 PM 6.96 44.528 0.457 7.84 42.93 12.96
3/7/2021 12:45:00 PM 7.17 44.906 0.457 7.85 42.06 12.96
3/7/2021 1:00:00 PM 7.38 45.284 0.457 7.85 44.3 12.94
3/7/2021 1:15:00 PM 7.58 45.644 0.457 7.85 47.85 12.91
3/7/2021 1:30:00 PM 7.79 46.022 0.456 7.86 46.41 12.88
3/7/2021 1:45:00 PM 8 46.4 0.456 7.86 46.31 12.86
3/7/2021 2:00:00 PM 8.2 46.76 0.456 7.87 37.56 12.82
3/7/2021 2:15:00 PM 8.38 47.084 0.455 7.86 43.09 12.79
3/7/2021 2:30:00 PM 8.55 47.39 0.456 7.87 49.24 12.75
3/7/2021 2:45:00 PM 8.7 47.66 0.454 7.87 44.01 12.68
3/7/2021 3:00:00 PM 8.84 47.912 0.455 7.88 56.15 12.61
3/7/2021 3:15:00 PM 8.97 48.146 0.454 7.88 53.44 12.58
3/7/2021 3:30:00 PM 9.1 48.38 0.454 7.88 49.91 12.49
3/7/2021 3:45:00 PM 9.21 48.578 0.455 7.88 57.23 12.41
3/7/2021 4:00:00 PM 9.3 48.74 0.453 7.85 53.08 12.35
3/7/2021 4:15:00 PM 9.39 48.902 0.453 7.88 48.28 12.24
3/7/2021 4:30:00 PM 9.45 49.01 0.453 7.88 44.29 12.17
3/7/2021 4:45:00 PM 9.47 49.046 0.453 7.88 51.2 12.04
3/7/2021 5:00:00 PM 9.49 49.082 0.453 7.88 61.18 11.94
3/7/2021 5:15:00 PM 9.48 49.064 0.453 7.87 54.95 11.82
3/7/2021 5:30:00 PM 9.49 49.082 0.453 7.87 49.99 11.72
3/7/2021 5:45:00 PM 9.47 49.046 0.453 7.86 50.19 11.6
3/7/2021 6:00:00 PM 9.45 49.01 0.453 7.86 46.44 11.49
3/7/2021 6:15:00 PM 9.41 48.938 0.453 7.85 52 11.4
3/7/2021 6:30:00 PM 9.36 48.848 0.453 7.84 52.54 11.32
3/7/2021 6:45:00 PM 9.31 48.758 0.454 7.81 45.8 11.23
3/7/2021 7:00:00 PM 9.23 48.614 0.454 7.84 52.66 11.17
3/7/2021 7:15:00 PM 9.15 48.47 0.454 7.83 46.37 11.13
3/7/2021 7:30:00 PM 9.06 48.308 0.454 7.83 46.87 11.1
3/7/2021 7:45:00 PM 8.95 48.11 0.454 7.82 51.51 11.05
3/7/2021 8:00:00 PM 8.85 47.93 0.454 7.81 46.71 11.03
3/7/2021 8:15:00 PM 8.75 47.75 0.455 7.81 54.82 11
3/7/2021 8:30:00 PM 8.64 47.552 0.455 7.81 60.37 10.99
3/7/2021 8:45:00 PM 8.51 47.318 0.455 7.8 74.42 10.99
3/7/2021 9:00:00 PM 8.38 47.084 0.455 7.76 62.3 10.97
3/7/2021 9:15:00 PM 8.24 46.832 0.456 7.8 59.64 10.97
3/7/2021 9:30:00 PM 8.1 46.58 0.457 7.79 56.56 10.99
3/7/2021 9:45:00 PM 7.96 46.328 0.457 7.78 60.15 10.98
3/7/2021 10:00:00 PM 7.82 46.076 0.457 7.78 54.76 11
3/7/2021 10:15:00 PM 7.67 45.806 0.457 7.78 58.18 11.05
3/7/2021 10:30:00 PM 7.53 45.554 0.458 7.78 55.54 11.07
3/7/2021 10:45:00 PM 7.39 45.302 0.458 7.78 57.29 11.09
3/7/2021 11:00:00 PM 7.24 45.032 0.459 7.77 55.34 11.12
3/7/2021 11:15:00 PM 7.11 44.798 0.459 7.77 50.85 11.14
3/7/2021 11:30:00 PM 6.97 44.546 0.459 7.76 55.49 11.18
3/7/2021 11:45:00 PM 6.84 44.312 0.46 7.76 57.97 11.21
3/8/2021 12:00:00 AM 6.7 44.06 0.46 7.77 60.46 11.24
3/8/2021 12:15:00 AM 6.57 43.826 0.461 7.76 60.68 11.28
3/8/2021 12:30:00 AM 6.44 43.592 0.461 7.76 68.7 11.33
3/8/2021 12:45:00 AM 6.32 43.376 0.461 7.73 61.09 11.36
3/8/2021 1:00:00 AM 6.2 43.16 0.461 7.76 52.41 11.4
3/8/2021 1:15:00 AM 6.09 42.962 0.461 7.76 55.1 11.45
3/8/2021 1:30:00 AM 5.98 42.764 0.461 7.75 61.32 11.48
3/8/2021 1:45:00 AM 5.88 42.584 0.462 7.76 56.52 11.51
3/8/2021 2:00:00 AM 5.78 42.404 0.462 7.76 49.24 11.54
3/8/2021 2:15:00 AM 5.69 42.242 0.462 7.76 60.79 11.58
3/8/2021 2:30:00 AM 5.6 42.08 0.462 7.74 70.71 11.61
3/8/2021 2:45:00 AM 5.52 41.936 0.462 7.76 51.28 11.65
3/8/2021 3:00:00 AM 5.45 41.81 0.463 7.74 64.25 11.67
3/8/2021 3:15:00 AM 5.38 41.684 0.463 7.76 55.78 11.7
3/8/2021 3:30:00 AM 5.31 41.558 0.463 7.76 62.86 11.72
3/8/2021 3:45:00 AM 5.25 41.45 0.463 7.76 69.16 11.74
3/8/2021 4:00:00 AM 5.19 41.342 0.463 7.76 63.29 11.77
3/8/2021 4:15:00 AM 5.14 41.252 0.463 7.76 53.76 11.79
3/8/2021 4:30:00 AM 5.08 41.144 0.463 7.77 58.27 11.82
3/8/2021 4:45:00 AM 5.03 41.054 0.463 7.76 60.03 11.82
3/8/2021 5:00:00 AM 4.99 40.982 0.463 7.76 60.41 11.86
3/8/2021 5:15:00 AM 4.95 40.91 0.464 7.74 63.85 11.86
3/8/2021 5:30:00 AM 4.91 40.838 0.463 7.74 65.6 11.88
3/8/2021 5:45:00 AM 4.86 40.748 0.463 7.76 62.74 11.9
3/8/2021 6:00:00 AM 4.82 40.676 0.464 7.76 51.89 11.91
3/8/2021 6:15:00 AM 4.77 40.586 0.464 7.77 66.9 11.94
3/8/2021 6:30:00 AM 4.74 40.532 0.464 7.76 64.36 11.96
3/8/2021 6:45:00 AM 4.71 40.478 0.464 7.77 66.86 11.97
3/8/2021 7:00:00 AM 4.68 40.424 0.464 7.77 59.57 12.02
3/8/2021 7:15:00 AM 4.65 40.37 0.464 7.77 68.81 12.06
3/8/2021 7:30:00 AM 4.64 40.352 0.464 7.77 60.1 12.1
3/8/2021 7:45:00 AM 4.64 40.352 0.464 7.78 64.18 12.15
3/8/2021 8:00:00 AM 4.66 40.388 0.464 7.76 64.26 12.24
3/8/2021 8:15:00 AM 4.71 40.478 0.464 7.77 55.27 12.3
3/8/2021 8:30:00 AM 4.78 40.604 0.464 7.79 56.55 12.37
3/8/2021 8:45:00 AM 4.84 40.712 0.464 7.76 56.56 12.46
3/8/2021 9:00:00 AM 4.92 40.856 0.464 7.77 56.13 12.53
3/8/2021 9:15:00 AM 5.02 41.036 0.464 7.79 53.58 12.58
3/8/2021 9:30:00 AM 5.13 41.234 0.464 7.79 60.29 12.63
3/8/2021 9:45:00 AM 5.25 41.45 0.465 7.8 71.87 12.69
3/8/2021 10:00:00 AM 5.38 41.684 0.465 7.81 55.65 12.75
3/8/2021 10:15:00 AM 5.53 41.954 0.465 7.79 64.29 12.79
3/8/2021 10:30:00 AM 5.69 42.242 0.465 7.82 63.31 12.83
3/8/2021 10:45:00 AM 5.87 42.566 0.466 7.82 62.44 12.88
3/8/2021 11:00:00 AM 6.06 42.908 0.465 7.81 61.68 12.91
3/8/2021 11:15:00 AM 6.25 43.25 0.464 7.82 65.1 12.95
3/8/2021 11:30:00 AM 6.45 43.61 0.465 7.84 61.91 12.99
3/8/2021 11:45:00 AM 6.65 43.97 0.465 7.85 39.68 13
3/8/2021 12:00:00 PM 6.86 44.348 0.464 7.85 38.87 13.01
3/8/2021 12:15:00 PM 7.08 44.744 0.464 7.86 39.41 13.03
3/8/2021 12:30:00 PM 7.29 45.122 0.464 7.86 40.49 13.02
3/8/2021 12:45:00 PM 7.51 45.518 0.464 7.86 40.42 13.01
3/8/2021 1:00:00 PM 7.74 45.932 0.464 7.87 40.5 13.01
3/8/2021 1:15:00 PM 7.95 46.31 0.464 7.87 40.62 13
3/8/2021 1:30:00 PM 8.15 46.67 0.463 7.88 41.88 12.96
3/8/2021 1:45:00 PM 8.3 46.94 0.463 7.86 43.23 12.9
3/8/2021 2:00:00 PM 8.49 47.282 0.463 7.87 42.7 12.85
3/8/2021 2:15:00 PM 8.67 47.606 0.462 7.88 41.32 12.81
3/8/2021 2:30:00 PM 8.85 47.93 0.462 7.89 43.81 12.78
3/8/2021 2:45:00 PM 8.98 48.164 0.462 7.89 44.7 12.72
3/8/2021 3:00:00 PM 9.1 48.38 0.462 7.87 43.23 12.59
3/8/2021 3:15:00 PM 9.18 48.524 0.461 7.89 43.96 12.5
3/8/2021 3:30:00 PM 9.3 48.74 0.462 7.87 44.59 12.43
3/8/2021 3:45:00 PM 9.45 49.01 0.462 7.89 43.55 12.41
3/8/2021 4:00:00 PM 9.6 49.28 0.461 7.89 43.42 12.39
3/8/2021 4:15:00 PM 9.71 49.478 0.46 7.89 44.59 12.34
3/8/2021 4:30:00 PM 9.78 49.604 0.46 7.89 45.86 12.23
3/8/2021 4:45:00 PM 9.85 49.73 0.46 7.89 47.83 12.1
3/8/2021 5:00:00 PM 9.91 49.838 0.461 7.88 47.89 12.02
3/8/2021 5:15:00 PM 9.95 49.91 0.46 7.87 47.03 11.9
3/8/2021 5:30:00 PM 9.96 49.928 0.46 7.87 47.24 11.76
3/8/2021 5:45:00 PM 9.95 49.91 0.46 7.84 47.23 11.62
3/8/2021 6:00:00 PM 9.93 49.874 0.46 7.86 47.91 11.49
3/8/2021 6:15:00 PM 9.92 49.856 0.46 7.85 47.53 11.38
3/8/2021 6:30:00 PM 9.89 49.802 0.461 7.85 48.31 11.25
3/8/2021 6:45:00 PM 9.85 49.73 0.461 7.84 51.53 11.17
3/8/2021 7:00:00 PM 9.82 49.676 0.461 7.81 52.03 11.08
3/8/2021 7:15:00 PM 9.77 49.586 0.461 7.83 51.58 11.03
3/8/2021 7:30:00 PM 9.72 49.496 0.461 7.83 52.91 10.97
3/8/2021 7:45:00 PM 9.66 49.388 0.461 7.82 52.02 10.92
3/8/2021 8:00:00 PM 9.58 49.244 0.462 7.81 51.89 10.88
3/8/2021 8:15:00 PM 9.51 49.118 0.463 7.81 50.16 10.85
3/8/2021 8:30:00 PM 9.43 48.974 0.463 7.81 52.51 10.81
3/8/2021 8:45:00 PM 9.34 48.812 0.465 7.8 52.58 10.78
3/8/2021 9:00:00 PM 9.25 48.65 0.466 7.78 55.41 10.75
3/8/2021 9:15:00 PM 9.15 48.47 0.466 7.8 57.69 10.72
3/8/2021 9:30:00 PM 9.04 48.272 0.465 7.79 55.62 10.71
3/8/2021 9:45:00 PM 8.92 48.056 0.465 7.79 54.89 10.7
3/8/2021 10:00:00 PM 8.81 47.858 0.464 7.76 56.13 10.71
3/8/2021 10:15:00 PM 8.68 47.624 0.464 7.78 54.26 10.72
3/8/2021 10:30:00 PM 8.55 47.39 0.465 7.77 55.62 10.74
3/8/2021 10:45:00 PM 8.43 47.174 0.465 7.76 58.16 10.74
3/8/2021 11:00:00 PM 8.31 46.958 0.465 7.77 66.64 10.76
3/8/2021 11:15:00 PM 8.19 46.742 0.465 7.75 73.27 10.78
3/8/2021 11:30:00 PM 8.07 46.526 0.465 7.76 59.58 10.8
3/8/2021 11:45:00 PM 7.94 46.292 0.466 7.76 57.75 10.84
3/9/2021 12:00:00 AM 7.82 46.076 0.466 7.76 56.8 10.86
3/9/2021 12:15:00 AM 7.71 45.878 0.466 7.76 55.8 10.86
3/9/2021 12:30:00 AM 7.6 45.68 0.466 7.76 59.07 10.91
3/9/2021 12:45:00 AM 7.51 45.518 0.467 7.75 59.53 10.94
3/9/2021 1:00:00 AM 7.42 45.356 0.467 7.75 60.48 10.98
3/9/2021 1:15:00 AM 7.33 45.194 0.467 7.75 61.32 11
3/9/2021 1:30:00 AM 7.24 45.032 0.467 7.75 61.43 11.04
3/9/2021 1:45:00 AM 7.15 44.87 0.468 7.75 64.44 11.04
3/9/2021 2:00:00 AM 7.06 44.708 0.467 7.75 59.45 11.06
3/9/2021 2:15:00 AM 6.98 44.564 0.468 7.73 60.79 11.11
3/9/2021 2:30:00 AM 6.89 44.402 0.468 7.74 60.7 11.13
3/9/2021 2:45:00 AM 6.81 44.258 0.468 7.73 64.1 11.15
3/9/2021 3:00:00 AM 6.74 44.132 0.468 7.74 61.1 11.18
3/9/2021 3:15:00 AM 6.67 44.006 0.468 7.75 59.78 11.19
3/9/2021 3:30:00 AM 6.61 43.898 0.468 7.73 61.37 11.22
3/9/2021 3:45:00 AM 6.55 43.79 0.468 7.75 61.1 11.24
3/9/2021 4:00:00 AM 6.5 43.7 0.468 7.75 64.18 11.27
3/9/2021 4:15:00 AM 6.45 43.61 0.468 7.75 61.75 11.29
3/9/2021 4:30:00 AM 6.4 43.52 0.468 7.75 64.62 11.3
3/9/2021 4:45:00 AM 6.37 43.466 0.468 7.75 62.57 11.32
3/9/2021 5:00:00 AM 6.34 43.412 0.469 7.75 63.19 11.33
3/9/2021 5:15:00 AM 6.31 43.358 0.468 7.74 65.97 11.34
3/9/2021 5:30:00 AM 6.28 43.304 0.468 7.75 62.19 11.35
3/9/2021 5:45:00 AM 6.26 43.268 0.468 7.76 66.33 11.37
3/9/2021 6:00:00 AM 6.24 43.232 0.468 7.75 63.5 11.37
3/9/2021 6:15:00 AM 6.22 43.196 0.469 7.75 66.31 11.39
3/9/2021 6:30:00 AM 6.19 43.142 0.468 7.75 66.15 11.4
3/9/2021 6:45:00 AM 6.17 43.106 0.469 7.76 64.01 11.42
3/9/2021 7:00:00 AM 6.15 43.07 0.469 7.75 63.24 11.45
3/9/2021 7:15:00 AM 6.14 43.052 0.468 7.76 74 11.5
3/9/2021 7:30:00 AM 6.15 43.07 0.468 7.76 59.94 11.55
3/9/2021 7:45:00 AM 6.16 43.088 0.468 7.75 63.76 11.62
3/9/2021 8:00:00 AM 6.2 43.16 0.468 7.76 63.41 11.7
3/9/2021 8:15:00 AM 6.27 43.286 0.468 7.77 62.55 11.78
3/9/2021 8:30:00 AM 6.36 43.448 0.468 7.78 66.88 11.86
3/9/2021 8:45:00 AM 6.45 43.61 0.467 7.78 62.17 11.94
3/9/2021 9:00:00 AM 6.57 43.826 0.467 7.79 61.64 12.01
3/9/2021 9:15:00 AM 6.7 44.06 0.467 7.79 62.2 12.11
3/9/2021 9:30:00 AM 6.84 44.312 0.467 7.8 62.85 12.18
3/9/2021 9:45:00 AM 6.98 44.564 0.467 7.8 60.44 12.25
3/9/2021 10:00:00 AM 7.14 44.852 0.467 7.81 60.08 12.31
3/9/2021 10:15:00 AM 7.31 45.158 0.467 7.81 57.61 12.37
3/9/2021 10:30:00 AM 7.5 45.5 0.467 7.82 58.95 12.42
3/9/2021 10:45:00 AM 7.68 45.824 0.466 7.83 58.88 12.48
3/9/2021 11:00:00 AM 7.89 46.202 0.467 7.83 58.09 12.52
3/9/2021 11:15:00 AM 8.08 46.544 0.466 7.85 59.46 12.55
3/9/2021 11:30:00 AM 8.31 46.958 0.466 7.84 56.67 12.6
3/9/2021 11:45:00 AM 8.54 47.372 0.466 7.85 59.57 12.62
3/9/2021 12:00:00 PM 8.78 47.804 0.466 7.86 59.03 12.64
3/9/2021 12:15:00 PM 9.02 48.236 0.466 7.86 57.56 12.66
3/9/2021 12:30:00 PM 9.24 48.632 0.466 7.87 60.93 12.68
3/9/2021 12:45:00 PM 9.45 49.01 0.466 7.88 61.23 12.69
3/9/2021 1:00:00 PM 9.63 49.334 0.465 7.89 58.73 12.67
3/9/2021 1:15:00 PM 9.79 49.622 0.466 7.89 59.74 12.66
3/9/2021 1:30:00 PM 9.95 49.91 0.465 7.9 59.39 12.63
3/9/2021 1:45:00 PM 10.11 50.198 0.465 7.9 63.51 12.61
3/9/2021 2:00:00 PM 10.24 50.432 0.465 7.9 65.69 12.57
3/9/2021 2:15:00 PM 10.38 50.684 0.465 7.91 62.86 12.53
3/9/2021 2:30:00 PM 10.5 50.9 0.465 7.91 57.87 12.45
3/9/2021 2:45:00 PM 10.6 51.08 0.464 7.91 62.46 12.37
3/9/2021 3:00:00 PM 10.71 51.278 0.464 7.92 61.55 12.34
3/9/2021 3:15:00 PM 10.82 51.476 0.464 7.92 61.71 12.29
3/9/2021 3:30:00 PM 10.93 51.674 0.464 7.91 61.19 12.23
3/9/2021 3:45:00 PM 11.02 51.836 0.464 7.91 61.22 12.14
3/9/2021 4:00:00 PM 11.12 52.016 0.464 7.91 62.17 12.09
3/9/2021 4:15:00 PM 11.21 52.178 0.465 7.93 60.72 12.01
3/9/2021 4:30:00 PM 11.27 52.286 0.464 7.92 62.29 11.92
3/9/2021 4:45:00 PM 11.33 52.394 0.464 7.92 65.25 11.83
3/9/2021 5:00:00 PM 11.39 52.502 0.464 7.91 62.51 11.76
3/9/2021 5:15:00 PM 11.43 52.574 0.464 7.91 68.12 11.66
3/9/2021 5:30:00 PM 11.45 52.61 0.464 7.92 77.67 11.5
3/9/2021 5:45:00 PM 11.46 52.628 0.466 7.91 73.78 11.36
3/9/2021 6:00:00 PM 11.45 52.61 0.468 7.9 70.76 11.2
3/9/2021 6:15:00 PM 11.43 52.574 0.47 7.89 67.53 11.04
3/9/2021 6:30:00 PM 11.39 52.502 0.469 7.87 72.41 10.92
3/9/2021 6:45:00 PM 11.35 52.43 0.466 7.87 69.87 10.82
3/9/2021 7:00:00 PM 11.31 52.358 0.467 7.87 70.82 10.72
3/9/2021 7:15:00 PM 11.25 52.25 0.467 7.86 69.4 10.65
3/9/2021 7:30:00 PM 11.2 52.16 0.467 7.85 71.44 10.59
3/9/2021 7:45:00 PM 11.13 52.034 0.468 7.83 72.14 10.54
3/9/2021 8:00:00 PM 11.06 51.908 0.467 7.84 72.69 10.5
3/9/2021 8:15:00 PM 10.98 51.764 0.466 7.84 76.7 10.45
3/9/2021 8:30:00 PM 10.89 51.602 0.466 7.83 73.93 10.4
3/9/2021 8:45:00 PM 10.78 51.404 0.465 7.83 77.56 10.39
3/9/2021 9:00:00 PM 10.67 51.206 0.467 7.82 71.97 10.35
3/9/2021 9:15:00 PM 10.56 51.008 0.465 7.81 76.35 10.32
3/9/2021 9:30:00 PM 10.45 50.81 0.466 7.8 74.72 10.31
3/9/2021 9:45:00 PM 10.32 50.576 0.466 7.8 76.37 10.29
3/9/2021 10:00:00 PM 10.2 50.36 0.466 7.8 74.55 10.29
3/9/2021 10:15:00 PM 10.07 50.126 0.467 7.79 72.9 10.31
3/9/2021 10:30:00 PM 9.93 49.874 0.467 7.79 73.94 10.3
3/9/2021 10:45:00 PM 9.8 49.64 0.466 7.78 74.96 10.32
3/9/2021 11:00:00 PM 9.66 49.388 0.465 7.77 74.04 10.32
3/9/2021 11:15:00 PM 9.52 49.136 0.466 7.76 75.67 10.35
3/9/2021 11:30:00 PM 9.37 48.866 0.466 7.77 73.38 10.38
3/9/2021 11:45:00 PM 9.23 48.614 0.466 7.77 75.2 10.41
3/10/2021 12:00:00 AM 9.1 48.38 0.466 7.76 77.71 10.45
3/10/2021 12:15:00 AM 8.96 48.128 0.466 7.76 81.26 10.48
3/10/2021 12:30:00 AM 8.83 47.894 0.466 7.75 76.1 10.5
3/10/2021 12:45:00 AM 8.7 47.66 0.465 7.76 76.55 10.53
3/10/2021 1:00:00 AM 8.56 47.408 0.465 7.76 77.94 10.57
3/10/2021 1:15:00 AM 8.44 47.192 0.465 7.75 77.46 10.6
3/10/2021 1:30:00 AM 8.31 46.958 0.465 7.75 77.06 10.65
3/10/2021 1:45:00 AM 8.19 46.742 0.464 7.75 76.56 10.68
3/10/2021 2:00:00 AM 8.08 46.544 0.464 7.74 76.56 10.7
3/10/2021 2:15:00 AM 7.96 46.328 0.463 7.75 80.23 10.75
3/10/2021 2:30:00 AM 7.85 46.13 0.463 7.75 80.59 10.79
3/10/2021 2:45:00 AM 7.74 45.932 0.463 7.75 82.71 10.83
3/10/2021 3:00:00 AM 7.63 45.734 0.463 7.74 77.19 10.87
3/10/2021 3:15:00 AM 7.53 45.554 0.462 7.75 80 10.9
3/10/2021 3:30:00 AM 7.44 45.392 0.462 7.75 80.33 10.93
3/10/2021 3:45:00 AM 7.36 45.248 0.462 7.75 79.79 10.96
3/10/2021 4:00:00 AM 7.26 45.068 0.462 7.73 80.34 11
3/10/2021 4:15:00 AM 7.18 44.924 0.461 7.76 76.61 11.04
3/10/2021 4:30:00 AM 7.1 44.78 0.461 7.75 80.52 11.05
3/10/2021 4:45:00 AM 7.04 44.672 0.461 7.75 74.95 11.09
3/10/2021 5:00:00 AM 6.96 44.528 0.461 7.75 76.48 11.12
3/10/2021 5:15:00 AM 6.9 44.42 0.46 7.74 79.09 11.15
3/10/2021 5:30:00 AM 6.83 44.294 0.459 7.74 81.02 11.17
3/10/2021 5:45:00 AM 6.77 44.186 0.459 7.75 76.88 11.19
3/10/2021 6:00:00 AM 6.71 44.078 0.458 7.75 74.69 11.21
3/10/2021 6:15:00 AM 6.65 43.97 0.458 7.76 78.31 11.24
3/10/2021 6:30:00 AM 6.6 43.88 0.459 7.74 77.73 11.27
3/10/2021 6:45:00 AM 6.54 43.772 0.458 7.75 76.41 11.3
3/10/2021 7:00:00 AM 6.5 43.7 0.458 7.76 80.06 11.34
3/10/2021 7:15:00 AM 6.46 43.628 0.457 7.76 78.76 11.39
3/10/2021 7:30:00 AM 6.43 43.574 0.458 7.76 79.19 11.46
3/10/2021 7:45:00 AM 6.42 43.556 0.457 7.75 80.17 11.54
3/10/2021 8:00:00 AM 6.42 43.556 0.457 7.76 75.6 11.62
3/10/2021 8:15:00 AM 6.44 43.592 0.455 7.76 74.76 11.72
3/10/2021 8:30:00 AM 6.48 43.664 0.455 7.77 80.44 11.83
3/10/2021 8:45:00 AM 6.54 43.772 0.455 7.78 78.76 11.95
3/10/2021 9:00:00 AM 6.62 43.916 0.455 7.79 78.02 12.05
3/10/2021 9:15:00 AM 6.72 44.096 0.455 7.79 73.89 12.15
3/10/2021 9:30:00 AM 6.83 44.294 0.455 7.79 74.25 12.25
3/10/2021 9:45:00 AM 6.95 44.51 0.454 7.81 74.81 12.33
3/10/2021 10:00:00 AM 7.1 44.78 0.454 7.81 71.4 12.4
3/10/2021 10:15:00 AM 7.25 45.05 0.452 7.82 70.92 12.48
3/10/2021 10:30:00 AM 7.41 45.338 0.453 7.82 73.81 12.56
3/10/2021 10:45:00 AM 7.59 45.662 0.452 7.84 73.98 12.63
3/10/2021 11:00:00 AM 7.78 46.004 0.452 7.83 76.3 12.69
3/10/2021 11:15:00 AM 7.99 46.382 0.452 7.85 74.01 12.74
3/10/2021 11:30:00 AM 8.2 46.76 0.451 7.85 72.64 12.81
3/10/2021 11:45:00 AM 8.41 47.138 0.451 7.86 75.11 12.84
3/10/2021 12:00:00 PM 8.63 47.534 0.451 7.86 76.59 12.87
3/10/2021 12:15:00 PM 8.86 47.948 0.451 7.88 73.42 12.89
3/10/2021 12:30:00 PM 9.1 48.38 0.451 7.87 77.78 12.92
3/10/2021 12:45:00 PM 9.34 48.812 0.451 7.89 74.85 12.95
3/10/2021 1:00:00 PM 9.58 49.244 0.451 7.89 77.19 12.95
3/10/2021 1:15:00 PM 9.82 49.676 0.451 7.89 75.05 12.91
3/10/2021 1:30:00 PM 10.06 50.108 0.45 7.9 78.78 12.92
3/10/2021 1:45:00 PM 10.3 50.54 0.45 7.91 71.77 12.89
3/10/2021 2:00:00 PM 10.53 50.954 0.45 7.93 72.56 12.86
3/10/2021 2:15:00 PM 10.75 51.35 0.45 7.93 79.56 12.84
3/10/2021 2:30:00 PM 10.94 51.692 0.45 7.94 69.97 12.78
3/10/2021 2:45:00 PM 11.13 52.034 0.45 7.94 67.68 12.74
3/10/2021 3:00:00 PM 11.31 52.358 0.45 7.94 73.14 12.68
3/10/2021 3:15:00 PM 11.48 52.664 0.45 7.94 72.69 12.59
3/10/2021 3:30:00 PM 11.63 52.934 0.449 7.95 89.15 12.54
3/10/2021 3:45:00 PM 11.75 53.15 0.448 7.95 74.82 12.44
3/10/2021 4:00:00 PM 11.84 53.312 0.448 7.94 77.81 12.34
3/10/2021 4:15:00 PM 11.92 53.456 0.448 7.96 113.4 12.23
3/10/2021 4:30:00 PM 11.99 53.582 0.448 7.94 74.55 12.1
3/10/2021 4:45:00 PM 12.06 53.708 0.448 7.95 86.3 11.95
3/10/2021 5:00:00 PM 12.12 53.816 0.447 7.95 82.96 11.76
3/10/2021 5:15:00 PM 12.16 53.888 0.449 7.93 72.79 11.62
3/10/2021 5:30:00 PM 12.2 53.96 0.449 7.94 76.31 11.45
3/10/2021 5:45:00 PM 12.23 54.014 0.449 7.93 75.62 11.31
3/10/2021 6:00:00 PM 12.25 54.05 0.45 7.92 81.44 11.13
3/10/2021 6:15:00 PM 12.25 54.05 0.449 7.91 77.1 10.95
3/10/2021 6:30:00 PM 12.23 54.014 0.449 7.89 75.94 10.82
3/10/2021 6:45:00 PM 12.2 53.96 0.449 7.9 89.84 10.69
3/10/2021 7:00:00 PM 12.16 53.888 0.449 7.88 80.41 10.58
3/10/2021 7:15:00 PM 12.12 53.816 0.45 7.86 78.91 10.49
3/10/2021 7:30:00 PM 12.08 53.744 0.45 7.88 81.28 10.4
3/10/2021 7:45:00 PM 12.04 53.672 0.45 7.87 80.42 10.32
3/10/2021 8:00:00 PM 11.99 53.582 0.451 7.84 79 10.26
3/10/2021 8:15:00 PM 11.93 53.474 0.451 7.83 79.84 10.21
3/10/2021 8:30:00 PM 11.86 53.348 0.451 7.85 83.06 10.15
3/10/2021 8:45:00 PM 11.78 53.204 0.451 7.84 85.63 10.11
3/10/2021 9:00:00 PM 11.69 53.042 0.452 7.81 79.85 10.06
3/10/2021 9:15:00 PM 11.6 52.88 0.452 7.82 86.41 10.04
3/10/2021 9:30:00 PM 11.51 52.718 0.452 7.8 84.86 10
3/10/2021 9:45:00 PM 11.41 52.538 0.452 7.8 86.36 9.99
3/10/2021 10:00:00 PM 11.3 52.34 0.453 7.78 82.92 9.98
3/10/2021 10:15:00 PM 11.17 52.106 0.453 7.78 87.62 9.97
3/10/2021 10:30:00 PM 11.03 51.854 0.453 7.78 81.78 9.99
3/10/2021 10:45:00 PM 10.9 51.62 0.453 7.79 95.04 9.99
3/10/2021 11:00:00 PM 10.77 51.386 0.454 7.78 92.99 10
3/10/2021 11:15:00 PM 10.62 51.116 0.453 7.78 84.21 10.01
3/10/2021 11:30:00 PM 10.48 50.864 0.453 7.77 92.16 10.04
3/10/2021 11:45:00 PM 10.32 50.576 0.453 7.75 87.17 10.05
3/11/2021 12:00:00 AM 10.17 50.306 0.453 7.77 101.8 10.08
3/11/2021 12:15:00 AM 10.03 50.054 0.453 7.76 98.7 10.12
3/11/2021 12:30:00 AM 9.89 49.802 0.453 7.75 391.9 10.14
3/11/2021 12:45:00 AM 9.75 49.55 0.452 7.74 637.4 10.17
3/11/2021 1:00:00 AM 9.61 49.298 0.452 7.76 324 10.22
3/11/2021 1:15:00 AM 9.47 49.046 0.451 7.75 272.3 10.25
3/11/2021 1:30:00 AM 9.34 48.812 0.452 7.74 213 10.28
3/11/2021 1:45:00 AM 9.22 48.596 0.452 7.74 152.3 10.32
3/11/2021 2:00:00 AM 9.11 48.398 0.453 7.73 111 10.35
3/11/2021 2:15:00 AM 8.99 48.182 0.452 7.74 99.85 10.38
3/11/2021 2:30:00 AM 8.88 47.984 0.452 7.74 105.9 10.42
3/11/2021 2:45:00 AM 8.78 47.804 0.451 7.74 91.95 10.45
3/11/2021 3:00:00 AM 8.7 47.66 0.449 7.74 98.24 10.49
3/11/2021 3:15:00 AM 8.62 47.516 0.449 7.73 93.03 10.51
3/11/2021 3:30:00 AM 8.55 47.39 0.448 7.72 93.77 10.55
3/11/2021 3:45:00 AM 8.48 47.264 0.448 7.73 96.76 10.57
3/11/2021 4:00:00 AM 8.41 47.138 0.447 7.72 99.26 10.61
3/11/2021 4:15:00 AM 8.35 47.03 0.446 7.73 108.2 10.61
3/11/2021 4:30:00 AM 8.3 46.94 0.446 7.74 101.6 10.65
3/11/2021 4:45:00 AM 8.24 46.832 0.445 7.74 113.1 10.66
3/11/2021 5:00:00 AM 8.18 46.724 0.444 7.73 99.48 10.68
3/11/2021 5:15:00 AM 8.12 46.616 0.444 7.74 106.8 10.7
3/11/2021 5:30:00 AM 8.08 46.544 0.443 7.72 113.2 10.72
3/11/2021 5:45:00 AM 8.05 46.49 0.442 7.72 95.35 10.75
3/11/2021 6:00:00 AM 8.01 46.418 0.441 7.73 102.4 10.75
3/11/2021 6:15:00 AM 7.96 46.328 0.442 7.74 94.87 10.77
3/11/2021 6:30:00 AM 7.91 46.238 0.441 7.72 98.25 10.78
3/11/2021 6:45:00 AM 7.87 46.166 0.441 7.72 98.39 10.82
3/11/2021 7:00:00 AM 7.83 46.094 0.44 7.73 105.9 10.84
3/11/2021 7:15:00 AM 7.81 46.058 0.44 7.74 106.8 10.9
3/11/2021 7:30:00 AM 7.81 46.058 0.439 7.74 111.3 11
3/11/2021 7:45:00 AM 7.82 46.076 0.438 7.75 105.4 11.12
3/11/2021 8:00:00 AM 7.82 46.076 0.438 7.75 102.7 11.2
3/11/2021 8:15:00 AM 7.85 46.13 0.436 7.75 105.4 11.29
3/11/2021 8:30:00 AM 7.89 46.202 0.436 7.75 109.6 11.4
3/11/2021 8:45:00 AM 7.96 46.328 0.436 7.77 103.5 11.51
3/11/2021 9:00:00 AM 8.04 46.472 0.436 7.77 103.2 11.62
3/11/2021 9:15:00 AM 8.14 46.652 0.436 7.79 100.9 11.75
3/11/2021 9:30:00 AM 8.24 46.832 0.436 7.79 104.6 11.86
3/11/2021 9:45:00 AM 8.36 47.048 0.435 7.8 101.2 11.97
3/11/2021 10:00:00 AM 8.49 47.282 0.435 7.81 111.1 12.08
3/11/2021 10:15:00 AM 8.63 47.534 0.434 7.81 99.97 12.16
3/11/2021 10:30:00 AM 8.78 47.804 0.434 7.81 106.4 12.23
3/11/2021 10:45:00 AM 8.96 48.128 0.434 7.83 95.52 12.34
3/11/2021 11:00:00 AM 9.18 48.524 0.433 7.84 102.4 12.41
3/11/2021 11:15:00 AM 9.42 48.956 0.433 7.86 106.5 12.51
3/11/2021 11:30:00 AM 9.66 49.388 0.433 7.87 96.75 12.59
3/11/2021 11:45:00 AM 9.86 49.748 0.433 7.87 94.74 12.62
3/11/2021 12:00:00 PM 9.91 49.838 0.432 7.89 102.3 12.47
3/11/2021 12:15:00 PM 9.98 49.964 0.432 7.87 102.8 12.4
3/11/2021 12:30:00 PM 10.11 50.198 0.432 7.88 105.6 12.42
3/11/2021 12:45:00 PM 10.22 50.396 0.432 7.9 100 12.37
3/11/2021 1:00:00 PM 10.28 50.504 0.432 7.89 98.59 12.26
3/11/2021 1:15:00 PM 10.35 50.63 0.432 7.9 99.59 12.23
3/11/2021 1:30:00 PM 10.42 50.756 0.432 7.89 102.2 12.1
3/11/2021 1:45:00 PM 10.52 50.936 0.431 7.9 95.22 12.07
3/11/2021 2:00:00 PM 10.61 51.098 0.431 7.9 95.33 12.05
3/11/2021 2:15:00 PM 10.69 51.242 0.431 7.9 100.9 12.04
3/11/2021 2:30:00 PM 10.79 51.422 0.43 7.9 105.7 12.06
3/11/2021 2:45:00 PM 10.88 51.584 0.43 7.91 95.28 12.07
3/11/2021 3:00:00 PM 10.95 51.71 0.43 7.93 96.33 12.02
3/11/2021 3:15:00 PM 11.01 51.818 0.43 7.92 98.83 11.94
3/11/2021 3:30:00 PM 11.06 51.908 0.429 7.92 91.89 11.83
3/11/2021 3:45:00 PM 11.1 51.98 0.43 7.91 96.17 11.67
3/11/2021 4:00:00 PM 11.13 52.034 0.429 7.9 96.06 11.53
3/11/2021 4:15:00 PM 11.15 52.07 0.43 7.89 100.5 11.38
3/11/2021 4:30:00 PM 11.17 52.106 0.43 7.88 102.8 11.24
3/11/2021 4:45:00 PM 11.19 52.142 0.429 7.89 100.1 11.14
3/11/2021 5:00:00 PM 11.21 52.178 0.43 7.87 97.11 11.07
3/11/2021 5:15:00 PM 11.24 52.232 0.429 7.88 99.05 11.03
3/11/2021 5:30:00 PM 11.26 52.268 0.429 7.86 101.6 10.98
3/11/2021 5:45:00 PM 11.27 52.286 0.429 7.87 76.98 10.89
3/11/2021 6:00:00 PM 11.28 52.304 0.43 7.87 89.39 10.77
3/11/2021 6:15:00 PM 11.3 52.34 0.436 7.85 103.9 10.68
3/11/2021 6:30:00 PM 11.3 52.34 0.434 7.83 102.9 10.59
3/11/2021 6:45:00 PM 11.3 52.34 0.431 7.82 94.23 10.52
3/11/2021 7:00:00 PM 11.29 52.322 0.43 7.82 100.4 10.43
3/11/2021 7:15:00 PM 11.26 52.268 0.43 7.83 106.9 10.37
3/11/2021 7:30:00 PM 11.25 52.25 0.43 7.82 105.4 10.3
3/11/2021 7:45:00 PM 11.24 52.232 0.43 7.79 107.9 10.25
3/11/2021 8:00:00 PM 11.21 52.178 0.43 7.8 111.6 10.21
3/11/2021 8:15:00 PM 11.18 52.124 0.429 7.8 118 10.16
3/11/2021 8:30:00 PM 11.15 52.07 0.43 7.78 109.3 10.11
3/11/2021 8:45:00 PM 11.12 52.016 0.43 7.79 107.2 10.07
3/11/2021 9:00:00 PM 11.08 51.944 0.43 7.77 116.1 10.05
3/11/2021 9:15:00 PM 11.04 51.872 0.43 7.76 108.1 10.01
3/11/2021 9:30:00 PM 11 51.8 0.43 7.77 120.8 10.01
3/11/2021 9:45:00 PM 10.95 51.71 0.429 7.76 118 9.99
3/11/2021 10:00:00 PM 10.9 51.62 0.43 7.76 118.3 9.96
3/11/2021 10:15:00 PM 10.85 51.53 0.43 7.76 147.2 9.96
3/11/2021 10:30:00 PM 10.79 51.422 0.43 7.74 120.9 9.96
3/11/2021 10:45:00 PM 10.73 51.314 0.43 7.75 114.9 9.95
3/11/2021 11:00:00 PM 10.66 51.188 0.429 7.75 128.9 9.96
3/11/2021 11:15:00 PM 10.6 51.08 0.429 7.74 113.5 9.97
3/11/2021 11:30:00 PM 10.54 50.972 0.429 7.74 118.9 9.97
3/11/2021 11:45:00 PM 10.49 50.882 0.428 7.72 124.5 9.98
3/12/2021 12:00:00 AM 10.44 50.792 0.429 7.74 112.1 10
3/12/2021 12:15:00 AM 10.4 50.72 0.43 7.73 118.5 10.01
3/12/2021 12:30:00 AM 10.37 50.666 0.43 7.73 123.7 10.01
3/12/2021 12:45:00 AM 10.34 50.612 0.43 7.73 122.3 10.03
3/12/2021 1:00:00 AM 10.31 50.558 0.429 7.72 116.5 10.03
3/12/2021 1:15:00 AM 10.28 50.504 0.428 7.73 124.3 10.03
3/12/2021 1:30:00 AM 10.25 50.45 0.428 7.72 122.7 10.04
3/12/2021 1:45:00 AM 10.23 50.414 0.427 7.73 135.5 10.03
3/12/2021 2:00:00 AM 10.21 50.378 0.427 7.72 132.6 10.05
3/12/2021 2:15:00 AM 10.2 50.36 0.426 7.73 148.4 10.04
3/12/2021 2:30:00 AM 10.18 50.324 0.426 7.72 293.9 10.07
3/12/2021 2:45:00 AM 10.17 50.306 0.426 7.71 496.8 10.08
3/12/2021 3:00:00 AM 10.16 50.288 0.426 7.72 395.9 10.08
3/12/2021 3:15:00 AM 10.16 50.288 0.426 7.71 504.5 10.08
3/12/2021 3:30:00 AM 10.16 50.288 0.424 7.72 456.1 10.07
3/12/2021 3:45:00 AM 10.17 50.306 0.425 7.72 273.8 10.07
3/12/2021 4:00:00 AM 10.17 50.306 0.425 7.7 480.8 10.08
3/12/2021 4:15:00 AM 10.17 50.306 0.424 7.72 604.2 10.07
3/12/2021 4:30:00 AM 10.17 50.306 0.424 7.72 328.3 10.08
3/12/2021 4:45:00 AM 10.17 50.306 0.423 7.7 315.5 10.08
3/12/2021 5:00:00 AM 10.16 50.288 0.423 7.72 420.2 10.08
3/12/2021 5:15:00 AM 10.13 50.234 0.422 7.71 267.2 10.09
3/12/2021 5:30:00 AM 10.11 50.198 0.422 7.71 648 10.1
3/12/2021 5:45:00 AM 10.09 50.162 0.422 7.72 405.3 10.1
3/12/2021 6:00:00 AM 10.08 50.144 0.421 7.72 389.9 10.1
3/12/2021 6:15:00 AM 10.07 50.126 0.421 7.71 272.6 10.09
3/12/2021 6:30:00 AM 10.06 50.108 0.421 7.72 314.4 10.1
3/12/2021 6:45:00 AM 10.04 50.072 0.421 7.72 322.4 10.12
3/12/2021 7:00:00 AM 10 50 0.421 7.72 293.8 10.14
3/12/2021 7:15:00 AM 9.95 49.91 0.42 7.71 293.1 10.19
3/12/2021 7:30:00 AM 9.93 49.874 0.419 7.73 287.7 10.26
3/12/2021 7:45:00 AM 9.92 49.856 0.418 7.73 277.6 10.35
3/12/2021 8:00:00 AM 9.91 49.838 0.418 7.74 272.3 10.48
3/12/2021 8:15:00 AM 9.92 49.856 0.418 7.74 282.6 10.6
3/12/2021 8:30:00 AM 9.94 49.892 0.418 7.74 303.9 10.76
3/12/2021 8:45:00 AM 9.95 49.91 0.418 7.77 282.3 10.86
3/12/2021 9:00:00 AM 10 50 0.418 7.76 360.1 11.04
3/12/2021 9:15:00 AM 10.05 50.09 0.417 7.79 300.9 11.17
3/12/2021 9:30:00 AM 10.11 50.198 0.417 7.8 288.2 11.33
3/12/2021 9:45:00 AM 10.18 50.324 0.417 7.81 330.7 11.46
3/12/2021 10:00:00 AM 10.25 50.45 0.417 7.81 267.9 11.6
3/12/2021 10:15:00 AM 10.33 50.594 0.417 7.83 330.8 11.71
3/12/2021 10:30:00 AM 10.42 50.756 0.416 7.84 264.7 11.85
3/12/2021 10:45:00 AM 10.54 50.972 0.416 7.86 347 11.98
3/12/2021 11:00:00 AM 10.66 51.188 0.416 7.87 298.5 12.11
3/12/2021 11:15:00 AM 10.78 51.404 0.416 7.89 381.1 12.21
3/12/2021 11:30:00 AM 10.91 51.638 0.416 7.89 339 12.32
3/12/2021 11:45:00 AM 11.06 51.908 0.415 7.9 315.8 12.41
3/12/2021 12:00:00 PM 11.2 52.16 0.415 7.92 289.2 12.5
3/12/2021 12:15:00 PM 11.36 52.448 0.415 7.93 274.8 12.58
3/12/2021 12:30:00 PM 11.52 52.736 0.414 7.94 323.7 12.64
3/12/2021 12:45:00 PM 11.69 53.042 0.414 7.95 336.8 12.71
3/12/2021 1:00:00 PM 11.84 53.312 0.414 7.97 283.5 12.78
3/12/2021 1:15:00 PM 11.99 53.582 0.414 7.97 222.4 12.8
3/12/2021 1:30:00 PM 12.14 53.852 0.413 7.98 226.3 12.82
3/12/2021 1:45:00 PM 12.29 54.122 0.413 8 248.9 12.83
3/12/2021 2:00:00 PM 12.42 54.356 0.413 8.01 273.2 12.84
3/12/2021 2:15:00 PM 12.53 54.554 0.412 8.02 255.5 12.81
3/12/2021 2:30:00 PM 12.6 54.68 0.412 8.03 259.7 12.75
3/12/2021 2:45:00 PM 12.69 54.842 0.411 8.05 279.8 12.71
3/12/2021 3:00:00 PM 12.8 55.04 0.411 8.04 239.9 12.66
3/12/2021 3:15:00 PM 12.88 55.184 0.411 8.05 352.8 12.64
3/12/2021 3:30:00 PM 12.96 55.328 0.411 8.05 310.3 12.59
3/12/2021 3:45:00 PM 13 55.4 0.411 8.06 334.1 12.5
3/12/2021 4:00:00 PM 13.04 55.472 0.411 8.06 302.9 12.44
3/12/2021 4:15:00 PM 13.05 55.49 0.41 8.08 296.2 12.33
3/12/2021 4:30:00 PM 13.06 55.508 0.411 8.07 294.3 12.23
3/12/2021 4:45:00 PM 13.05 55.49 0.41 8.06 356.3 12.09
3/12/2021 5:00:00 PM 13.01 55.418 0.409 8.08 305.9 11.92
3/12/2021 5:15:00 PM 12.95 55.31 0.41 8.07 302.6 11.73
3/12/2021 5:30:00 PM 12.88 55.184 0.41 8.04 363.5 11.54
3/12/2021 5:45:00 PM 12.84 55.112 0.411 8.05 330.6 11.36
3/12/2021 6:00:00 PM 12.76 54.968 0.414 8.04 397 11.18
3/12/2021 6:15:00 PM 12.68 54.824 0.415 8.03 345.8 11.02
3/12/2021 6:30:00 PM 12.62 54.716 0.415 8.02 406.9 10.87
3/12/2021 6:45:00 PM 12.55 54.59 0.413 7.99 383.1 10.74
3/12/2021 7:00:00 PM 12.45 54.41 0.412 7.97 497.7 10.64
3/12/2021 7:15:00 PM 12.36 54.248 0.411 7.99 625.2 10.55
3/12/2021 7:30:00 PM 12.24 54.032 0.412 7.97 581.1 10.48
3/12/2021 7:45:00 PM 12.12 53.816 0.412 7.94 606.8 10.39
3/12/2021 8:00:00 PM 11.98 53.564 0.413 7.95 894.8 10.32
3/12/2021 8:15:00 PM 11.85 53.33 0.414 7.92 777.3 10.28
3/12/2021 8:30:00 PM 11.7 53.06 0.414 7.93 1404 10.23
3/12/2021 8:45:00 PM 11.57 52.826 0.414 7.92 1572 10.2
3/12/2021 9:00:00 PM 11.43 52.574 0.414 7.89 1586 10.18
3/12/2021 9:15:00 PM 11.29 52.322 0.415 7.9 2134 10.15
3/12/2021 9:30:00 PM 11.15 52.07 0.415 7.89 1957 10.12
3/12/2021 9:45:00 PM 11 51.8 0.416 7.86 1941 10.11
3/12/2021 10:00:00 PM 10.86 51.548 0.416 7.87 2551 10.09
3/12/2021 10:15:00 PM 10.7 51.26 0.417 7.85 2368 10.11
3/12/2021 10:30:00 PM 10.54 50.972 0.418 7.84 1832 10.1
3/12/2021 10:45:00 PM 10.38 50.684 0.418 7.83 1958 10.12
3/12/2021 11:00:00 PM 10.22 50.396 0.418 7.83 1597 10.12
3/12/2021 11:15:00 PM 10.05 50.09 0.418 7.8 1115 10.15
3/12/2021 11:30:00 PM 9.87 49.766 0.419 7.8 766.1 10.17
3/12/2021 11:45:00 PM 9.71 49.478 0.42 7.8 753.3 10.19
3/13/2021 12:00:00 AM 9.53 49.154 0.42 7.8 336 10.23
3/13/2021 12:15:00 AM 9.37 48.866 0.42 7.78 471.7 10.26
3/13/2021 12:30:00 AM 9.2 48.56 0.421 7.78 20.55 10.31
3/13/2021 12:45:00 AM 9.04 48.272 0.42 7.77 16.48 10.33
3/13/2021 1:00:00 AM 8.89 48.002 0.421 7.77 18.35 10.38
3/13/2021 1:15:00 AM 8.74 47.732 0.421 7.78 16.66 10.43
3/13/2021 1:30:00 AM 8.58 47.444 0.422 7.77 17.57 10.49
3/13/2021 1:45:00 AM 8.41 47.138 0.422 7.77 17.36 10.53
3/13/2021 2:00:00 AM 8.25 46.85 0.421 7.78 18.5 10.57
3/13/2021 2:15:00 AM 8.08 46.544 0.422 7.77 16.78 10.63
3/13/2021 2:30:00 AM 7.93 46.274 0.422 7.77 15.2 10.67
3/13/2021 2:45:00 AM 7.78 46.004 0.422 7.77 19.61 10.72
3/13/2021 3:00:00 AM 7.66 45.788 0.422 7.77 17.08 10.76
3/13/2021 3:15:00 AM 7.51 45.518 0.421 7.77 17.35 10.81
3/13/2021 3:30:00 AM 7.38 45.284 0.421 7.77 14.98 10.85
3/13/2021 3:45:00 AM 7.26 45.068 0.421 7.76 16.69 10.9
3/13/2021 4:00:00 AM 7.16 44.888 0.421 7.77 16.77 10.93
3/13/2021 4:15:00 AM 7.06 44.708 0.421 7.78 13.36 10.99
3/13/2021 4:30:00 AM 6.95 44.51 0.421 7.77 16.02 11.02
3/13/2021 4:45:00 AM 6.85 44.33 0.421 7.77 15.81 11.08
3/13/2021 5:00:00 AM 6.75 44.15 0.42 7.78 16.22 11.11
3/13/2021 5:15:00 AM 6.66 43.988 0.421 7.77 15.05 11.15
3/13/2021 5:30:00 AM 6.56 43.808 0.42 7.77 16.22 11.19
3/13/2021 5:45:00 AM 6.48 43.664 0.42 7.77 15.67 11.22
3/13/2021 6:00:00 AM 6.38 43.484 0.419 7.77 17.79 11.26
3/13/2021 6:15:00 AM 6.3 43.34 0.419 7.78 14.69 11.3
3/13/2021 6:30:00 AM 6.22 43.196 0.42 7.78 14.41 11.34
3/13/2021 6:45:00 AM 6.13 43.034 0.419 7.77 15.96 11.38
3/13/2021 7:00:00 AM 6.06 42.908 0.418 7.79 13.67 11.47
3/13/2021 7:15:00 AM 6 42.8 0.419 7.78 15.33 11.53
3/13/2021 7:30:00 AM 5.97 42.746 0.419 7.78 15.77 11.62
3/13/2021 7:45:00 AM 5.94 42.692 0.419 7.8 13.47 11.73
3/13/2021 8:00:00 AM 5.93 42.674 0.419 7.79 13.5 11.85
3/13/2021 8:15:00 AM 5.94 42.692 0.419 7.8 12.21 11.97
3/13/2021 8:30:00 AM 5.97 42.746 0.418 7.8 13.45 12.11
3/13/2021 8:45:00 AM 6.02 42.836 0.418 7.82 14.69 12.23
3/13/2021 9:00:00 AM 6.09 42.962 0.418 7.82 13.99 12.36
3/13/2021 9:15:00 AM 6.17 43.106 0.417 7.83 14.38 12.49
3/13/2021 9:30:00 AM 6.28 43.304 0.418 7.84 11.84 12.57
3/13/2021 9:45:00 AM 6.39 43.502 0.417 7.85 13.72 12.68
3/13/2021 10:00:00 AM 6.52 43.736 0.418 7.85 14.11 12.77
3/13/2021 10:15:00 AM 6.65 43.97 0.417 7.87 9.3 12.87
3/13/2021 10:30:00 AM 6.79 44.222 0.417 7.86 10.72 12.95
3/13/2021 10:45:00 AM 6.96 44.528 0.417 7.88 12.17 13.06
3/13/2021 11:00:00 AM 7.14 44.852 0.417 7.88 8.92 13.13
3/13/2021 11:15:00 AM 7.31 45.158 0.416 7.89 10 13.2
3/13/2021 11:30:00 AM 7.51 45.518 0.416 7.9 9.14 13.27
3/13/2021 11:45:00 AM 7.7 45.86 0.416 7.92 9.17 13.33
3/13/2021 12:00:00 PM 7.9 46.22 0.416 7.93 10 13.37
3/13/2021 12:15:00 PM 8.12 46.616 0.415 7.93 10.83 13.41
3/13/2021 12:30:00 PM 8.33 46.994 0.415 7.94 9.95 13.44
3/13/2021 12:45:00 PM 8.54 47.372 0.415 7.95 9.85 13.45
3/13/2021 1:00:00 PM 8.77 47.786 0.415 7.96 8.59 13.45
3/13/2021 1:15:00 PM 8.99 48.182 0.414 7.97 9.15 13.5
3/13/2021 1:30:00 PM 9.22 48.596 0.416 7.99 8.55 13.47
3/13/2021 1:45:00 PM 9.43 48.974 0.414 7.99 8.24 13.46
3/13/2021 2:00:00 PM 9.64 49.352 0.414 8.01 9.43 13.44
3/13/2021 2:15:00 PM 9.83 49.694 0.414 8.01 8.54 13.4
3/13/2021 2:30:00 PM 10 50 0.413 8.02 10.33 13.38
3/13/2021 2:45:00 PM 10.17 50.306 0.412 8.03 10.03 13.34
3/13/2021 3:00:00 PM 10.3 50.54 0.411 8.04 8.95 13.27
3/13/2021 3:15:00 PM 10.42 50.756 0.41 8.04 9.29 13.23
3/13/2021 3:30:00 PM 10.53 50.954 0.41 8.05 8.87 13.16
3/13/2021 3:45:00 PM 10.64 51.152 0.409 8.06 11.43 13.1
3/13/2021 4:00:00 PM 10.75 51.35 0.408 8.06 12.29 13.03
3/13/2021 4:15:00 PM 10.85 51.53 0.407 8.06 10.26 12.93
3/13/2021 4:30:00 PM 10.92 51.656 0.408 8.06 9.41 12.82
3/13/2021 4:45:00 PM 10.96 51.728 0.407 8.07 10.29 12.69
3/13/2021 5:00:00 PM 10.98 51.764 0.408 8.08 11.31 12.54
3/13/2021 5:15:00 PM 11 51.8 0.408 8.06 9.95 12.39
3/13/2021 5:30:00 PM 11.02 51.836 0.408 8.07 10.52 12.22
3/13/2021 5:45:00 PM 11.01 51.818 0.408 8.06 10.54 12.05
3/13/2021 6:00:00 PM 10.98 51.764 0.409 8.05 11.89 11.86
3/13/2021 6:15:00 PM 10.95 51.71 0.408 8.04 9.44 11.67
3/13/2021 6:30:00 PM 10.92 51.656 0.408 8.02 10.25 11.5
3/13/2021 6:45:00 PM 10.89 51.602 0.409 8.01 11.91 11.35
3/13/2021 7:00:00 PM 10.86 51.548 0.409 8 11.57 11.21
3/13/2021 7:15:00 PM 10.81 51.458 0.409 7.99 12.46 11.09
3/13/2021 7:30:00 PM 10.74 51.332 0.409 7.99 10.7 11.01
3/13/2021 7:45:00 PM 10.67 51.206 0.41 7.97 12.24 10.91
3/13/2021 8:00:00 PM 10.59 51.062 0.412 7.98 14.12 10.83
3/13/2021 8:15:00 PM 10.49 50.882 0.411 7.95 14.36 10.74
3/13/2021 8:30:00 PM 10.39 50.702 0.411 7.94 13.72 10.7
3/13/2021 8:45:00 PM 10.29 50.522 0.411 7.94 14.99 10.64
3/13/2021 9:00:00 PM 10.19 50.342 0.412 7.93 12.1 10.6
3/13/2021 9:15:00 PM 10.07 50.126 0.412 7.91 15.6 10.56
3/13/2021 9:30:00 PM 9.94 49.892 0.412 7.91 14.74 10.54
3/13/2021 9:45:00 PM 9.82 49.676 0.413 7.91 14.69 10.51
3/13/2021 10:00:00 PM 9.68 49.424 0.414 7.88 17.84 10.48
3/13/2021 10:15:00 PM 9.56 49.208 0.414 7.87 17.84 10.47
3/13/2021 10:30:00 PM 9.42 48.956 0.415 7.86 16.01 10.48
3/13/2021 10:45:00 PM 9.28 48.704 0.416 7.86 15.74 10.47
3/13/2021 11:00:00 PM 9.13 48.434 0.417 7.84 15.37 10.48
3/13/2021 11:15:00 PM 8.99 48.182 0.418 7.83 15.15 10.49
3/13/2021 11:30:00 PM 8.85 47.93 0.418 7.82 16.76 10.5
3/13/2021 11:45:00 PM 8.7 47.66 0.418 7.83 15.41 10.53
3/14/2021 12:00:00 AM 8.56 47.408 0.419 7.81 15.31 10.56
3/14/2021 12:15:00 AM 8.43 47.174 0.42 7.81 19.33 10.58
3/14/2021 12:30:00 AM 8.29 46.922 0.42 7.8 16.48 10.61
3/14/2021 12:45:00 AM 8.16 46.688 0.42 7.8 17.35 10.63
3/14/2021 1:00:00 AM 8.04 46.472 0.422 7.8 15.61 10.66
3/14/2021 1:15:00 AM 7.92 46.256 0.42 7.78 17.18 10.68
3/14/2021 1:30:00 AM 7.79 46.022 0.42 7.79 18.16 10.73
3/14/2021 1:45:00 AM 7.67 45.806 0.421 7.79 15.88 10.76
3/14/2021 3:00:00 AM 7.09 44.762 0.421 7.77 15.7 10.94
3/14/2021 4:30:00 AM 6.91 44.438 0.421 7.78 15.21 11
3/14/2021 4:45:00 AM 6.83 44.294 0.421 7.78 15.16 11.03
3/14/2021 5:00:00 AM 6.75 44.15 0.423 7.78 15.81 11.06
3/14/2021 5:15:00 AM 6.68 44.024 0.422 7.77 15.86 11.08
3/14/2021 5:30:00 AM 6.61 43.898 0.42 7.78 14.21 11.12
3/14/2021 5:45:00 AM 6.55 43.79 0.42 7.77 15.18 11.14
3/14/2021 6:00:00 AM 6.49 43.682 0.421 7.78 16.05 11.17
3/14/2021 6:15:00 AM 6.43 43.574 0.42 7.77 15.43 11.18
3/14/2021 6:30:00 AM 6.37 43.466 0.422 7.77 15.57 11.2
3/14/2021 6:45:00 AM 6.31 43.358 0.42 7.78 16.23 11.22
3/14/2021 7:00:00 AM 6.26 43.268 0.423 7.78 18.21 11.24
3/14/2021 7:15:00 AM 6.21 43.178 0.42 7.77 13.72 11.26
3/14/2021 7:30:00 AM 6.16 43.088 0.421 7.78 14.26 11.28
3/14/2021 7:45:00 AM 6.12 43.016 0.421 7.78 15.15 11.32
3/14/2021 8:00:00 AM 6.09 42.962 0.421 7.77 14.39 11.38
3/14/2021 8:15:00 AM 6.07 42.926 0.419 7.79 14.81 11.45
3/14/2021 8:30:00 AM 6.05 42.89 0.419 7.79 12.98 11.54
3/14/2021 8:45:00 AM 6.06 42.908 0.419 7.79 15.68 11.65
3/14/2021 9:00:00 AM 6.07 42.926 0.418 7.8 13.41 11.75
3/14/2021 9:15:00 AM 6.12 43.016 0.417 7.81 15.81 11.89
3/14/2021 9:30:00 AM 6.17 43.106 0.418 7.81 11.55 12.03
3/14/2021 9:45:00 AM 6.24 43.232 0.417 7.82 10.71 12.13
3/14/2021 10:00:00 AM 6.33 43.394 0.417 7.83 13.06 12.28
3/14/2021 10:15:00 AM 6.43 43.574 0.416 7.84 11.88 12.4
3/14/2021 10:30:00 AM 6.54 43.772 0.416 7.85 13.11 12.53
3/14/2021 10:45:00 AM 6.66 43.988 0.416 7.86 12.12 12.63
3/14/2021 11:00:00 AM 6.81 44.258 0.416 7.87 13.76 12.73
3/14/2021 11:15:00 AM 6.97 44.546 0.416 7.88 15.01 12.84
3/14/2021 11:30:00 AM 7.13 44.834 0.416 7.89 13.58 12.91
3/14/2021 11:45:00 AM 7.32 45.176 0.416 7.9 16.99 13
3/14/2021 12:00:00 PM 7.52 45.536 0.416 7.91 13.57 13.08
3/14/2021 12:15:00 PM 7.72 45.896 0.415 7.92 11.24 13.17
3/14/2021 12:30:00 PM 7.92 46.256 0.415 7.93 10.51 13.23
3/14/2021 12:45:00 PM 8.13 46.634 0.415 7.94 10.55 13.3
3/14/2021 1:00:00 PM 8.33 46.994 0.415 7.96 14.28 13.37
3/14/2021 1:15:00 PM 8.56 47.408 0.414 7.96 14.16 13.4
3/14/2021 1:30:00 PM 8.78 47.804 0.414 7.98 12.31 13.42
3/14/2021 1:45:00 PM 9 48.2 0.414 7.99 12.95 13.46
3/14/2021 2:00:00 PM 9.19 48.542 0.414 8.01 13.66 13.47
3/14/2021 2:15:00 PM 9.42 48.956 0.414 8.02 11.92 13.48
3/14/2021 2:30:00 PM 9.66 49.388 0.412 8.03 16.06 13.49
3/14/2021 2:45:00 PM 9.87 49.766 0.412 8.04 12.79 13.47
3/14/2021 3:00:00 PM 10.09 50.162 0.412 8.06 16.51 13.45
3/14/2021 3:15:00 PM 10.25 50.45 0.411 8.07 10.92 13.41
3/14/2021 3:30:00 PM 10.4 50.72 0.41 8.08 10 13.37
3/14/2021 3:45:00 PM 10.54 50.972 0.41 8.08 11.26 13.32
3/14/2021 4:00:00 PM 10.66 51.188 0.409 8.09 13.52 13.26
3/14/2021 4:15:00 PM 10.76 51.368 0.409 8.1 12.39 13.21
3/14/2021 4:30:00 PM 10.87 51.566 0.408 8.11 14.48 13.15
3/14/2021 4:45:00 PM 10.96 51.728 0.407 8.12 12.07 13.1
3/14/2021 5:00:00 PM 11.01 51.818 0.407 8.13 15.96 13.01
3/14/2021 5:15:00 PM 11.05 51.89 0.406 8.13 20.18 12.93
3/14/2021 5:30:00 PM 11.07 51.926 0.406 8.15 14.39 12.79
3/14/2021 5:45:00 PM 11.08 51.944 0.406 8.13 12.91 12.67
3/14/2021 6:00:00 PM 11.05 51.89 0.406 8.14 11.64 12.53
3/14/2021 6:15:00 PM 10.99 51.782 0.405 8.15 13.77 12.37
3/14/2021 6:30:00 PM 10.91 51.638 0.406 8.13 12.91 12.18
3/14/2021 6:45:00 PM 10.85 51.53 0.406 8.12 20.08 12
3/14/2021 7:00:00 PM 10.77 51.386 0.407 8.12 14.64 11.8
3/14/2021 7:15:00 PM 10.69 51.242 0.407 8.1 16.73 11.64
3/14/2021 7:30:00 PM 10.62 51.116 0.407 8.09 18.46 11.46
3/14/2021 7:45:00 PM 10.54 50.972 0.407 8.08 13.69 11.32
3/14/2021 8:00:00 PM 10.44 50.792 0.407 8.07 14.73 11.21
3/14/2021 8:15:00 PM 10.33 50.594 0.407 8.06 15.6 11.11
3/14/2021 8:30:00 PM 10.22 50.396 0.408 8.06 18.48 11.04
3/14/2021 8:45:00 PM 10.09 50.162 0.409 8.05 15.45 10.96
3/14/2021 9:00:00 PM 9.94 49.892 0.41 8.03 15.14 10.9
3/14/2021 9:15:00 PM 9.81 49.658 0.41 8.02 15.38 10.84
3/14/2021 9:30:00 PM 9.68 49.424 0.411 8.01 15.58 10.8
3/14/2021 9:45:00 PM 9.56 49.208 0.411 8 17.81 10.75
3/14/2021 10:00:00 PM 9.43 48.974 0.412 7.99 28.23 10.72
3/14/2021 10:15:00 PM 9.29 48.722 0.413 7.98 17.75 10.71
3/14/2021 10:30:00 PM 9.16 48.488 0.413 7.97 14.12 10.68
3/14/2021 10:45:00 PM 9.02 48.236 0.414 7.96 15.76 10.67
3/14/2021 11:00:00 PM 8.88 47.984 0.414 7.95 17.89 10.66
3/14/2021 11:15:00 PM 8.72 47.696 0.415 7.93 20.7 10.66
3/14/2021 11:30:00 PM 8.56 47.408 0.415 7.92 17.24 10.66
3/14/2021 11:45:00 PM 8.39 47.102 0.416 7.91 24.12 10.69
3/15/2021 12:00:00 AM 8.22 46.796 0.416 7.9 22.06 10.69
3/15/2021 12:15:00 AM 8.08 46.544 0.417 7.89 16.53 10.7
3/15/2021 12:30:00 AM 7.93 46.274 0.418 7.88 17.19 10.75
3/15/2021 12:45:00 AM 7.77 45.986 0.419 7.87 15.91 10.79
3/15/2021 1:00:00 AM 7.61 45.698 0.419 7.86 17.13 10.81
3/15/2021 1:15:00 AM 7.44 45.392 0.42 7.86 19.76 10.85
3/15/2021 1:30:00 AM 7.28 45.104 0.42 7.85 15.06 10.89
3/15/2021 1:45:00 AM 7.14 44.852 0.421 7.84 18.51 10.94
3/15/2021 2:00:00 AM 6.97 44.546 0.421 7.84 16.17 10.99
3/15/2021 2:15:00 AM 6.82 44.276 0.421 7.83 17.36 11.01
3/15/2021 2:30:00 AM 6.67 44.006 0.423 7.83 19.4 11.06
3/15/2021 2:45:00 AM 6.54 43.772 0.423 7.83 17.57 11.11
3/15/2021 3:00:00 AM 6.41 43.538 0.423 7.82 18.2 11.16
3/15/2021 3:15:00 AM 6.26 43.268 0.423 7.82 15.61 11.21
3/15/2021 3:30:00 AM 6.11 42.998 0.424 7.82 15.58 11.27
3/15/2021 3:45:00 AM 5.95 42.71 0.424 7.81 19.18 11.32
3/15/2021 4:00:00 AM 5.82 42.476 0.424 7.81 18.94 11.39
3/15/2021 4:15:00 AM 5.71 42.278 0.424 7.81 29.26 11.43
3/15/2021 4:30:00 AM 5.59 42.062 0.424 7.81 24.8 11.47
3/15/2021 4:45:00 AM 5.5 41.9 0.424 7.81 18.62 11.51
3/15/2021 5:00:00 AM 5.39 41.702 0.424 7.81 16.55 11.56
3/15/2021 5:15:00 AM 5.28 41.504 0.423 7.81 24.37 11.6
3/15/2021 5:30:00 AM 5.18 41.324 0.424 7.81 16.85 11.65
3/15/2021 5:45:00 AM 5.08 41.144 0.423 7.81 19.08 11.71
3/15/2021 6:00:00 AM 4.99 40.982 0.423 7.81 23.74 11.73
3/15/2021 6:15:00 AM 4.9 40.82 0.423 7.81 14.73 11.77
3/15/2021 6:30:00 AM 4.82 40.676 0.423 7.81 17.02 11.82
3/15/2021 6:45:00 AM 4.75 40.55 0.422 7.81 17.81 11.85
3/15/2021 7:00:00 AM 4.66 40.388 0.422 7.82 16.42 11.89
3/15/2021 7:15:00 AM 4.59 40.262 0.423 7.82 22.08 11.94
3/15/2021 7:30:00 AM 4.52 40.136 0.422 7.82 14.01 11.97
3/15/2021 7:45:00 AM 4.45 40.01 0.422 7.82 14.09 12.02
3/15/2021 8:00:00 AM 4.4 39.92 0.422 7.83 18.06 12.09
3/15/2021 8:15:00 AM 4.34 39.812 0.422 7.83 16.75 12.19
3/15/2021 8:30:00 AM 4.3 39.74 0.422 7.83 14.06 12.29
3/15/2021 8:45:00 AM 4.28 39.704 0.422 7.84 22.99 12.42
3/15/2021 9:00:00 AM 4.28 39.704 0.421 7.85 15.74 12.55
3/15/2021 9:15:00 AM 4.31 39.758 0.422 7.86 14.04 12.69
3/15/2021 9:30:00 AM 4.35 39.83 0.422 7.84 12.83 12.83
3/15/2021 9:45:00 AM 4.41 39.938 0.422 7.85 15.28 12.96
3/15/2021 10:00:00 AM 4.49 40.082 0.421 7.86 13 13.1
3/15/2021 10:15:00 AM 4.59 40.262 0.419 7.87 15.85 13.19
3/15/2021 10:30:00 AM 4.68 40.424 0.42 7.9 14.59 13.31
3/15/2021 10:45:00 AM 4.81 40.658 0.42 7.89 19.96 13.41
3/15/2021 11:00:00 AM 4.95 40.91 0.42 7.9 15.1 13.5
3/15/2021 11:15:00 AM 5.11 41.198 0.421 7.9 14.02 13.58
3/15/2021 11:30:00 AM 5.28 41.504 0.42 7.92 10.66 13.66
3/15/2021 11:45:00 AM 5.47 41.846 0.42 7.93 14.97 13.75
3/15/2021 12:00:00 PM 5.68 42.224 0.419 7.93 15.58 13.84
3/15/2021 12:15:00 PM 5.9 42.62 0.419 7.94 16.13 13.91
3/15/2021 12:30:00 PM 6.12 43.016 0.42 7.95 15.25 13.96
3/15/2021 12:45:00 PM 6.32 43.376 0.419 7.96 12.57 14.02
3/15/2021 1:00:00 PM 6.5 43.7 0.419 7.98 14.59 14.06
3/15/2021 1:15:00 PM 6.71 44.078 0.419 7.99 15.6 14.1
3/15/2021 1:30:00 PM 6.92 44.456 0.419 7.99 15.26 14.13
3/15/2021 1:45:00 PM 7.14 44.852 0.418 8.01 14.44 14.16
3/15/2021 2:00:00 PM 7.33 45.194 0.418 8.02 13.86 14.15
3/15/2021 2:15:00 PM 7.55 45.59 0.417 8.03 17.04 14.17
3/15/2021 2:30:00 PM 7.7 45.86 0.417 8.04 15.86 14.15
3/15/2021 2:45:00 PM 7.9 46.22 0.416 8.05 12.83 14.19
3/15/2021 3:00:00 PM 8.09 46.562 0.415 8.07 13.9 14.21
3/15/2021 3:15:00 PM 8.31 46.958 0.414 8.07 12.24 14.2
3/15/2021 3:30:00 PM 8.5 47.3 0.413 8.09 12.04 14.16
3/15/2021 3:45:00 PM 8.66 47.588 0.413 8.09 18.78 14.11
3/15/2021 4:00:00 PM 8.81 47.858 0.413 8.1 11.13 14.06
3/15/2021 4:15:00 PM 8.93 48.074 0.413 8.11 15.73 13.99
3/15/2021 4:30:00 PM 9.06 48.308 0.412 8.12 19.23 13.95
3/15/2021 4:45:00 PM 9.18 48.524 0.412 8.12 12.87 13.9
3/15/2021 5:00:00 PM 9.27 48.686 0.412 8.13 12.47 13.81
3/15/2021 5:15:00 PM 9.36 48.848 0.411 8.14 17.59 13.73
3/15/2021 5:30:00 PM 9.42 48.956 0.411 8.15 17.01 13.65
3/15/2021 5:45:00 PM 9.49 49.082 0.41 8.15 12.12 13.52
3/15/2021 6:00:00 PM 9.53 49.154 0.409 8.16 13.69 13.38
3/15/2021 6:15:00 PM 9.57 49.226 0.408 8.15 22.61 13.18
3/15/2021 6:30:00 PM 9.6 49.28 0.408 8.14 15.36 12.95
3/15/2021 6:45:00 PM 9.61 49.298 0.409 8.13 18.6 12.74
3/15/2021 7:00:00 PM 9.63 49.334 0.409 8.14 16.19 12.52
3/15/2021 7:15:00 PM 9.64 49.352 0.412 8.12 13.5 12.3
3/15/2021 7:30:00 PM 9.64 49.352 0.414 8.11 12.39 12.11
3/15/2021 7:45:00 PM 9.64 49.352 0.414 8.09 15.34 11.94
3/15/2021 8:00:00 PM 9.63 49.334 0.412 8.09 13.8 11.78
3/15/2021 8:15:00 PM 9.61 49.298 0.412 8.07 19.44 11.65
3/15/2021 8:30:00 PM 9.59 49.262 0.411 8.07 19.73 11.53
3/15/2021 8:45:00 PM 9.56 49.208 0.412 8.06 21.23 11.42
3/15/2021 9:00:00 PM 9.53 49.154 0.412 8.05 14.23 11.31
3/15/2021 9:15:00 PM 9.49 49.082 0.413 8.03 26.44 11.22
3/15/2021 9:30:00 PM 9.45 49.01 0.412 8.04 23.66 11.13
3/15/2021 9:45:00 PM 9.4 48.92 0.413 8.02 19.56 11.05
3/15/2021 10:00:00 PM 9.35 48.83 0.414 8 20.6 10.97
3/15/2021 10:15:00 PM 9.29 48.722 0.414 8 20.06 10.91
3/15/2021 10:30:00 PM 9.23 48.614 0.414 7.98 16.22 10.84
3/15/2021 10:45:00 PM 9.16 48.488 0.415 7.96 18.77 10.78
3/15/2021 11:00:00 PM 9.08 48.344 0.416 7.95 20.13 10.74
3/15/2021 11:15:00 PM 9 48.2 0.417 7.95 17.92 10.7
3/15/2021 11:30:00 PM 8.92 48.056 0.417 7.94 21.67 10.69
3/15/2021 11:45:00 PM 8.83 47.894 0.418 7.92 17.42 10.67
3/16/2021 12:00:00 AM 8.74 47.732 0.42 7.9 36.01 10.63
3/16/2021 12:15:00 AM 8.65 47.57 0.42 7.89 20.27 10.63
3/16/2021 12:30:00 AM 8.56 47.408 0.419 7.88 16.64 10.62
3/16/2021 12:45:00 AM 8.48 47.264 0.42 7.88 14.23 10.61
3/16/2021 1:00:00 AM 8.38 47.084 0.421 7.86 35.95 10.61
3/16/2021 1:15:00 AM 8.27 46.886 0.423 7.85 21.82 10.6
3/16/2021 1:30:00 AM 8.16 46.688 0.423 7.84 27.53 10.62
3/16/2021 1:45:00 AM 8.05 46.49 0.422 7.83 25.92 10.63
3/16/2021 2:00:00 AM 7.95 46.31 0.423 7.83 29.9 10.65
3/16/2021 2:15:00 AM 7.86 46.148 0.423 7.82 24.61 10.67
3/16/2021 2:30:00 AM 7.76 45.968 0.425 7.81 23.05 10.69
3/16/2021 2:45:00 AM 7.65 45.77 0.424 7.81 21.51 10.72
3/16/2021 3:00:00 AM 7.55 45.59 0.426 7.81 25.15 10.74
3/16/2021 3:15:00 AM 7.46 45.428 0.427 7.8 16.53 10.78
3/16/2021 3:30:00 AM 7.37 45.266 0.427 7.8 21.1 10.79
3/16/2021 3:45:00 AM 7.27 45.086 0.426 7.8 18.05 10.83
3/16/2021 4:00:00 AM 7.18 44.924 0.428 7.8 22.21 10.86
3/16/2021 4:15:00 AM 7.09 44.762 0.426 7.8 26.35 10.88
3/16/2021 4:30:00 AM 7 44.6 0.426 7.79 30.88 10.91
3/16/2021 4:45:00 AM 6.92 44.456 0.427 7.8 22.45 10.95
3/16/2021 5:00:00 AM 6.84 44.312 0.427 7.8 24.2 10.96
3/16/2021 5:15:00 AM 6.78 44.204 0.426 7.79 31.08 10.98
3/16/2021 5:30:00 AM 6.7 44.06 0.427 7.79 27.85 11.01
3/16/2021 5:45:00 AM 6.65 43.97 0.427 7.79 36.25 11.04
3/16/2021 6:00:00 AM 6.59 43.862 0.426 7.79 27.13 11.08
3/16/2021 6:15:00 AM 6.53 43.754 0.427 7.79 27.69 11.08
3/16/2021 6:30:00 AM 6.48 43.664 0.429 7.79 35.39 11.11
3/16/2021 6:45:00 AM 6.43 43.574 0.428 7.79 17.72 11.13
3/16/2021 7:00:00 AM 6.38 43.484 0.428 7.79 31.38 11.15
3/16/2021 7:15:00 AM 6.33 43.394 0.427 7.8 33.95 11.17
3/16/2021 7:30:00 AM 6.29 43.322 0.428 7.79 21.96 11.18
3/16/2021 7:45:00 AM 6.24 43.232 0.428 7.79 23.65 11.2
3/16/2021 8:00:00 AM 6.22 43.196 0.427 7.79 34.83 11.23
3/16/2021 8:15:00 AM 6.2 43.16 0.427 7.8 18.44 11.27
3/16/2021 8:30:00 AM 6.18 43.124 0.427 7.8 21.52 11.34
3/16/2021 8:45:00 AM 6.16 43.088 0.427 7.8 17.39 11.41
3/16/2021 9:00:00 AM 6.14 43.052 0.43 7.8 25.42 11.44
3/16/2021 9:15:00 AM 6.14 43.052 0.429 7.81 22.1 11.5
3/16/2021 9:30:00 AM 6.13 43.034 0.428 7.81 29.21 11.59
3/16/2021 9:45:00 AM 6.12 43.016 0.428 7.82 17.09 11.65
3/16/2021 10:00:00 AM 6.12 43.016 0.429 7.82 19.45 11.75
3/16/2021 10:15:00 AM 6.13 43.034 0.429 7.83 17.25 11.86
3/16/2021 10:30:00 AM 6.13 43.034 0.426 7.83 27.2 11.98
3/16/2021 10:45:00 AM 6.15 43.07 0.427 7.85 42.28 12.12
3/16/2021 11:00:00 AM 6.17 43.106 0.426 7.85 16.68 12.21
3/16/2021 11:15:00 AM 6.19 43.142 0.427 7.86 16.81 12.34
3/16/2021 11:30:00 AM 6.21 43.178 0.426 7.88 38.8 12.45
3/16/2021 11:45:00 AM 6.23 43.214 0.428 7.88 29.01 12.51
3/16/2021 12:00:00 PM 6.24 43.232 0.428 7.88 19.04 12.57
3/16/2021 12:15:00 PM 6.25 43.25 0.424 7.89 31.42 12.61
3/16/2021 12:30:00 PM 6.27 43.286 0.428 7.9 35.46 12.66
3/16/2021 12:45:00 PM 6.29 43.322 0.427 7.9 30.21 12.73
3/16/2021 1:00:00 PM 6.37 43.466 0.427 7.92 25.91 12.92
3/16/2021 1:15:00 PM 6.45 43.61 0.427 7.94 36.86 13.1
3/16/2021 1:30:00 PM 6.58 43.844 0.425 7.96 32.43 13.29
3/16/2021 1:45:00 PM 6.71 44.078 0.424 7.97 33.91 13.45
3/16/2021 2:00:00 PM 6.84 44.312 0.424 7.98 22.38 13.6
3/16/2021 2:15:00 PM 6.96 44.528 0.424 8 19.7 13.71
3/16/2021 2:30:00 PM 7.08 44.744 0.424 8.02 22.18 13.8
3/16/2021 2:45:00 PM 7.19 44.942 0.424 8.03 40.85 13.88
3/16/2021 3:00:00 PM 7.29 45.122 0.424 8.05 37.99 13.92
3/16/2021 3:15:00 PM 7.39 45.302 0.424 8.06 48.36 13.98
3/16/2021 3:30:00 PM 7.46 45.428 0.424 8.06 25.01 13.96
3/16/2021 3:45:00 PM 7.52 45.536 0.423 8.07 14.98 13.95
3/16/2021 4:00:00 PM 7.54 45.572 0.423 8.07 21.95 13.87
3/16/2021 4:15:00 PM 7.57 45.626 0.423 8.07 32 13.8
3/16/2021 4:30:00 PM 7.6 45.68 0.423 8.08 25.38 13.77
3/16/2021 4:45:00 PM 7.64 45.752 0.423 8.08 55.09 13.68
3/16/2021 5:00:00 PM 7.67 45.806 0.423 8.09 33.64 13.58
3/16/2021 5:15:00 PM 7.7 45.86 0.422 8.08 32.48 13.43
3/16/2021 5:30:00 PM 7.73 45.914 0.422 8.09 29.6 13.28
3/16/2021 5:45:00 PM 7.76 45.968 0.422 8.07 43.33 13.12
3/16/2021 6:00:00 PM 7.8 46.04 0.422 8.08 18.12 13
3/16/2021 6:15:00 PM 7.83 46.094 0.422 8.06 21.33 12.85
3/16/2021 6:30:00 PM 7.87 46.166 0.422 8.05 66.23 12.71
3/16/2021 6:45:00 PM 7.9 46.22 0.421 8.05 24.92 12.57
3/16/2021 7:00:00 PM 7.93 46.274 0.421 8.04 16.3 12.4
3/16/2021 7:15:00 PM 7.95 46.31 0.421 8.04 28.55 12.27
3/16/2021 7:30:00 PM 7.96 46.328 0.422 8.03 45.26 12.14
3/16/2021 7:45:00 PM 7.96 46.328 0.422 8.02 38.67 12.02
3/16/2021 8:00:00 PM 7.96 46.328 0.422 8.01 57.52 11.91
3/16/2021 8:15:00 PM 7.97 46.346 0.422 8.01 25.09 11.8
3/16/2021 8:30:00 PM 7.96 46.328 0.422 8 25.39 11.69
3/16/2021 8:45:00 PM 7.96 46.328 0.422 7.99 20.49 11.6
3/16/2021 9:00:00 PM 7.96 46.328 0.422 7.99 39.74 11.52
3/16/2021 9:15:00 PM 7.96 46.328 0.422 7.99 44.4 11.43
3/16/2021 9:30:00 PM 7.96 46.328 0.422 7.97 48.58 11.35
3/16/2021 9:45:00 PM 7.96 46.328 0.423 7.96 25.74 11.28
3/16/2021 10:00:00 PM 7.96 46.328 0.423 7.96 12.03 11.21
3/16/2021 10:15:00 PM 7.95 46.31 0.423 7.94 23.81 11.15
3/16/2021 10:30:00 PM 7.95 46.31 0.423 7.94 35.18 11.1
3/16/2021 10:45:00 PM 7.95 46.31 0.424 7.93 30.21 11.03
3/16/2021 11:00:00 PM 7.95 46.31 0.424 7.92 34.34 11
3/16/2021 11:15:00 PM 7.94 46.292 0.424 7.92 34.39 10.93
3/16/2021 11:30:00 PM 7.94 46.292 0.425 7.91 63.31 10.91
3/16/2021 11:45:00 PM 7.93 46.274 0.425 7.89 18.15 10.87
3/17/2021 12:00:00 AM 7.92 46.256 0.426 7.88 22.45 10.85
3/17/2021 12:15:00 AM 7.91 46.238 0.426 7.88 56.77 10.82
3/17/2021 12:30:00 AM 7.89 46.202 0.427 7.87 26.39 10.8
3/17/2021 12:45:00 AM 7.88 46.184 0.427 7.86 22.57 10.77
3/17/2021 1:00:00 AM 7.85 46.13 0.428 7.85 33.08 10.74
3/17/2021 1:15:00 AM 7.83 46.094 0.427 7.84 47.88 10.74
3/17/2021 1:30:00 AM 7.81 46.058 0.428 7.84 15.47 10.72
3/17/2021 1:45:00 AM 7.78 46.004 0.43 7.83 31.17 10.71
3/17/2021 2:00:00 AM 7.75 45.95 0.429 7.83 68.34 10.72
3/17/2021 2:15:00 AM 7.73 45.914 0.43 7.82 44.52 10.71
3/17/2021 2:30:00 AM 7.69 45.842 0.43 7.82 80.73 10.72
3/17/2021 2:45:00 AM 7.66 45.788 0.429 7.81 24.85 10.72
3/17/2021 3:00:00 AM 7.62 45.716 0.431 7.81 37.66 10.73
3/17/2021 3:15:00 AM 7.59 45.662 0.432 7.81 35.45 10.71
3/17/2021 3:30:00 AM 7.55 45.59 0.432 7.81 38.26 10.75
3/17/2021 3:45:00 AM 7.52 45.536 0.432 7.8 72.76 10.75
3/17/2021 4:00:00 AM 7.49 45.482 0.433 7.8 47.57 10.76
3/17/2021 4:15:00 AM 7.46 45.428 0.431 7.8 73.68 10.77
3/17/2021 4:30:00 AM 7.42 45.356 0.433 7.8 27.2 10.78
3/17/2021 4:45:00 AM 7.4 45.32 0.431 7.8 45.11 10.79
3/17/2021 5:00:00 AM 7.37 45.266 0.431 7.8 20.18 10.8
3/17/2021 5:15:00 AM 7.34 45.212 0.431 7.79 23.91 10.81
3/17/2021 5:30:00 AM 7.32 45.176 0.431 7.79 28.92 10.83
3/17/2021 5:45:00 AM 7.3 45.14 0.431 7.79 50.85 10.83
3/17/2021 6:00:00 AM 7.27 45.086 0.433 7.8 23.65 10.85
3/17/2021 6:15:00 AM 7.26 45.068 0.433 7.8 24.36 10.85
3/17/2021 6:30:00 AM 7.24 45.032 0.432 7.79 20.74 10.86
3/17/2021 6:45:00 AM 7.22 44.996 0.432 7.8 23.65 10.85
3/17/2021 7:00:00 AM 7.2 44.96 0.433 7.79 85.43 10.87
3/17/2021 7:15:00 AM 7.18 44.924 0.431 7.8 55.74 10.89
3/17/2021 7:30:00 AM 7.17 44.906 0.431 7.8 99.03 10.9
3/17/2021 7:45:00 AM 7.17 44.906 0.432 7.79 71.62 10.93
3/17/2021 8:00:00 AM 7.16 44.888 0.433 7.79 22.7 10.96
3/17/2021 8:15:00 AM 7.16 44.888 0.431 7.8 28.43 11.05
3/17/2021 8:30:00 AM 7.17 44.906 0.433 7.8 54.96 11.14
3/17/2021 8:45:00 AM 7.18 44.924 0.432 7.81 56.62 11.25
3/17/2021 9:00:00 AM 7.2 44.96 0.431 7.82 44.73 11.36
3/17/2021 9:15:00 AM 7.22 44.996 0.431 7.83 17.51 11.48
3/17/2021 9:30:00 AM 7.26 45.068 0.432 7.84 18.47 11.65
3/17/2021 9:45:00 AM 7.29 45.122 0.432 7.85 35.43 11.78
3/17/2021 10:00:00 AM 7.33 45.194 0.433 7.86 31.03 11.95
3/17/2021 10:15:00 AM 7.38 45.284 0.432 7.87 41.75 12.12
3/17/2021 10:30:00 AM 7.44 45.392 0.431 7.89 41.95 12.31
3/17/2021 10:45:00 AM 7.51 45.518 0.43 7.9 59.18 12.47
3/17/2021 11:00:00 AM 7.57 45.626 0.432 7.92 23.72 12.62
3/17/2021 11:15:00 AM 7.64 45.752 0.431 7.93 54.52 12.77
3/17/2021 11:30:00 AM 7.7 45.86 0.428 7.94 56.81 12.87
3/17/2021 11:45:00 AM 7.74 45.932 0.431 7.95 76.44 12.95
3/17/2021 12:00:00 PM 7.8 46.04 0.431 7.97 15.3 13.06
3/17/2021 12:15:00 PM 7.87 46.166 0.43 7.98 29.09 13.19
3/17/2021 12:30:00 PM 7.96 46.328 0.429 8 25.37 13.32
3/17/2021 12:45:00 PM 8.06 46.508 0.43 8.01 32.4 13.49
3/17/2021 1:00:00 PM 8.18 46.724 0.437 8.02 20.28 13.61
3/17/2021 1:15:00 PM 8.31 46.958 0.468 8.02 56.23 13.69
3/17/2021 1:30:00 PM 8.45 47.21 0.439 8.04 72.92 13.81
3/17/2021 1:45:00 PM 8.63 47.534 0.432 8.08 34.52 13.96
3/17/2021 2:00:00 PM 8.82 47.876 0.428 8.1 77.75 14.06
3/17/2021 2:15:00 PM 9.03 48.254 0.427 8.12 83.29 14.19
3/17/2021 2:30:00 PM 9.16 48.488 0.427 8.13 93.96 14.27
3/17/2021 2:45:00 PM 9.24 48.632 0.426 8.15 27.06 14.26
3/17/2021 3:00:00 PM 9.35 48.83 0.425 8.16 40.31 14.28
3/17/2021 3:15:00 PM 9.54 49.172 0.424 8.17 132.8 14.33
3/17/2021 3:30:00 PM 9.71 49.478 0.424 8.19 234.8 14.35
3/17/2021 3:45:00 PM 9.86 49.748 0.424 8.2 40.61 14.37
3/17/2021 4:00:00 PM 9.99 49.982 0.457 8.19 98.14 14.35
3/17/2021 4:15:00 PM 10.09 50.162 0.44 8.21 23.96 14.3
3/17/2021 4:30:00 PM 10.18 50.324 0.429 8.23 45.59 14.24
3/17/2021 4:45:00 PM 10.27 50.486 0.425 8.24 38.7 14.21
3/17/2021 5:00:00 PM 10.35 50.63 0.422 8.25 11.56 14.16
3/17/2021 5:15:00 PM 10.41 50.738 0.423 8.26 27.43 14.06
3/17/2021 5:30:00 PM 10.46 50.828 0.423 8.27 27.55 13.95
3/17/2021 5:45:00 PM 10.5 50.9 0.423 8.28 49.5 13.82
3/17/2021 6:00:00 PM 10.51 50.918 0.422 8.28 38.48 13.63
3/17/2021 6:15:00 PM 10.52 50.936 0.423 8.28 49.21 13.46
3/17/2021 6:30:00 PM 10.53 50.954 0.422 8.28 20.15 13.25
3/17/2021 6:45:00 PM 10.54 50.972 0.422 8.28 70.61 13.02
3/17/2021 7:00:00 PM 10.55 50.99 0.423 8.27 18.39 12.78
3/17/2021 7:15:00 PM 10.56 51.008 0.425 8.25 26.58 12.51
3/17/2021 7:30:00 PM 10.55 50.99 0.423 8.25 32.46 12.27
3/17/2021 7:45:00 PM 10.55 50.99 0.422 8.24 37.01 12.03
3/17/2021 8:00:00 PM 10.53 50.954 0.424 8.23 75.26 11.81
3/17/2021 8:15:00 PM 10.53 50.954 0.424 8.22 28.11 11.63
3/17/2021 8:30:00 PM 10.53 50.954 0.422 8.21 30.32 11.47
3/17/2021 8:45:00 PM 10.51 50.918 0.422 8.2 34.59 11.32
3/17/2021 9:00:00 PM 10.49 50.882 0.423 8.19 12.65 11.18
3/17/2021 9:15:00 PM 10.48 50.864 0.423 8.18 44.98 11.06
3/17/2021 9:30:00 PM 10.47 50.846 0.423 8.17 42.04 10.93
3/17/2021 9:45:00 PM 10.45 50.81 0.423 8.16 14.68 10.83
3/17/2021 10:00:00 PM 10.43 50.774 0.422 8.14 48.91 10.74
3/17/2021 10:15:00 PM 10.41 50.738 0.425 8.13 86.37 10.65
3/17/2021 10:30:00 PM 10.38 50.684 0.423 8.1 54.51 10.55
3/17/2021 10:45:00 PM 10.35 50.63 0.425 8.1 64.8 10.47
3/17/2021 11:00:00 PM 10.32 50.576 0.426 8.09 87.6 10.4
3/17/2021 11:15:00 PM 10.28 50.504 0.425 8.07 81.52 10.32
3/17/2021 11:30:00 PM 10.23 50.414 0.426 8.04 10.71 10.27
3/17/2021 11:45:00 PM 10.19 50.342 0.425 8.03 63.17 10.22
3/18/2021 12:00:00 AM 10.14 50.252 0.427 8.02 16 10.17
3/18/2021 12:15:00 AM 10.09 50.162 0.428 7.99 23.05 10.12
3/18/2021 12:30:00 AM 10.04 50.072 0.429 7.97 73.33 10.08
3/18/2021 12:45:00 AM 10 50 0.428 7.96 96.11 10.05
3/18/2021 1:00:00 AM 9.94 49.892 0.43 7.94 32.11 10.02
3/18/2021 1:15:00 AM 9.89 49.802 0.432 7.92 68.76 10.01
3/18/2021 1:30:00 AM 9.83 49.694 0.431 7.92 34.27 10
3/18/2021 1:45:00 AM 9.77 49.586 0.433 7.9 113.8 10
3/18/2021 2:00:00 AM 9.72 49.496 0.433 7.88 11.37 9.99
3/18/2021 2:15:00 AM 9.66 49.388 0.435 7.87 52.71 9.98
3/18/2021 2:30:00 AM 9.6 49.28 0.434 7.86 19.65 9.97
3/18/2021 2:45:00 AM 9.54 49.172 0.435 7.85 15.57 9.98
3/18/2021 3:00:00 AM 9.48 49.064 0.437 7.84 27.22 9.99
3/18/2021 3:15:00 AM 9.42 48.956 0.437 7.83 126.4 10
3/18/2021 3:30:00 AM 9.36 48.848 0.44 7.83 22.04 9.99
3/18/2021 3:45:00 AM 9.3 48.74 0.439 7.82 45.75 10.02
3/18/2021 4:00:00 AM 9.24 48.632 0.439 7.81 113.5 10.05
3/18/2021 4:15:00 AM 9.18 48.524 0.439 7.81 14.02 10.06
3/18/2021 4:30:00 AM 9.12 48.416 0.439 7.81 65.16 10.09
3/18/2021 4:45:00 AM 9.06 48.308 0.439 7.81 24.99 10.09
3/18/2021 5:00:00 AM 9 48.2 0.44 7.8 50.23 10.11
3/18/2021 5:15:00 AM 8.95 48.11 0.441 7.79 53.69 10.12
3/18/2021 5:30:00 AM 8.9 48.02 0.44 7.79 29.33 10.15
3/18/2021 5:45:00 AM 8.85 47.93 0.441 7.79 68.26 10.16
3/18/2021 6:00:00 AM 8.79 47.822 0.439 7.79 141.9 10.17
3/18/2021 6:15:00 AM 8.74 47.732 0.441 7.78 55.51 10.18
3/18/2021 6:30:00 AM 8.69 47.642 0.466 7.78 58.91 10.19
3/18/2021 6:45:00 AM 8.65 47.57 0.469 7.76 98.56 10.19
3/18/2021 7:00:00 AM 8.61 47.498 0.46 7.76 20.74 10.2
3/18/2021 7:15:00 AM 8.58 47.444 0.452 7.76 143.1 10.2
3/18/2021 7:30:00 AM 8.56 47.408 0.447 7.77 38.51 10.22
3/18/2021 7:45:00 AM 8.52 47.336 0.451 7.76 181.7 10.23
3/18/2021 8:00:00 AM 8.5 47.3 0.447 7.77 111.7 10.28
3/18/2021 8:15:00 AM 8.47 47.246 0.444 7.77 40.13 10.32
3/18/2021 8:30:00 AM 8.45 47.21 0.445 7.77 240.1 10.36
3/18/2021 8:45:00 AM 8.43 47.174 0.442 7.77 36.45 10.41
3/18/2021 9:00:00 AM 8.4 47.12 0.442 7.77 93.52 10.46
3/18/2021 9:15:00 AM 8.39 47.102 0.44 7.78 32.18 10.49
3/18/2021 9:30:00 AM 8.38 47.084 0.435 7.77 65.1 10.54
3/18/2021 9:45:00 AM 8.39 47.102 0.435 7.78 98.37 10.62
3/18/2021 10:00:00 AM 8.39 47.102 0.431 7.78 23.58 10.69
3/18/2021 10:15:00 AM 8.4 47.12 0.432 7.79 82.11 10.76
3/18/2021 10:30:00 AM 8.4 47.12 0.429 7.78 97.44 10.83
3/18/2021 10:45:00 AM 8.42 47.156 0.428 7.77 111.4 10.91
3/18/2021 11:00:00 AM 8.43 47.174 0.427 7.8 29.54 11.02
3/18/2021 11:15:00 AM 8.44 47.192 0.425 7.79 32.91 11.12
3/18/2021 11:30:00 AM 8.44 47.192 0.421 7.81 42.71 11.18
3/18/2021 11:45:00 AM 8.45 47.21 0.419 7.81 46.87 11.25
3/18/2021 12:00:00 PM 8.47 47.246 0.414 7.81 65.83 11.3
3/18/2021 12:15:00 PM 8.5 47.3 0.411 7.8 50.91 11.39
3/18/2021 12:30:00 PM 8.52 47.336 0.409 7.81 55.83 11.45
3/18/2021 12:45:00 PM 8.53 47.354 0.408 7.81 71.52 11.49
3/18/2021 1:00:00 PM 8.55 47.39 0.407 7.82 52.59 11.51
3/18/2021 1:15:00 PM 8.57 47.426 0.408 7.83 42.51 11.6
3/18/2021 1:30:00 PM 8.58 47.444 0.409 7.84 54.12 11.67
3/18/2021 1:45:00 PM 8.6 47.48 0.41 7.86 66.83 11.78
3/18/2021 2:00:00 PM 8.63 47.534 0.41 7.86 56.1 11.86
3/18/2021 2:15:00 PM 8.65 47.57 0.407 7.87 47.63 11.96
3/18/2021 2:30:00 PM 8.66 47.588 0.405 7.88 58.43 11.99
3/18/2021 2:45:00 PM 8.66 47.588 0.402 7.88 46.86 12.03
3/18/2021 3:00:00 PM 8.65 47.57 0.4 7.9 74.33 11.99
3/18/2021 3:15:00 PM 8.64 47.552 0.396 7.9 59.57 12.02
3/18/2021 3:30:00 PM 8.65 47.57 0.394 7.9 62.84 12.08
3/18/2021 3:45:00 PM 8.66 47.588 0.394 7.91 53.21 12.14
3/18/2021 4:00:00 PM 8.66 47.588 0.393 7.92 104.9 12.1
3/18/2021 4:15:00 PM 8.66 47.588 0.39 7.91 67.53 12.02
3/18/2021 4:30:00 PM 8.67 47.606 0.387 7.92 57.67 11.95
3/18/2021 4:45:00 PM 8.69 47.642 0.386 7.91 37.97 11.92
3/18/2021 5:00:00 PM 8.7 47.66 0.383 7.92 125.7 11.84
3/18/2021 5:15:00 PM 8.7 47.66 0.382 7.9 115.1 11.72
3/18/2021 5:30:00 PM 8.7 47.66 0.379 7.89 157.9 11.58
3/18/2021 5:45:00 PM 8.69 47.642 0.38 7.87 107.8 11.44
3/18/2021 6:00:00 PM 8.69 47.642 0.38 7.85 98.64 11.34
3/18/2021 6:15:00 PM 8.67 47.606 0.382 7.84 182.9 11.26
3/18/2021 6:30:00 PM 8.67 47.606 0.382 7.83 149.3 11.18
3/18/2021 6:45:00 PM 8.66 47.588 0.384 7.84 189.7 11.13
3/18/2021 7:00:00 PM 8.64 47.552 0.386 7.82 168.6 11.07
3/18/2021 7:15:00 PM 8.6 47.48 0.386 7.82 206 11.05
3/18/2021 7:30:00 PM 8.55 47.39 0.381 7.81 273.2 11.02
3/18/2021 7:45:00 PM 8.49 47.282 0.376 7.8 193.5 11
3/18/2021 8:00:00 PM 8.43 47.174 0.369 7.81 396 10.95
3/18/2021 8:15:00 PM 8.37 47.066 0.361 7.79 308.3 10.91
3/18/2021 8:30:00 PM 8.3 46.94 0.355 7.78 268.1 10.85
3/18/2021 8:45:00 PM 8.24 46.832 0.352 7.78 307.2 10.81
3/18/2021 9:00:00 PM 8.19 46.742 0.351 7.78 358.5 10.76
3/18/2021 9:15:00 PM 8.14 46.652 0.351 7.77 303.9 10.72
3/18/2021 9:30:00 PM 8.1 46.58 0.351 7.75 358.6 10.67
3/18/2021 9:45:00 PM 8.06 46.508 0.352 7.74 383.1 10.63
3/18/2021 10:00:00 PM 8.03 46.454 0.351 7.73 373.6 10.59
3/18/2021 10:15:00 PM 7.99 46.382 0.351 7.72 365.6 10.56
3/18/2021 10:30:00 PM 7.95 46.31 0.353 7.71 333.6 10.55
3/18/2021 10:45:00 PM 7.91 46.238 0.351 7.72 473 10.54
3/18/2021 11:00:00 PM 7.87 46.166 0.349 7.7 339.1 10.54
3/18/2021 11:15:00 PM 7.82 46.076 0.35 7.71 362 10.53
3/18/2021 11:30:00 PM 7.76 45.968 0.349 7.69 373.6 10.51
3/18/2021 11:45:00 PM 7.7 45.86 0.349 7.7 307 10.52
3/19/2021 12:00:00 AM 7.65 45.77 0.349 7.69 299.7 10.51
3/19/2021 12:15:00 AM 7.59 45.662 0.349 7.67 286.9 10.52
3/19/2021 12:30:00 AM 7.54 45.572 0.348 7.68 381.3 10.52
3/19/2021 12:45:00 AM 7.49 45.482 0.347 7.68 295.5 10.54
3/19/2021 1:00:00 AM 7.45 45.41 0.346 7.67 258.7 10.56
3/19/2021 1:15:00 AM 7.41 45.338 0.346 7.65 468.5 10.57
3/19/2021 1:30:00 AM 7.37 45.266 0.346 7.67 302.8 10.59
3/19/2021 1:45:00 AM 7.31 45.158 0.346 7.65 353.6 10.63
3/19/2021 2:00:00 AM 7.25 45.05 0.346 7.65 479.5 10.64
3/19/2021 2:15:00 AM 7.19 44.942 0.346 7.64 429.9 10.65
3/19/2021 2:30:00 AM 7.11 44.798 0.347 7.65 329.3 10.67
3/19/2021 2:45:00 AM 7.04 44.672 0.347 7.65 145.2 10.71
3/19/2021 3:00:00 AM 6.98 44.564 0.348 7.67 109.5 10.72
3/19/2021 3:15:00 AM 6.91 44.438 0.348 7.65 113.7 10.76
3/19/2021 3:30:00 AM 6.84 44.312 0.348 7.67 141.9 10.77
3/19/2021 3:45:00 AM 6.78 44.204 0.348 7.65 142.2 10.79
3/19/2021 4:00:00 AM 6.7 44.06 0.35 7.65 148.1 10.84
3/19/2021 4:15:00 AM 6.64 43.952 0.349 7.67 111.1 10.87
3/19/2021 4:30:00 AM 6.58 43.844 0.35 7.66 181.9 10.89
3/19/2021 4:45:00 AM 6.51 43.718 0.35 7.68 137.8 10.89
3/19/2021 5:00:00 AM 6.42 43.556 0.351 7.68 239.6 10.96
3/19/2021 5:15:00 AM 6.34 43.412 0.351 7.68 106.8 10.98
3/19/2021 5:30:00 AM 6.26 43.268 0.351 7.67 96.21 11.01
3/19/2021 5:45:00 AM 6.18 43.124 0.351 7.67 83.4 11.04
3/19/2021 6:00:00 AM 6.12 43.016 0.352 7.68 98.76 11.08
3/19/2021 6:15:00 AM 6.06 42.908 0.353 7.67 78.78 11.11
3/19/2021 6:30:00 AM 6 42.8 0.353 7.68 67.9 11.13
3/19/2021 6:45:00 AM 5.92 42.656 0.354 7.69 65.92 11.18
3/19/2021 7:00:00 AM 5.83 42.494 0.354 7.69 61.26 11.21
3/19/2021 7:15:00 AM 5.75 42.35 0.354 7.68 88.83 11.25
3/19/2021 7:30:00 AM 5.68 42.224 0.354 7.69 65.76 11.28
3/19/2021 7:45:00 AM 5.61 42.098 0.354 7.71 68.53 11.36
3/19/2021 8:00:00 AM 5.55 41.99 0.356 7.71 62.38 11.43
3/19/2021 8:15:00 AM 5.49 41.882 0.354 7.71 54.94 11.52
3/19/2021 8:30:00 AM 5.42 41.756 0.356 7.71 52.05 11.61
3/19/2021 8:45:00 AM 5.38 41.684 0.355 7.72 68.04 11.75
3/19/2021 9:00:00 AM 5.34 41.612 0.356 7.72 92.95 11.87
3/19/2021 9:15:00 AM 5.33 41.594 0.354 7.72 34.71 12.02
3/19/2021 9:30:00 AM 5.34 41.612 0.355 7.75 76.19 12.17
3/19/2021 9:45:00 AM 5.39 41.702 0.356 7.74 28.61 12.32
3/19/2021 10:00:00 AM 5.42 41.756 0.355 7.75 107.4 12.49
3/19/2021 10:15:00 AM 5.46 41.828 0.354 7.76 88.59 12.63
3/19/2021 10:30:00 AM 5.53 41.954 0.354 7.78 117.9 12.77
3/19/2021 10:45:00 AM 5.62 42.116 0.353 7.81 72.11 12.93
3/19/2021 11:00:00 AM 5.72 42.296 0.354 7.82 64.14 13.08
3/19/2021 11:15:00 AM 5.82 42.476 0.353 7.82 54.97 13.22
3/19/2021 11:30:00 AM 5.95 42.71 0.354 7.85 93.81 13.35
3/19/2021 11:45:00 AM 6.08 42.944 0.353 7.87 38.78 13.49
3/19/2021 12:00:00 PM 6.24 43.232 0.352 7.87 38.61 13.64
3/19/2021 12:15:00 PM 6.42 43.556 0.352 7.9 41.56 13.76
3/19/2021 12:30:00 PM 6.61 43.898 0.351 7.92 65.46 13.88
3/19/2021 12:45:00 PM 6.8 44.24 0.351 7.93 57.42 13.98
3/19/2021 1:00:00 PM 6.99 44.582 0.35 7.95 54.18 14.07
3/19/2021 1:15:00 PM 7.2 44.96 0.35 7.98 66.64 14.15
3/19/2021 1:30:00 PM 7.42 45.356 0.351 7.99 77.21 14.24
3/19/2021 1:45:00 PM 7.64 45.752 0.35 8.02 45.07 14.28
3/19/2021 2:00:00 PM 7.87 46.166 0.351 8.03 49.48 14.35
3/19/2021 2:15:00 PM 8.1 46.58 0.351 8.05 59.8 14.41
3/19/2021 2:30:00 PM 8.32 46.976 0.35 8.07 66.78 14.45
3/19/2021 2:45:00 PM 8.56 47.408 0.351 8.09 43.15 14.46
3/19/2021 3:00:00 PM 8.77 47.786 0.352 8.12 43.49 14.46
3/19/2021 3:15:00 PM 8.99 48.182 0.351 8.12 63.53 14.43
3/19/2021 3:30:00 PM 9.18 48.524 0.352 8.15 67.18 14.42
3/19/2021 3:45:00 PM 9.36 48.848 0.351 8.16 50.39 14.38
3/19/2021 4:00:00 PM 9.51 49.118 0.35 8.18 82.56 14.34
3/19/2021 4:15:00 PM 9.66 49.388 0.35 8.2 90.22 14.3
3/19/2021 4:30:00 PM 9.79 49.622 0.35 8.22 26.42 14.26
3/19/2021 4:45:00 PM 9.91 49.838 0.35 8.23 81.29 14.21
3/19/2021 5:00:00 PM 10 50 0.351 8.25 109.1 14.12
3/19/2021 5:15:00 PM 10.08 50.144 0.35 8.26 69.62 14.05
3/19/2021 5:30:00 PM 10.14 50.252 0.35 8.27 109.2 13.92
3/19/2021 5:45:00 PM 10.19 50.342 0.35 8.27 95.71 13.77
3/19/2021 6:00:00 PM 10.21 50.378 0.35 8.29 54.86 13.62
3/19/2021 6:15:00 PM 10.22 50.396 0.351 8.28 40.92 13.42
3/19/2021 6:30:00 PM 10.21 50.378 0.352 8.29 96.44 13.2
3/19/2021 6:45:00 PM 10.2 50.36 0.352 8.28 92.6 12.98
3/19/2021 7:00:00 PM 10.2 50.36 0.354 8.26 45.77 12.74
3/19/2021 7:15:00 PM 10.18 50.324 0.353 8.27 85.81 12.51
3/19/2021 7:30:00 PM 10.14 50.252 0.355 8.25 69.32 12.29
3/19/2021 7:45:00 PM 10.1 50.18 0.356 8.23 57.67 12.1
3/19/2021 8:00:00 PM 10.06 50.108 0.359 8.21 63.03 11.91
3/19/2021 8:15:00 PM 10.01 50.018 0.358 8.18 47.7 11.77
3/19/2021 8:30:00 PM 9.95 49.91 0.36 8.17 59.19 11.63
3/19/2021 8:45:00 PM 9.88 49.784 0.36 8.16 50.94 11.51
3/19/2021 9:00:00 PM 9.8 49.64 0.361 8.14 89.09 11.41
3/19/2021 9:15:00 PM 9.72 49.496 0.362 8.14 49.02 11.32
3/19/2021 9:30:00 PM 9.62 49.316 0.363 8.1 90.69 11.23
3/19/2021 9:45:00 PM 9.54 49.172 0.364 8.1 43.79 11.15
3/19/2021 10:00:00 PM 9.44 48.992 0.365 8.08 53.18 11.07
3/19/2021 10:15:00 PM 9.33 48.794 0.365 8.04 81.3 11.02
3/19/2021 10:30:00 PM 9.22 48.596 0.367 8.03 42.41 10.94
3/19/2021 10:45:00 PM 9.11 48.398 0.368 7.99 49.62 10.88
3/19/2021 11:00:00 PM 9 48.2 0.368 7.97 78.2 10.85
3/19/2021 11:15:00 PM 8.87 47.966 0.368 7.96 42.62 10.81
3/19/2021 11:30:00 PM 8.74 47.732 0.369 7.94 38.86 10.79
3/19/2021 11:45:00 PM 8.61 47.498 0.369 7.92 110.7 10.76
3/20/2021 12:00:00 AM 8.47 47.246 0.371 7.89 122.8 10.74
3/20/2021 12:15:00 AM 8.34 47.012 0.372 7.88 34.43 10.74
3/20/2021 12:30:00 AM 8.2 46.76 0.374 7.85 57.93 10.74
3/20/2021 12:45:00 AM 8.06 46.508 0.375 7.83 35.09 10.75
3/20/2021 1:00:00 AM 7.91 46.238 0.375 7.82 42.26 10.76
3/20/2021 1:15:00 AM 7.77 45.986 0.376 7.81 120.4 10.77
3/20/2021 1:30:00 AM 7.63 45.734 0.376 7.79 96.4 10.8
3/20/2021 1:45:00 AM 7.48 45.464 0.377 7.78 56.84 10.82
3/20/2021 2:00:00 AM 7.34 45.212 0.377 7.77 51.23 10.87
3/20/2021 2:15:00 AM 7.2 44.96 0.377 7.77 100.6 10.9
3/20/2021 2:30:00 AM 7.06 44.708 0.376 7.76 112.6 10.92
3/20/2021 2:45:00 AM 6.93 44.474 0.379 7.76 104.7 10.97
3/20/2021 3:00:00 AM 6.79 44.222 0.379 7.75 77.73 11.01
3/20/2021 3:15:00 AM 6.66 43.988 0.378 7.75 38.65 11.05
3/20/2021 3:30:00 AM 6.52 43.736 0.38 7.74 121.6 11.09
3/20/2021 3:45:00 AM 6.4 43.52 0.379 7.74 74.58 11.14
3/20/2021 4:00:00 AM 6.28 43.304 0.379 7.74 86.89 11.18
3/20/2021 4:15:00 AM 6.16 43.088 0.38 7.74 73.62 11.23
3/20/2021 4:30:00 AM 6.05 42.89 0.379 7.74 79.19 11.27
3/20/2021 4:45:00 AM 5.94 42.692 0.381 7.74 252.3 11.3
3/20/2021 5:00:00 AM 5.83 42.494 0.38 7.74 73.17 11.35
3/20/2021 5:15:00 AM 5.74 42.332 0.38 7.74 122.8 11.39
3/20/2021 5:30:00 AM 5.64 42.152 0.38 7.73 75.96 11.43
3/20/2021 5:45:00 AM 5.56 42.008 0.381 7.73 93.91 11.48
3/20/2021 6:00:00 AM 5.47 41.846 0.381 7.74 49.35 11.51
3/20/2021 6:15:00 AM 5.39 41.702 0.381 7.74 73.85 11.56
3/20/2021 6:30:00 AM 5.31 41.558 0.381 7.74 107.2 11.58
3/20/2021 6:45:00 AM 5.24 41.432 0.381 7.74 81.36 11.61
3/20/2021 7:00:00 AM 5.16 41.288 0.383 7.74 77.36 11.64
3/20/2021 7:15:00 AM 5.1 41.18 0.381 7.73 63.68 11.68
3/20/2021 7:30:00 AM 5.03 41.054 0.381 7.74 39 11.73
3/20/2021 7:45:00 AM 4.98 40.964 0.381 7.74 90.63 11.8
3/20/2021 8:00:00 AM 4.93 40.874 0.38 7.74 96.18 11.89
3/20/2021 8:15:00 AM 4.9 40.82 0.38 7.75 68.35 12
3/20/2021 8:30:00 AM 4.89 40.802 0.381 7.75 62.93 12.13
3/20/2021 8:45:00 AM 4.9 40.82 0.381 7.76 70.3 12.26
3/20/2021 9:00:00 AM 4.92 40.856 0.381 7.77 105 12.43
3/20/2021 9:15:00 AM 4.98 40.964 0.381 7.78 35.66 12.61
3/20/2021 9:30:00 AM 5.05 41.09 0.382 7.8 69.12 12.76
3/20/2021 9:45:00 AM 5.14 41.252 0.381 7.82 48.64 12.93
3/20/2021 10:00:00 AM 5.24 41.432 0.38 7.82 100 13.09
3/20/2021 10:15:00 AM 5.35 41.63 0.381 7.83 33.87 13.25
3/20/2021 10:30:00 AM 5.49 41.882 0.381 7.84 49.66 13.39
3/20/2021 10:45:00 AM 5.63 42.134 0.381 7.87 135.9 13.52
3/20/2021 11:00:00 AM 5.79 42.422 0.38 7.88 45.02 13.67
3/20/2021 11:15:00 AM 5.97 42.746 0.38 7.89 77.72 13.77
3/20/2021 11:30:00 AM 6.17 43.106 0.38 7.9 53.85 13.89
3/20/2021 11:45:00 AM 6.38 43.484 0.38 7.92 73.49 14.02
3/20/2021 12:00:00 PM 6.61 43.898 0.382 7.94 64.27 14.14
3/20/2021 12:15:00 PM 6.84 44.312 0.381 7.95 44.34 14.22
3/20/2021 12:30:00 PM 7.08 44.744 0.38 7.97 62.31 14.34
3/20/2021 12:45:00 PM 7.34 45.212 0.38 8 64 14.4
3/20/2021 1:00:00 PM 7.59 45.662 0.38 8.01 56.79 14.47
3/20/2021 1:15:00 PM 7.85 46.13 0.38 8.03 70.96 14.52
3/20/2021 1:30:00 PM 8.11 46.598 0.38 8.05 65.84 14.57
3/20/2021 1:45:00 PM 8.38 47.084 0.379 8.07 90.09 14.58
3/20/2021 2:00:00 PM 8.65 47.57 0.376 8.1 49.6 14.61
3/20/2021 2:15:00 PM 8.91 48.038 0.375 8.1 77.66 14.64
3/20/2021 2:30:00 PM 9.17 48.506 0.374 8.12 69.54 14.65
3/20/2021 2:45:00 PM 9.43 48.974 0.375 8.14 72.07 14.62
3/20/2021 3:00:00 PM 9.68 49.424 0.374 8.16 42.46 14.63
3/20/2021 3:15:00 PM 9.92 49.856 0.374 8.17 61.45 14.61
3/20/2021 3:30:00 PM 10.15 50.27 0.372 8.19 82.44 14.59
3/20/2021 3:45:00 PM 10.36 50.648 0.373 8.21 80.92 14.54
3/20/2021 4:00:00 PM 10.56 51.008 0.371 8.23 49.62 14.49
3/20/2021 4:15:00 PM 10.76 51.368 0.37 8.26 75.56 14.39
3/20/2021 4:30:00 PM 10.93 51.674 0.37 8.28 121 14.34
3/20/2021 4:45:00 PM 11.1 51.98 0.371 8.29 97.83 14.24
3/20/2021 5:00:00 PM 11.25 52.25 0.371 8.31 95.84 14.13
3/20/2021 5:15:00 PM 11.37 52.466 0.372 8.31 100.1 14.03
3/20/2021 5:30:00 PM 11.48 52.664 0.372 8.31 105.2 13.89
3/20/2021 5:45:00 PM 11.57 52.826 0.37 8.32 99.47 13.71
3/20/2021 6:00:00 PM 11.65 52.97 0.369 8.35 121.1 13.58
3/20/2021 6:15:00 PM 11.7 53.06 0.371 8.35 89.57 13.39
3/20/2021 6:30:00 PM 11.76 53.168 0.369 8.32 53.44 13.14
3/20/2021 6:45:00 PM 11.79 53.222 0.371 8.34 57.91 12.87
3/20/2021 7:00:00 PM 11.82 53.276 0.37 8.33 133.5 12.57
3/20/2021 7:15:00 PM 11.83 53.294 0.37 8.31 73.24 12.29
3/20/2021 7:30:00 PM 11.82 53.276 0.372 8.29 81.03 12.02
3/20/2021 7:45:00 PM 11.81 53.258 0.372 8.27 75.37 11.75
3/20/2021 8:00:00 PM 11.79 53.222 0.372 8.25 65.46 11.54
3/20/2021 8:15:00 PM 11.76 53.168 0.371 8.25 52.05 11.36
3/20/2021 8:30:00 PM 11.71 53.078 0.372 8.23 34.18 11.19
3/20/2021 8:45:00 PM 11.65 52.97 0.374 8.22 57.56 11.03
3/20/2021 9:00:00 PM 11.58 52.844 0.374 8.18 72.97 10.89
3/20/2021 9:15:00 PM 11.5 52.7 0.374 8.16 33.72 10.77
3/20/2021 9:30:00 PM 11.42 52.556 0.375 8.13 89.66 10.65
3/20/2021 9:45:00 PM 11.33 52.394 0.375 8.11 41.04 10.54
3/20/2021 10:00:00 PM 11.25 52.25 0.376 8.09 52.99 10.45
3/20/2021 10:15:00 PM 11.14 52.052 0.376 8.08 89.54 10.38
3/20/2021 10:30:00 PM 11.04 51.872 0.377 8.05 31.5 10.3
3/20/2021 10:45:00 PM 10.92 51.656 0.378 8.02 73.81 10.24
3/20/2021 11:00:00 PM 10.79 51.422 0.379 8.01 78.2 10.18
3/20/2021 11:15:00 PM 10.66 51.188 0.381 7.97 38.09 10.14
3/20/2021 11:30:00 PM 10.51 50.918 0.381 7.95 87.45 10.12
3/20/2021 11:45:00 PM 10.35 50.63 0.382 7.92 99.94 10.1
3/21/2021 12:00:00 AM 10.19 50.342 0.383 7.91 120.3 10.09
3/21/2021 12:15:00 AM 10.03 50.054 0.385 7.89 155 10.09
3/21/2021 12:30:00 AM 9.86 49.748 0.385 7.87 64.09 10.1
3/21/2021 12:45:00 AM 9.69 49.442 0.386 7.85 60.96 10.11
3/21/2021 1:00:00 AM 9.52 49.136 0.387 7.84 57.47 10.13
3/21/2021 1:15:00 AM 9.35 48.83 0.388 7.83 62.12 10.14
3/21/2021 1:30:00 AM 9.18 48.524 0.389 7.81 183.9 10.17
3/21/2021 1:45:00 AM 9 48.2 0.389 7.8 64.31 10.22
3/21/2021 2:00:00 AM 8.83 47.894 0.39 7.79 90.29 10.26
3/21/2021 2:15:00 AM 8.66 47.588 0.391 7.79 77.14 10.32
3/21/2021 2:30:00 AM 8.48 47.264 0.391 7.79 106.5 10.36
3/21/2021 2:45:00 AM 8.31 46.958 0.392 7.78 134.7 10.42
3/21/2021 3:00:00 AM 8.14 46.652 0.393 7.77 115.5 10.46
3/21/2021 3:15:00 AM 7.97 46.346 0.393 7.76 70.52 10.52
3/21/2021 3:30:00 AM 7.8 46.04 0.393 7.76 150.7 10.56
3/21/2021 3:45:00 AM 7.64 45.752 0.393 7.75 99.21 10.64
3/21/2021 4:00:00 AM 7.48 45.464 0.393 7.76 158.8 10.69
3/21/2021 4:15:00 AM 7.33 45.194 0.394 7.75 98.64 10.74
3/21/2021 4:30:00 AM 7.18 44.924 0.394 7.75 98.77 10.8
3/21/2021 4:45:00 AM 7.04 44.672 0.394 7.75 104.4 10.85
3/21/2021 5:00:00 AM 6.9 44.42 0.394 7.75 80.57 10.91
3/21/2021 5:15:00 AM 6.76 44.168 0.394 7.74 108.5 10.97
3/21/2021 5:30:00 AM 6.63 43.934 0.394 7.75 77.42 11.03
3/21/2021 5:45:00 AM 6.51 43.718 0.394 7.75 296.3 11.06
3/21/2021 6:00:00 AM 6.39 43.502 0.394 7.75 205.8 11.12
3/21/2021 6:15:00 AM 6.29 43.322 0.394 7.75 122.8 11.16
3/21/2021 6:30:00 AM 6.18 43.124 0.394 7.75 149.5 11.19
3/21/2021 6:45:00 AM 6.07 42.926 0.394 7.75 138.5 11.25
3/21/2021 7:00:00 AM 5.98 42.764 0.394 7.75 101 11.27
3/21/2021 7:15:00 AM 5.88 42.584 0.394 7.75 121.4 11.33
3/21/2021 7:30:00 AM 5.8 42.44 0.393 7.75 129.4 11.4
3/21/2021 7:45:00 AM 5.73 42.314 0.394 7.75 121.1 11.47
3/21/2021 8:00:00 AM 5.66 42.188 0.393 7.76 80.32 11.58
3/21/2021 8:15:00 AM 5.61 42.098 0.394 7.76 106 11.7
3/21/2021 8:30:00 AM 5.58 42.044 0.393 7.77 129.4 11.87
3/21/2021 8:45:00 AM 5.57 42.026 0.393 7.78 166.4 12.03
3/21/2021 9:00:00 AM 5.58 42.044 0.392 7.79 78.72 12.23
3/21/2021 9:15:00 AM 5.62 42.116 0.392 7.81 54.7 12.43
3/21/2021 9:30:00 AM 5.69 42.242 0.392 7.82 71.13 12.64
3/21/2021 9:45:00 AM 5.76 42.368 0.391 7.82 77.76 12.82
3/21/2021 10:00:00 AM 5.86 42.548 0.391 7.84 82.35 13.02
3/21/2021 10:15:00 AM 5.98 42.764 0.391 7.85 59.25 13.18
3/21/2021 10:30:00 AM 6.11 42.998 0.39 7.88 133.7 13.37
3/21/2021 10:45:00 AM 6.25 43.25 0.39 7.88 85.09 13.5
3/21/2021 11:00:00 AM 6.42 43.556 0.39 7.9 119.9 13.65
3/21/2021 11:15:00 AM 6.6 43.88 0.389 7.92 111.4 13.81
3/21/2021 11:30:00 AM 6.8 44.24 0.388 7.94 117.9 13.95
3/21/2021 11:45:00 AM 7.01 44.618 0.388 7.95 98.83 14.08
3/21/2021 12:00:00 PM 7.25 45.05 0.387 7.97 148.7 14.21
3/21/2021 12:15:00 PM 7.5 45.5 0.387 7.99 141.7 14.32
3/21/2021 12:30:00 PM 7.75 45.95 0.387 8.03 68.26 14.42
3/21/2021 12:45:00 PM 8 46.4 0.386 8.03 71.65 14.51
3/21/2021 1:00:00 PM 8.26 46.868 0.386 8.05 78.3 14.58
3/21/2021 1:15:00 PM 8.53 47.354 0.385 8.07 106.5 14.64
3/21/2021 1:30:00 PM 8.8 47.84 0.384 8.1 150.6 14.67
3/21/2021 1:45:00 PM 9.07 48.326 0.384 8.12 121 14.73
3/21/2021 2:00:00 PM 9.34 48.812 0.383 8.14 109.3 14.75
3/21/2021 2:15:00 PM 9.62 49.316 0.383 8.17 134.5 14.76
3/21/2021 2:30:00 PM 9.89 49.802 0.383 8.19 110.7 14.77
3/21/2021 2:45:00 PM 10.15 50.27 0.381 8.21 171.5 14.79
3/21/2021 3:00:00 PM 10.39 50.702 0.381 8.23 120.6 14.76
3/21/2021 3:15:00 PM 10.64 51.152 0.379 8.25 177.5 14.74
3/21/2021 3:30:00 PM 10.87 51.566 0.378 8.27 157.9 14.71
3/21/2021 3:45:00 PM 11.09 51.962 0.378 8.28 147.9 14.67
3/21/2021 4:00:00 PM 11.29 52.322 0.375 8.3 76.35 14.64
3/21/2021 4:15:00 PM 11.48 52.664 0.374 8.32 169.6 14.57
3/21/2021 4:30:00 PM 11.66 52.988 0.373 8.34 85.83 14.48
3/21/2021 4:45:00 PM 11.83 53.294 0.372 8.35 197.8 14.38
3/21/2021 5:00:00 PM 11.98 53.564 0.371 8.37 122.5 14.26
3/21/2021 5:15:00 PM 12.11 53.798 0.373 8.39 139.2 14.14
3/21/2021 5:30:00 PM 12.21 53.978 0.372 8.4 173.2 13.97
3/21/2021 5:45:00 PM 12.3 54.14 0.372 8.43 127.2 13.8
3/21/2021 6:00:00 PM 12.39 54.302 0.371 8.41 84.74 13.6
3/21/2021 6:15:00 PM 12.44 54.392 0.37 8.42 63.64 13.4
3/21/2021 6:30:00 PM 12.47 54.446 0.371 8.42 164 13.13
3/21/2021 6:45:00 PM 12.5 54.5 0.371 8.43 99.93 12.83
3/21/2021 7:00:00 PM 12.52 54.536 0.373 8.42 106.1 12.55
3/21/2021 7:15:00 PM 12.53 54.554 0.374 8.41 147.8 12.25
3/21/2021 7:30:00 PM 12.52 54.536 0.379 8.39 237 11.93
3/21/2021 7:45:00 PM 12.53 54.554 0.38 8.37 96.44 11.67
3/21/2021 8:00:00 PM 12.52 54.536 0.377 8.36 93.77 11.43
3/21/2021 8:15:00 PM 12.5 54.5 0.376 8.34 92.72 11.2
3/21/2021 8:30:00 PM 12.47 54.446 0.375 8.3 99.72 11
3/21/2021 8:45:00 PM 12.43 54.374 0.376 8.29 42.04 10.84
3/21/2021 9:00:00 PM 12.37 54.266 0.376 8.26 138.2 10.68
3/21/2021 9:15:00 PM 12.31 54.158 0.376 8.25 133.1 10.53
3/21/2021 9:30:00 PM 12.24 54.032 0.377 8.2 141.1 10.41
3/21/2021 9:45:00 PM 12.16 53.888 0.379 8.19 152.6 10.29
3/21/2021 10:00:00 PM 12.06 53.708 0.379 8.17 144.7 10.19
3/21/2021 10:15:00 PM 11.97 53.546 0.38 8.14 107.8 10.09
3/21/2021 10:30:00 PM 11.86 53.348 0.381 8.09 91.7 9.99
3/21/2021 10:45:00 PM 11.74 53.132 0.382 8.08 80.38 9.92
3/21/2021 11:00:00 PM 11.62 52.916 0.384 8.06 174.6 9.87
3/21/2021 11:15:00 PM 11.48 52.664 0.386 8.02 142.3 9.83
3/21/2021 11:30:00 PM 11.33 52.394 0.386 8 97.84 9.79
3/21/2021 11:45:00 PM 11.16 52.088 0.387 7.96 103 9.78
3/22/2021 12:00:00 AM 11 51.8 0.388 7.96 80.41 9.75
3/22/2021 12:15:00 AM 10.84 51.512 0.389 7.93 215.3 9.76
3/22/2021 12:30:00 AM 10.67 51.206 0.39 7.9 232.5 9.76
3/22/2021 12:45:00 AM 10.49 50.882 0.39 7.89 214.9 9.77
3/22/2021 1:00:00 AM 10.32 50.576 0.391 7.86 133.7 9.8
3/22/2021 1:15:00 AM 10.14 50.252 0.392 7.86 67.85 9.81
3/22/2021 1:30:00 AM 9.96 49.928 0.393 7.83 77.98 9.84
3/22/2021 1:45:00 AM 9.78 49.604 0.394 7.81 69.15 9.87
3/22/2021 2:00:00 AM 9.59 49.262 0.393 7.8 86.85 9.91
3/22/2021 2:15:00 AM 9.41 48.938 0.394 7.8 113.2 9.96
3/22/2021 2:30:00 AM 9.24 48.632 0.395 7.79 137.9 10
3/22/2021 2:45:00 AM 9.06 48.308 0.396 7.78 166.1 10.07
3/22/2021 3:00:00 AM 8.89 48.002 0.396 7.77 139 10.11
3/22/2021 3:15:00 AM 8.7 47.66 0.397 7.77 161.2 10.17
3/22/2021 3:30:00 AM 8.53 47.354 0.397 7.76 97.11 10.23
3/22/2021 3:45:00 AM 8.37 47.066 0.398 7.77 133.7 10.29
3/22/2021 4:00:00 AM 8.2 46.76 0.396 7.77 109.6 10.35
3/22/2021 4:15:00 AM 8.03 46.454 0.396 7.77 325.7 10.4
3/22/2021 4:30:00 AM 7.87 46.166 0.398 7.76 75.81 10.46
3/22/2021 4:45:00 AM 7.72 45.896 0.398 7.76 120.8 10.53
3/22/2021 5:00:00 AM 7.56 45.608 0.398 7.75 231.2 10.58
3/22/2021 5:15:00 AM 7.42 45.356 0.398 7.75 136.1 10.64
3/22/2021 5:30:00 AM 7.28 45.104 0.398 7.75 63.04 10.7
3/22/2021 5:45:00 AM 7.15 44.87 0.398 7.75 84.31 10.75
3/22/2021 6:00:00 AM 7.02 44.636 0.397 7.75 65.13 10.8
3/22/2021 6:15:00 AM 6.9 44.42 0.398 7.75 134.7 10.84
3/22/2021 6:30:00 AM 6.78 44.204 0.397 7.76 79 10.89
3/22/2021 6:45:00 AM 6.67 44.006 0.397 7.75 138.3 10.94
3/22/2021 7:00:00 AM 6.56 43.808 0.397 7.75 111.6 10.99
3/22/2021 7:15:00 AM 6.46 43.628 0.396 7.75 93.95 11.05
3/22/2021 7:30:00 AM 6.37 43.466 0.396 7.76 170.2 11.11
3/22/2021 7:45:00 AM 6.29 43.322 0.398 7.76 81.22 11.21
3/22/2021 8:00:00 AM 6.22 43.196 0.396 7.76 177.1 11.31
3/22/2021 8:15:00 AM 6.16 43.088 0.394 7.77 138.4 11.46
3/22/2021 8:30:00 AM 6.12 43.016 0.396 7.78 130.2 11.64
3/22/2021 8:45:00 AM 6.1 42.98 0.395 7.78 105.3 11.83
3/22/2021 9:00:00 AM 6.12 43.016 0.394 7.79 119.3 12.04
3/22/2021 9:15:00 AM 6.16 43.088 0.395 7.82 124.4 12.27
3/22/2021 9:30:00 AM 6.22 43.196 0.395 7.84 106.8 12.5
3/22/2021 9:45:00 AM 6.3 43.34 0.394 7.84 111.9 12.71
3/22/2021 10:00:00 AM 6.4 43.52 0.394 7.86 103.7 12.9
3/22/2021 10:15:00 AM 6.52 43.736 0.395 7.87 129.3 13.09
3/22/2021 10:30:00 AM 6.66 43.988 0.394 7.9 74.84 13.3
3/22/2021 10:45:00 AM 6.8 44.24 0.394 7.92 127 13.47
3/22/2021 11:00:00 AM 6.97 44.546 0.394 7.94 129.5 13.63
3/22/2021 11:15:00 AM 7.15 44.87 0.392 7.94 161.4 13.78
3/22/2021 11:30:00 AM 7.34 45.212 0.391 7.96 115.4 13.95
3/22/2021 11:45:00 AM 7.56 45.608 0.391 7.98 110.3 14.1
3/22/2021 12:00:00 PM 7.79 46.022 0.39 8.03 83.59 14.25
3/22/2021 12:15:00 PM 8.03 46.454 0.39 8.05 127.9 14.39
3/22/2021 12:30:00 PM 8.28 46.904 0.389 8.08 148.5 14.48
3/22/2021 12:45:00 PM 8.53 47.354 0.388 8.09 144.9 14.62
3/22/2021 1:00:00 PM 8.78 47.804 0.388 8.12 262 14.72
3/22/2021 1:15:00 PM 9.05 48.29 0.387 8.14 80.15 14.79
3/22/2021 1:30:00 PM 9.31 48.758 0.386 8.16 150.7 14.86
3/22/2021 1:45:00 PM 9.57 49.226 0.385 8.19 116.9 14.88
3/22/2021 2:00:00 PM 9.84 49.712 0.384 8.2 84.42 14.96
3/22/2021 2:15:00 PM 10.11 50.198 0.383 8.22 71.85 14.98
3/22/2021 2:30:00 PM 10.37 50.666 0.382 8.25 224.7 15.01
3/22/2021 2:45:00 PM 10.63 51.134 0.381 8.27 116.5 15
3/22/2021 3:00:00 PM 10.87 51.566 0.38 8.3 155.8 14.98
3/22/2021 3:15:00 PM 11.11 51.998 0.379 8.32 90.17 15.01
3/22/2021 3:30:00 PM 11.33 52.394 0.377 8.34 125 15.02
3/22/2021 3:45:00 PM 11.55 52.79 0.376 8.36 158.9 14.94
3/22/2021 4:00:00 PM 11.75 53.15 0.376 8.38 104.9 14.85
3/22/2021 4:15:00 PM 11.94 53.492 0.375 8.4 205.9 14.77
3/22/2021 4:30:00 PM 12.1 53.78 0.375 8.42 289.6 14.7
3/22/2021 4:45:00 PM 12.26 54.068 0.373 8.44 122.1 14.6
3/22/2021 5:00:00 PM 12.4 54.32 0.373 8.46 102.7 14.5
3/22/2021 5:15:00 PM 12.52 54.536 0.372 8.47 236 14.35
3/22/2021 5:30:00 PM 12.62 54.716 0.374 8.48 250.2 14.22
3/22/2021 5:45:00 PM 12.71 54.878 0.373 8.51 135.4 14.06
3/22/2021 6:00:00 PM 12.77 54.986 0.374 8.52 215 13.86
3/22/2021 6:15:00 PM 12.82 55.076 0.373 8.52 173.2 13.64
3/22/2021 6:30:00 PM 12.84 55.112 0.373 8.52 212.2 13.35
3/22/2021 6:45:00 PM 12.87 55.166 0.373 8.51 145.8 13.06
3/22/2021 7:00:00 PM 12.89 55.202 0.373 8.5 137.8 12.72
3/22/2021 7:15:00 PM 12.9 55.22 0.373 8.49 129.9 12.39
3/22/2021 7:30:00 PM 12.9 55.22 0.373 8.48 194.6 12.07
3/22/2021 7:45:00 PM 12.91 55.238 0.374 8.46 81.11 11.75
3/22/2021 8:00:00 PM 12.89 55.202 0.375 8.44 122.8 11.46
3/22/2021 8:15:00 PM 12.87 55.166 0.375 8.42 203.5 11.22
3/22/2021 8:30:00 PM 12.84 55.112 0.376 8.41 131.5 11.01
3/22/2021 8:45:00 PM 12.8 55.04 0.377 8.38 297.1 10.8
3/22/2021 9:00:00 PM 12.75 54.95 0.377 8.36 157.2 10.65
3/22/2021 9:15:00 PM 12.68 54.824 0.378 8.32 115.1 10.48
3/22/2021 9:30:00 PM 12.61 54.698 0.378 8.28 114.5 10.33
3/22/2021 9:45:00 PM 12.52 54.536 0.379 8.25 207.3 10.19
3/22/2021 10:00:00 PM 12.43 54.374 0.38 8.23 200.9 10.08
3/22/2021 10:15:00 PM 12.32 54.176 0.381 8.21 176.1 9.96
3/22/2021 10:30:00 PM 12.21 53.978 0.382 8.17 143.3 9.87
3/22/2021 10:45:00 PM 12.09 53.762 0.383 8.15 123.5 9.79
3/22/2021 11:00:00 PM 11.96 53.528 0.385 8.12 117.1 9.73
3/22/2021 11:15:00 PM 11.83 53.294 0.385 8.09 116.9 9.66
3/22/2021 11:30:00 PM 11.69 53.042 0.386 8.04 148.4 9.63
3/22/2021 11:45:00 PM 11.53 52.754 0.387 8.03 195.2 9.59
3/23/2021 12:00:00 AM 11.37 52.466 0.388 7.98 137 9.57
3/23/2021 12:15:00 AM 11.2 52.16 0.39 7.98 208.4 9.56
3/23/2021 12:30:00 AM 11.03 51.854 0.39 7.93 228.3 9.55
3/23/2021 12:45:00 AM 10.86 51.548 0.392 7.92 142.1 9.55
3/23/2021 1:00:00 AM 10.69 51.242 0.392 7.9 160.6 9.57
3/23/2021 1:15:00 AM 10.52 50.936 0.394 7.88 136.4 9.59
3/23/2021 1:30:00 AM 10.34 50.612 0.395 7.88 138.4 9.62
3/23/2021 1:45:00 AM 10.17 50.306 0.396 7.86 124 9.65
3/23/2021 2:00:00 AM 10 50 0.397 7.82 170.6 9.69
3/23/2021 2:15:00 AM 9.82 49.676 0.397 7.83 236.8 9.74
3/23/2021 2:30:00 AM 9.64 49.352 0.398 7.82 206.8 9.78
3/23/2021 2:45:00 AM 9.46 49.028 0.399 7.78 237.7 9.82
3/23/2021 3:00:00 AM 9.29 48.722 0.4 7.78 142.4 9.88
3/23/2021 3:15:00 AM 9.12 48.416 0.4 7.78 165.8 9.93
3/23/2021 3:30:00 AM 8.95 48.11 0.401 7.77 222.3 9.98
3/23/2021 3:45:00 AM 8.78 47.804 0.401 7.78 197.8 10.02
3/23/2021 4:00:00 AM 8.62 47.516 0.401 7.76 183.1 10.08
3/23/2021 4:15:00 AM 8.46 47.228 0.402 7.78 203 10.15
3/23/2021 4:30:00 AM 8.3 46.94 0.402 7.77 133.5 10.2
3/23/2021 4:45:00 AM 8.15 46.67 0.402 7.76 174 10.25
3/23/2021 5:00:00 AM 8 46.4 0.402 7.76 206.6 10.32
3/23/2021 5:15:00 AM 7.86 46.148 0.402 7.76 167.7 10.36
3/23/2021 5:30:00 AM 7.72 45.896 0.402 7.76 141.6 10.43
3/23/2021 5:45:00 AM 7.59 45.662 0.403 7.76 146 10.47
3/23/2021 6:00:00 AM 7.47 45.446 0.402 7.76 191 10.52
3/23/2021 6:15:00 AM 7.34 45.212 0.402 7.76 402.3 10.57
3/23/2021 6:30:00 AM 7.22 44.996 0.402 7.76 222.5 10.63
3/23/2021 6:45:00 AM 7.1 44.78 0.402 7.76 315.2 10.67
3/23/2021 7:00:00 AM 7 44.6 0.402 7.76 172.6 10.72
3/23/2021 7:15:00 AM 6.89 44.402 0.402 7.75 205.1 10.76
3/23/2021 7:30:00 AM 6.81 44.258 0.401 7.77 153.5 10.86
3/23/2021 7:45:00 AM 6.72 44.096 0.401 7.77 132.7 10.98
3/23/2021 8:00:00 AM 6.66 43.988 0.401 7.77 350.4 11.11
3/23/2021 8:15:00 AM 6.61 43.898 0.4 7.78 208.7 11.29
3/23/2021 8:30:00 AM 6.58 43.844 0.401 7.78 233.7 11.46
3/23/2021 8:45:00 AM 6.57 43.826 0.4 7.8 132.1 11.69
3/23/2021 9:00:00 AM 6.59 43.862 0.4 7.81 88.41 11.93
3/23/2021 9:15:00 AM 6.64 43.952 0.399 7.84 147.9 12.23
3/23/2021 9:30:00 AM 6.71 44.078 0.399 7.85 172.6 12.5
3/23/2021 9:45:00 AM 6.78 44.204 0.398 7.87 195.6 12.74
3/23/2021 10:00:00 AM 6.87 44.366 0.398 7.89 198.7 12.96
3/23/2021 10:15:00 AM 6.97 44.546 0.397 7.92 233.9 13.19
3/23/2021 10:30:00 AM 7.12 44.816 0.397 7.94 154.3 13.38
3/23/2021 10:45:00 AM 7.25 45.05 0.396 7.96 224.2 13.56
3/23/2021 11:00:00 AM 7.41 45.338 0.396 7.99 292 13.75
3/23/2021 11:15:00 AM 7.58 45.644 0.396 8.01 198.1 13.91
3/23/2021 11:30:00 AM 7.75 45.95 0.395 8.04 124.5 14.13
3/23/2021 11:45:00 AM 7.95 46.31 0.394 8.06 168.9 14.31
3/23/2021 12:00:00 PM 8.16 46.688 0.394 8.08 403.8 14.47
3/23/2021 12:15:00 PM 8.4 47.12 0.393 8.11 285.3 14.62
3/23/2021 12:30:00 PM 8.63 47.534 0.392 8.14 229.1 14.77
3/23/2021 12:45:00 PM 8.82 47.876 0.391 8.17 145.4 14.91
3/23/2021 1:00:00 PM 9.03 48.254 0.39 8.19 163 15.02
3/23/2021 1:15:00 PM 9.28 48.704 0.389 8.22 131.5 15.13
3/23/2021 1:30:00 PM 9.5 49.1 0.388 8.25 126 15.18
3/23/2021 1:45:00 PM 9.66 49.388 0.387 8.28 138.1 15.24
3/23/2021 2:00:00 PM 9.81 49.658 0.386 8.3 158.3 15.26
3/23/2021 2:15:00 PM 9.99 49.982 0.385 8.33 107 15.31
3/23/2021 2:30:00 PM 10.15 50.27 0.384 8.35 178.1 15.31
3/23/2021 2:45:00 PM 10.35 50.63 0.384 8.38 261.1 15.35
3/23/2021 3:00:00 PM 10.55 50.99 0.384 8.4 297.8 15.42
3/23/2021 3:15:00 PM 10.72 51.296 0.382 8.42 192.5 15.36
3/23/2021 3:30:00 PM 10.87 51.566 0.382 8.44 178.9 15.29
3/23/2021 3:45:00 PM 11.03 51.854 0.381 8.46 208.5 15.26
3/23/2021 4:00:00 PM 11.19 52.142 0.38 8.48 283.8 15.2
3/23/2021 4:15:00 PM 11.33 52.394 0.38 8.5 214.8 15.07
3/23/2021 4:30:00 PM 11.48 52.664 0.379 8.52 272.4 15.05
3/23/2021 4:45:00 PM 11.6 52.88 0.379 8.53 167 14.95
3/23/2021 5:00:00 PM 11.72 53.096 0.378 8.54 177.9 14.78
3/23/2021 5:15:00 PM 11.82 53.276 0.377 8.55 132.1 14.59
3/23/2021 5:30:00 PM 11.94 53.492 0.378 8.57 256.5 14.49
3/23/2021 5:45:00 PM 12.06 53.708 0.375 8.58 249.3 14.4
3/23/2021 6:00:00 PM 12.14 53.852 0.375 8.59 335.1 14.22
3/23/2021 6:15:00 PM 12.2 53.96 0.374 8.59 176.5 13.98
3/23/2021 6:30:00 PM 12.26 54.068 0.374 8.59 239 13.7
3/23/2021 6:45:00 PM 12.31 54.158 0.374 8.58 183.3 13.37
3/23/2021 7:00:00 PM 12.35 54.23 0.374 8.57 300.1 13
3/23/2021 7:15:00 PM 12.36 54.248 0.375 8.55 133.7 12.67
3/23/2021 7:30:00 PM 12.38 54.284 0.374 8.54 248.9 12.33
3/23/2021 7:45:00 PM 12.39 54.302 0.375 8.52 114.7 11.98
3/23/2021 8:00:00 PM 12.4 54.32 0.375 8.5 287.6 11.7
3/23/2021 8:15:00 PM 12.42 54.356 0.375 8.48 252.9 11.44
3/23/2021 8:30:00 PM 12.43 54.374 0.376 8.46 220.6 11.23
3/23/2021 8:45:00 PM 12.42 54.356 0.376 8.44 249.4 11
3/23/2021 9:00:00 PM 12.41 54.338 0.377 8.42 137.5 10.83
3/23/2021 9:15:00 PM 12.39 54.302 0.378 8.39 188.8 10.66
3/23/2021 9:30:00 PM 12.36 54.248 0.378 8.37 189.8 10.5
3/23/2021 9:45:00 PM 12.32 54.176 0.38 8.34 249.7 10.36
3/23/2021 10:00:00 PM 12.28 54.104 0.38 8.31 467.9 10.23
3/23/2021 10:15:00 PM 12.24 54.032 0.382 8.27 145.6 10.09
3/23/2021 10:30:00 PM 12.18 53.924 0.383 8.24 255.1 9.96
3/23/2021 10:45:00 PM 12.12 53.816 0.384 8.2 218.5 9.85
3/23/2021 11:00:00 PM 12.07 53.726 0.386 8.16 179.9 9.75
3/23/2021 11:15:00 PM 12 53.6 0.387 8.12 219.7 9.66
3/23/2021 11:30:00 PM 11.94 53.492 0.388 8.09 331.1 9.58
3/23/2021 11:45:00 PM 11.86 53.348 0.389 8.06 185.1 9.53
3/24/2021 12:00:00 AM 11.78 53.204 0.391 8.03 267.4 9.48
3/24/2021 12:15:00 AM 11.71 53.078 0.391 8 299.2 9.43
3/24/2021 12:30:00 AM 11.64 52.952 0.393 7.97 499.1 9.39
3/24/2021 12:45:00 AM 11.56 52.808 0.394 7.95 248.6 9.37
3/24/2021 1:00:00 AM 11.49 52.682 0.395 7.93 322 9.35
3/24/2021 1:15:00 AM 11.42 52.556 0.396 7.9 280.7 9.34
3/24/2021 1:30:00 AM 11.33 52.394 0.398 7.89 148.4 9.33
3/24/2021 1:45:00 AM 11.25 52.25 0.399 7.87 405.9 9.35
3/24/2021 2:00:00 AM 11.16 52.088 0.399 7.86 516.8 9.34
3/24/2021 2:15:00 AM 11.08 51.944 0.4 7.84 258.4 9.35
3/24/2021 2:30:00 AM 10.99 51.782 0.402 7.83 275.6 9.37
3/24/2021 2:45:00 AM 10.91 51.638 0.402 7.82 197.4 9.38
3/24/2021 3:00:00 AM 10.83 51.494 0.403 7.81 242.4 9.4
3/24/2021 3:15:00 AM 10.75 51.35 0.404 7.8 189.9 9.41
3/24/2021 3:30:00 AM 10.68 51.224 0.405 7.8 207.5 9.42
3/24/2021 3:45:00 AM 10.62 51.116 0.405 7.79 244.8 9.45
3/24/2021 4:00:00 AM 10.55 50.99 0.405 7.78 229.3 9.47
3/24/2021 4:15:00 AM 10.49 50.882 0.406 7.78 216.4 9.5
3/24/2021 4:30:00 AM 10.43 50.774 0.406 7.77 242 9.51
3/24/2021 4:45:00 AM 10.37 50.666 0.406 7.77 249.8 9.53
3/24/2021 5:00:00 AM 10.32 50.576 0.406 7.77 522.6 9.55
3/24/2021 5:15:00 AM 10.26 50.468 0.406 7.76 270 9.56
3/24/2021 5:30:00 AM 10.21 50.378 0.406 7.76 273.8 9.59
3/24/2021 5:45:00 AM 10.16 50.288 0.406 7.76 193 9.61
3/24/2021 6:00:00 AM 10.11 50.198 0.406 7.76 246.7 9.62
3/24/2021 6:15:00 AM 10.07 50.126 0.406 7.76 151.6 9.63
3/24/2021 6:30:00 AM 10.02 50.036 0.406 7.76 230 9.66
3/24/2021 6:45:00 AM 9.98 49.964 0.407 7.76 206.3 9.66
3/24/2021 7:00:00 AM 9.95 49.91 0.407 7.75 328.4 9.68
3/24/2021 7:15:00 AM 9.92 49.856 0.405 7.75 367 9.7
3/24/2021 7:30:00 AM 9.9 49.82 0.422 7.74 440.6 9.74
3/24/2021 7:45:00 AM 9.9 49.82 0.41 7.74 322.7 9.78
3/24/2021 8:00:00 AM 9.84 49.712 0.404 7.75 329.1 9.8
3/24/2021 8:15:00 AM 9.82 49.676 0.403 7.74 260.7 9.83
3/24/2021 8:30:00 AM 9.8 49.64 0.403 7.75 203.6 9.91
3/24/2021 8:45:00 AM 9.79 49.622 0.404 7.75 211.4 9.99
3/24/2021 9:00:00 AM 9.78 49.604 0.403 7.75 265.9 10.04
3/24/2021 9:15:00 AM 9.78 49.604 0.401 7.76 250.8 10.14
3/24/2021 9:30:00 AM 9.78 49.604 0.399 7.73 338.8 10.27
3/24/2021 9:45:00 AM 9.8 49.64 0.396 7.77 227.2 10.41
3/24/2021 10:00:00 AM 9.82 49.676 0.392 7.76 307.9 10.51
3/24/2021 10:15:00 AM 9.85 49.73 0.388 7.77 381.6 10.58
3/24/2021 10:30:00 AM 9.88 49.784 0.386 7.76 230.6 10.68
3/24/2021 10:45:00 AM 9.92 49.856 0.384 7.76 219.8 10.81
3/24/2021 11:00:00 AM 9.95 49.91 0.384 7.78 214 10.82
3/24/2021 11:15:00 AM 9.97 49.946 0.385 7.78 231.5 10.84
3/24/2021 11:30:00 AM 9.98 49.964 0.386 7.77 354.3 10.95
3/24/2021 11:45:00 AM 10.02 50.036 0.389 7.8 220.8 11.24
3/24/2021 12:00:00 PM 10.05 50.09 0.39 7.83 223.4 11.52
3/24/2021 12:15:00 PM 10.11 50.198 0.39 7.86 290.6 11.85
3/24/2021 12:30:00 PM 10.14 50.252 0.39 7.89 418.3 12.04
3/24/2021 12:45:00 PM 10.17 50.306 0.401 7.9 284.3 12.11
3/24/2021 1:00:00 PM 10.2 50.36 0.399 7.91 393.4 12.17
3/24/2021 1:15:00 PM 10.25 50.45 0.389 7.93 337.3 12.36
3/24/2021 1:30:00 PM 10.32 50.576 0.385 7.97 286.3 12.63
3/24/2021 1:45:00 PM 10.36 50.648 0.382 8 230.3 12.83
3/24/2021 2:00:00 PM 10.41 50.738 0.379 8.03 368.8 12.95
3/24/2021 2:15:00 PM 10.44 50.792 0.378 8.05 211.5 12.99
3/24/2021 2:30:00 PM 10.49 50.882 0.377 8.07 462.4 13.06
3/24/2021 2:45:00 PM 10.53 50.954 0.376 8.08 384.6 13.09
3/24/2021 3:00:00 PM 10.57 51.026 0.376 8.1 217.6 13.07
3/24/2021 3:15:00 PM 10.6 51.08 0.376 8.1 370.3 13.03
3/24/2021 3:30:00 PM 10.64 51.152 0.377 8.11 339.1 13.03
3/24/2021 3:45:00 PM 10.69 51.242 0.377 8.11 577.1 12.99
3/24/2021 4:00:00 PM 10.74 51.332 0.377 8.12 513 13.01
3/24/2021 4:15:00 PM 10.78 51.404 0.379 8.13 470.4 12.95
3/24/2021 4:30:00 PM 10.82 51.476 0.379 8.13 457.5 12.87
3/24/2021 4:45:00 PM 10.86 51.548 0.379 8.13 311.9 12.81
3/24/2021 5:00:00 PM 10.9 51.62 0.379 8.13 414.4 12.77
3/24/2021 5:15:00 PM 10.95 51.71 0.379 8.14 292 12.78
3/24/2021 5:30:00 PM 10.98 51.764 0.38 8.14 313.3 12.68
3/24/2021 5:45:00 PM 11 51.8 0.379 8.13 512.2 12.52
3/24/2021 6:00:00 PM 11.02 51.836 0.38 8.12 393.6 12.3
3/24/2021 6:15:00 PM 11.03 51.854 0.381 8.11 389 12.11
3/24/2021 6:30:00 PM 11.05 51.89 0.381 8.09 274.4 11.93
3/24/2021 6:45:00 PM 11.06 51.908 0.382 8.08 431.5 11.8
3/24/2021 7:00:00 PM 11.08 51.944 0.383 8.06 228.9 11.66
3/24/2021 7:15:00 PM 11.09 51.962 0.387 8.05 353.4 11.49
3/24/2021 7:30:00 PM 11.09 51.962 0.388 8.03 599.4 11.31
3/24/2021 7:45:00 PM 11.09 51.962 0.391 8.01 234.9 11.14
3/24/2021 8:00:00 PM 11.09 51.962 0.39 8 352.8 10.98
3/24/2021 8:15:00 PM 11.09 51.962 0.389 7.98 340.6 10.86
3/24/2021 8:30:00 PM 11.09 51.962 0.388 7.97 506.7 10.74
3/24/2021 8:45:00 PM 11.09 51.962 0.388 7.95 400.3 10.63
3/24/2021 9:00:00 PM 11.09 51.962 0.388 7.94 403.7 10.51
3/24/2021 9:15:00 PM 11.09 51.962 0.388 7.93 356.6 10.4
3/24/2021 9:30:00 PM 11.09 51.962 0.389 7.92 335.5 10.31
3/24/2021 9:45:00 PM 11.08 51.944 0.389 7.91 480.4 10.25
3/24/2021 10:00:00 PM 11.07 51.926 0.39 7.89 375 10.18
3/24/2021 10:15:00 PM 11.07 51.926 0.39 7.88 403.6 10.1
3/24/2021 10:30:00 PM 11.05 51.89 0.391 7.87 543.1 10.02
3/24/2021 10:45:00 PM 11.04 51.872 0.392 7.85 316.7 9.95
3/24/2021 11:00:00 PM 11.03 51.854 0.392 7.84 241.6 9.89
3/24/2021 11:15:00 PM 11.02 51.836 0.393 7.84 431.9 9.83
3/24/2021 11:30:00 PM 11 51.8 0.394 7.82 241.1 9.78
3/24/2021 11:45:00 PM 10.98 51.764 0.394 7.8 511.7 9.75
3/25/2021 12:00:00 AM 10.97 51.746 0.395 7.8 424.5 9.71
3/25/2021 12:15:00 AM 10.95 51.71 0.395 7.78 345.2 9.67
3/25/2021 12:30:00 AM 10.93 51.674 0.396 7.78 377.2 9.65
3/25/2021 12:45:00 AM 10.9 51.62 0.397 7.78 304.1 9.61
3/25/2021 1:00:00 AM 10.88 51.584 0.397 7.76 336.4 9.59
3/25/2021 1:15:00 AM 10.86 51.548 0.398 7.76 320.2 9.58
3/25/2021 1:30:00 AM 10.84 51.512 0.398 7.75 317.3 9.57
3/25/2021 1:45:00 AM 10.81 51.458 0.399 7.74 354.5 9.56
3/25/2021 2:00:00 AM 10.78 51.404 0.399 7.74 402.2 9.56
3/25/2021 2:15:00 AM 10.76 51.368 0.399 7.74 437.3 9.55
3/25/2021 2:30:00 AM 10.73 51.314 0.399 7.73 312.3 9.54
3/25/2021 2:45:00 AM 10.7 51.26 0.4 7.73 303 9.53
3/25/2021 3:00:00 AM 10.68 51.224 0.4 7.72 525.8 9.53
3/25/2021 3:15:00 AM 10.65 51.17 0.4 7.72 394.9 9.54
3/25/2021 3:30:00 AM 10.62 51.116 0.401 7.73 605.4 9.55
3/25/2021 3:45:00 AM 10.6 51.08 0.401 7.72 379.5 9.55
3/25/2021 4:00:00 AM 10.57 51.026 0.4 7.72 370.6 9.56
3/25/2021 4:15:00 AM 10.54 50.972 0.401 7.71 488.6 9.56
3/25/2021 4:30:00 AM 10.52 50.936 0.401 7.7 471.2 9.56
3/25/2021 4:45:00 AM 10.49 50.882 0.401 7.71 413.4 9.57
3/25/2021 5:00:00 AM 10.47 50.846 0.401 7.72 316.6 9.57
3/25/2021 5:15:00 AM 10.45 50.81 0.401 7.71 268.3 9.58
3/25/2021 5:30:00 AM 10.42 50.756 0.401 7.72 476.5 9.59
3/25/2021 5:45:00 AM 10.4 50.72 0.401 7.7 345.7 9.6
3/25/2021 6:00:00 AM 10.37 50.666 0.402 7.7 545.4 9.61
3/25/2021 6:15:00 AM 10.35 50.63 0.402 7.7 316.5 9.61
3/25/2021 6:30:00 AM 10.33 50.594 0.401 7.7 268.3 9.62
3/25/2021 6:45:00 AM 10.31 50.558 0.401 7.7 523.2 9.62
3/25/2021 7:00:00 AM 10.29 50.522 0.401 7.7 380 9.62
3/25/2021 7:15:00 AM 10.27 50.486 0.401 7.7 343.1 9.64
3/25/2021 7:30:00 AM 10.26 50.468 0.401 7.69 600.4 9.66
3/25/2021 7:45:00 AM 10.25 50.45 0.402 7.69 325.6 9.72
3/25/2021 8:00:00 AM 10.24 50.432 0.401 7.7 390.9 9.78
3/25/2021 8:15:00 AM 10.24 50.432 0.401 7.72 479.8 9.88
3/25/2021 8:30:00 AM 10.24 50.432 0.401 7.71 317.5 10
3/25/2021 8:45:00 AM 10.25 50.45 0.401 7.72 424.2 10.13
3/25/2021 9:00:00 AM 10.26 50.468 0.401 7.73 372.6 10.25
3/25/2021 9:15:00 AM 10.27 50.486 0.401 7.75 399.7 10.42
3/25/2021 9:30:00 AM 10.29 50.522 0.401 7.76 647.5 10.59
3/25/2021 9:45:00 AM 10.33 50.594 0.401 7.78 298.9 10.84
3/25/2021 10:00:00 AM 10.38 50.684 0.4 7.8 294.7 11.14
3/25/2021 10:15:00 AM 10.43 50.774 0.4 7.83 358.4 11.43
3/25/2021 10:30:00 AM 10.48 50.864 0.4 7.85 415.7 11.68
3/25/2021 10:45:00 AM 10.57 51.026 0.4 7.88 272.8 12.02
3/25/2021 11:00:00 AM 10.72 51.296 0.399 7.93 261.5 12.41
3/25/2021 11:15:00 AM 10.86 51.548 0.399 7.97 280 12.73
3/25/2021 11:30:00 AM 11.01 51.818 0.398 8 448.5 13.01
3/25/2021 11:45:00 AM 11.19 52.142 0.397 8.04 236 13.31
3/25/2021 12:00:00 PM 11.37 52.466 0.397 8.08 345.3 13.59
3/25/2021 12:15:00 PM 11.49 52.682 0.396 8.11 325.6 13.74
3/25/2021 12:30:00 PM 11.59 52.862 0.396 8.14 466.7 13.92
3/25/2021 12:45:00 PM 11.71 53.078 0.395 8.17 489.5 14.08
3/25/2021 1:00:00 PM 11.87 53.366 0.395 8.21 453.1 14.31
3/25/2021 1:15:00 PM 12.03 53.654 0.394 8.25 401.3 14.46
3/25/2021 1:30:00 PM 12.2 53.96 0.393 8.28 394.5 14.61
3/25/2021 1:45:00 PM 12.33 54.194 0.392 8.31 376.9 14.73
3/25/2021 2:00:00 PM 12.48 54.464 0.392 8.35 257.3 14.86
3/25/2021 2:15:00 PM 12.58 54.644 0.391 8.38 276.6 14.96
3/25/2021 2:30:00 PM 12.69 54.842 0.39 8.41 452.5 14.96
3/25/2021 2:45:00 PM 12.79 55.022 0.389 8.43 287.3 15
3/25/2021 3:00:00 PM 12.92 55.256 0.388 8.45 588.6 15.01
3/25/2021 3:15:00 PM 13.06 55.508 0.387 8.48 322.2 15.08
3/25/2021 3:30:00 PM 13.17 55.706 0.387 8.5 383.9 15.08
3/25/2021 3:45:00 PM 13.29 55.922 0.387 8.52 494.7 15.02
3/25/2021 4:00:00 PM 13.4 56.12 0.387 8.53 752.3 14.99
3/25/2021 4:15:00 PM 13.5 56.3 0.386 8.54 387.1 14.89
3/25/2021 4:30:00 PM 13.58 56.444 0.384 8.56 375.1 14.77
3/25/2021 4:45:00 PM 13.66 56.588 0.383 8.56 277.5 14.57
3/25/2021 5:00:00 PM 13.72 56.696 0.382 8.57 629.4 14.38
3/25/2021 5:15:00 PM 13.77 56.786 0.382 8.57 670.4 14.19
3/25/2021 5:30:00 PM 13.83 56.894 0.382 8.58 359.8 14.04
3/25/2021 5:45:00 PM 13.89 57.002 0.382 8.58 352.7 13.89
3/25/2021 6:00:00 PM 13.95 57.11 0.38 8.58 453 13.69
3/25/2021 6:15:00 PM 13.97 57.146 0.38 8.57 286.8 13.37
3/25/2021 6:30:00 PM 13.99 57.182 0.381 8.56 297.3 13.03
3/25/2021 6:45:00 PM 13.99 57.182 0.381 8.54 325 12.6
3/25/2021 7:00:00 PM 14 57.2 0.381 8.52 318 12.24
3/25/2021 7:15:00 PM 14.02 57.236 0.382 8.5 310.1 11.9
3/25/2021 7:30:00 PM 14.03 57.254 0.382 8.48 305.8 11.62
3/25/2021 7:45:00 PM 14.04 57.272 0.382 8.46 277.7 11.33
3/25/2021 8:00:00 PM 14.04 57.272 0.383 8.44 347.8 11.01
3/25/2021 8:15:00 PM 14.03 57.254 0.383 8.41 453.8 10.73
3/25/2021 8:30:00 PM 14.03 57.254 0.384 8.38 340.2 10.51
3/25/2021 8:45:00 PM 14.02 57.236 0.384 8.35 350.4 10.3
3/25/2021 9:00:00 PM 14.01 57.218 0.385 8.33 294.3 10.14
3/25/2021 9:15:00 PM 14 57.2 0.385 8.3 345 9.96
3/25/2021 9:30:00 PM 14 57.2 0.386 8.28 433 9.81
3/25/2021 9:45:00 PM 13.99 57.182 0.387 8.24 335 9.62
3/25/2021 10:00:00 PM 13.97 57.146 0.388 8.21 309.1 9.47
3/25/2021 10:15:00 PM 13.95 57.11 0.389 8.17 433.9 9.32
3/25/2021 10:30:00 PM 13.92 57.056 0.39 8.14 265.7 9.2
3/25/2021 10:45:00 PM 13.9 57.02 0.391 8.1 249.7 9.09
3/25/2021 11:00:00 PM 13.86 56.948 0.392 8.07 389.3 9
3/25/2021 11:15:00 PM 13.82 56.876 0.393 8.03 419 8.91
3/25/2021 11:30:00 PM 13.78 56.804 0.394 8.01 327.7 8.84
3/25/2021 11:45:00 PM 13.73 56.714 0.395 7.97 295.4 8.77
3/26/2021 12:00:00 AM 13.69 56.642 0.396 7.95 269.7 8.72
3/26/2021 12:15:00 AM 13.64 56.552 0.397 7.92 303.9 8.67
3/26/2021 12:30:00 AM 13.59 56.462 0.399 7.9 430.5 8.63
3/26/2021 12:45:00 AM 13.53 56.354 0.4 7.88 291.3 8.6
3/26/2021 1:00:00 AM 13.46 56.228 0.401 7.86 291.5 8.6
3/26/2021 1:15:00 AM 13.39 56.102 0.402 7.84 344.9 8.59
3/26/2021 1:30:00 AM 13.32 55.976 0.403 7.83 380.3 8.58
3/26/2021 1:45:00 AM 13.25 55.85 0.404 7.81 296.1 8.57
3/26/2021 2:00:00 AM 13.19 55.742 0.405 7.8 268.5 8.58
3/26/2021 2:15:00 AM 13.12 55.616 0.406 7.79 337.7 8.59
3/26/2021 2:30:00 AM 13.04 55.472 0.407 7.78 382.9 8.58
3/26/2021 2:45:00 AM 12.98 55.364 0.407 7.77 362.7 8.6
3/26/2021 3:00:00 AM 12.91 55.238 0.407 7.76 346.3 8.61
3/26/2021 3:15:00 AM 12.84 55.112 0.408 7.75 302.8 8.63
3/26/2021 3:30:00 AM 12.79 55.022 0.41 7.75 286.4 8.64
3/26/2021 3:45:00 AM 12.71 54.878 0.415 7.73 513 8.65
3/26/2021 4:00:00 AM 12.63 54.734 0.411 7.73 289.6 8.66
3/26/2021 4:15:00 AM 12.56 54.608 0.409 7.73 308 8.68
3/26/2021 4:30:00 AM 12.48 54.464 0.408 7.73 267.3 8.69
3/26/2021 4:45:00 AM 12.41 54.338 0.407 7.72 307.3 8.72
3/26/2021 5:00:00 AM 12.33 54.194 0.407 7.72 252.8 8.73
3/26/2021 5:15:00 AM 12.27 54.086 0.407 7.72 261.5 8.75
3/26/2021 5:30:00 AM 12.21 53.978 0.406 7.72 302 8.79
3/26/2021 5:45:00 AM 12.15 53.87 0.406 7.71 336.8 8.79
3/26/2021 6:00:00 AM 12.1 53.78 0.405 7.71 291.6 8.78
3/26/2021 6:15:00 AM 12.05 53.69 0.404 7.68 387.8 8.79
3/26/2021 6:30:00 AM 12.01 53.618 0.404 7.69 308.2 8.78
3/26/2021 6:45:00 AM 11.96 53.528 0.403 7.69 346.3 8.78
3/26/2021 7:00:00 AM 11.92 53.456 0.409 7.69 310.5 8.77
3/26/2021 7:15:00 AM 11.88 53.384 0.405 7.68 296.2 8.78
3/26/2021 7:30:00 AM 11.84 53.312 0.405 7.67 375.5 8.85
3/26/2021 7:45:00 AM 11.82 53.276 0.406 7.69 329.2 8.95
3/26/2021 8:00:00 AM 11.82 53.276 0.407 7.68 294.5 9.08
3/26/2021 8:15:00 AM 11.84 53.312 0.408 7.71 313.5 9.24
3/26/2021 8:30:00 AM 11.86 53.348 0.408 7.73 260.4 9.4
3/26/2021 8:45:00 AM 11.9 53.42 0.407 7.74 318.8 9.64
3/26/2021 9:00:00 AM 11.95 53.51 0.407 7.76 318.5 9.88
3/26/2021 9:15:00 AM 12.02 53.636 0.406 7.78 417.1 10.18
3/26/2021 9:30:00 AM 12.12 53.816 0.406 7.81 428.6 10.51
3/26/2021 9:45:00 AM 12.22 53.996 0.405 7.83 347.1 10.82
3/26/2021 10:00:00 AM 12.33 54.194 0.404 7.87 328.3 11.13
3/26/2021 10:15:00 AM 12.44 54.392 0.403 7.9 296.1 11.43
3/26/2021 10:30:00 AM 12.56 54.608 0.402 7.92 322.9 11.74
3/26/2021 10:45:00 AM 12.68 54.824 0.401 7.95 354.8 12.01
3/26/2021 11:00:00 AM 12.83 55.094 0.401 7.99 308.6 12.28
3/26/2021 11:15:00 AM 12.99 55.382 0.4 8 377.2 12.53
3/26/2021 11:30:00 AM 13.13 55.634 0.399 8.03 401 12.72
3/26/2021 11:45:00 AM 13.23 55.814 0.399 8.07 321.1 12.9
3/26/2021 12:00:00 PM 13.36 56.048 0.398 8.1 429.8 13.08
3/26/2021 12:15:00 PM 13.46 56.228 0.398 8.13 510.8 13.26
3/26/2021 12:30:00 PM 13.65 56.57 0.397 8.16 388.4 13.47
3/26/2021 12:45:00 PM 13.84 56.912 0.395 8.2 314.2 13.67
3/26/2021 1:00:00 PM 13.91 57.038 0.394 8.23 378 13.73
3/26/2021 1:15:00 PM 14 57.2 0.394 8.25 462.1 13.82
3/26/2021 1:30:00 PM 14.12 57.416 0.394 8.28 480.6 13.89
3/26/2021 1:45:00 PM 14.31 57.758 0.392 8.32 336.1 14.03
3/26/2021 2:00:00 PM 14.44 57.992 0.392 8.34 431.8 14.12
3/26/2021 2:15:00 PM 14.52 58.136 0.391 8.37 482.2 14.11
3/26/2021 2:30:00 PM 14.56 58.208 0.39 8.39 493.7 14.1
3/26/2021 2:45:00 PM 14.6 58.28 0.391 8.41 345.8 14.06
3/26/2021 3:00:00 PM 14.65 58.37 0.391 8.42 373.1 13.96
3/26/2021 3:15:00 PM 14.71 58.478 0.391 8.44 473.2 13.96
3/26/2021 3:30:00 PM 14.76 58.568 0.39 8.45 378.5 13.94
3/26/2021 3:45:00 PM 14.76 58.568 0.39 8.47 390 13.82
3/26/2021 4:00:00 PM 14.78 58.604 0.389 8.48 280.1 13.8
3/26/2021 4:15:00 PM 14.81 58.658 0.389 8.49 425.8 13.75
3/26/2021 4:30:00 PM 14.8 58.64 0.388 8.5 407.7 13.62
3/26/2021 4:45:00 PM 14.84 58.712 0.388 8.5 319.2 13.56
3/26/2021 5:00:00 PM 14.86 58.748 0.387 8.52 301.3 13.5
3/26/2021 5:15:00 PM 14.87 58.766 0.387 8.53 412.9 13.44
3/26/2021 5:30:00 PM 14.86 58.748 0.387 8.53 338.5 13.37
3/26/2021 5:45:00 PM 14.82 58.676 0.386 8.53 327.1 13.19
3/26/2021 6:00:00 PM 14.76 58.568 0.386 8.54 250.8 12.97
3/26/2021 6:15:00 PM 14.68 58.424 0.387 8.53 360 12.73
3/26/2021 6:30:00 PM 14.58 58.244 0.387 8.52 250.4 12.45
3/26/2021 6:45:00 PM 14.48 58.064 0.387 8.5 252.5 12.14
3/26/2021 7:00:00 PM 14.38 57.884 0.387 8.48 216.5 11.81
3/26/2021 7:15:00 PM 14.27 57.686 0.388 8.45 268.5 11.49
3/26/2021 7:30:00 PM 14.15 57.47 0.389 8.42 259.5 11.17
3/26/2021 7:45:00 PM 14.02 57.236 0.39 8.39 240.6 10.89
3/26/2021 8:00:00 PM 13.89 57.002 0.391 8.36 487.8 10.63
3/26/2021 8:15:00 PM 13.78 56.804 0.391 8.33 247.5 10.43
3/26/2021 8:30:00 PM 13.68 56.624 0.392 8.3 434.3 10.26
3/26/2021 8:45:00 PM 13.59 56.462 0.393 8.28 275.1 10.1
3/26/2021 9:00:00 PM 13.5 56.3 0.393 8.25 283.3 9.98
3/26/2021 9:15:00 PM 13.42 56.156 0.394 8.23 437.9 9.85
3/26/2021 9:30:00 PM 13.33 55.994 0.395 8.2 321.3 9.74
3/26/2021 9:45:00 PM 13.23 55.814 0.396 8.17 356.3 9.65
3/26/2021 10:00:00 PM 13.13 55.634 0.397 8.14 262.7 9.56
3/26/2021 10:15:00 PM 13.02 55.436 0.398 8.1 272.8 9.47
3/26/2021 10:30:00 PM 12.93 55.274 0.399 8.07 387 9.39
3/26/2021 10:45:00 PM 12.85 55.13 0.4 8.04 239.3 9.33
3/26/2021 11:00:00 PM 12.76 54.968 0.401 8.02 289.6 9.26
3/26/2021 11:15:00 PM 12.68 54.824 0.402 7.99 298.1 9.22
3/26/2021 11:30:00 PM 12.59 54.662 0.403 7.96 288.7 9.18
3/26/2021 11:45:00 PM 12.5 54.5 0.404 7.94 340.8 9.13
3/27/2021 12:00:00 AM 12.39 54.302 0.405 7.92 232.2 9.11
3/27/2021 12:15:00 AM 12.27 54.086 0.406 7.9 311.2 9.08
3/27/2021 12:30:00 AM 12.13 53.834 0.407 7.88 334.9 9.07
3/27/2021 12:45:00 AM 12 53.6 0.408 7.87 316.8 9.06
3/27/2021 1:00:00 AM 11.87 53.366 0.408 7.85 183.7 9.07
3/27/2021 1:15:00 AM 11.73 53.114 0.409 7.84 411.4 9.08
3/27/2021 1:30:00 AM 11.61 52.898 0.409 7.83 447.9 9.09
3/27/2021 1:45:00 AM 11.48 52.664 0.41 7.82 280.4 9.12
3/27/2021 2:00:00 AM 11.37 52.466 0.411 7.81 269.5 9.12
3/27/2021 2:15:00 AM 11.29 52.322 0.412 7.8 302.7 9.14
3/27/2021 2:30:00 AM 11.21 52.178 0.413 7.8 343.5 9.16
3/27/2021 2:45:00 AM 11.14 52.052 0.413 7.79 301.7 9.17
3/27/2021 3:00:00 AM 11.04 51.872 0.414 7.79 438.7 9.2
3/27/2021 3:15:00 AM 10.93 51.674 0.414 7.78 527.1 9.23
3/27/2021 3:30:00 AM 10.81 51.458 0.415 7.77 357.2 9.26
3/27/2021 3:45:00 AM 10.69 51.242 0.415 7.77 306 9.29
3/27/2021 4:00:00 AM 10.58 51.044 0.416 7.77 292.2 9.33
3/27/2021 4:15:00 AM 10.48 50.864 0.416 7.76 375.1 9.33
3/27/2021 4:30:00 AM 10.37 50.666 0.416 7.76 301.4 9.38
3/27/2021 4:45:00 AM 10.25 50.45 0.416 7.76 388.7 9.42
3/27/2021 5:00:00 AM 10.14 50.252 0.416 7.76 391.6 9.46
3/27/2021 5:15:00 AM 10.03 50.054 0.417 7.76 268.6 9.5
3/27/2021 5:30:00 AM 9.93 49.874 0.417 7.75 371.3 9.52
3/27/2021 5:45:00 AM 9.83 49.694 0.417 7.76 336.4 9.55
3/27/2021 6:00:00 AM 9.74 49.532 0.417 7.75 366.9 9.59
3/27/2021 6:15:00 AM 9.64 49.352 0.417 7.76 327.7 9.62
3/27/2021 6:30:00 AM 9.56 49.208 0.417 7.76 350.3 9.65
3/27/2021 6:45:00 AM 9.46 49.028 0.417 7.75 370 9.69
3/27/2021 7:00:00 AM 9.38 48.884 0.417 7.75 453.2 9.71
3/27/2021 7:15:00 AM 9.29 48.722 0.417 7.75 386.5 9.79
3/27/2021 7:30:00 AM 9.21 48.578 0.417 7.75 396.1 9.87
3/27/2021 7:45:00 AM 9.14 48.452 0.417 7.76 337.2 9.98
3/27/2021 8:00:00 AM 9.08 48.344 0.416 7.77 364.9 10.15
3/27/2021 8:15:00 AM 9.04 48.272 0.417 7.78 441.4 10.33
3/27/2021 8:30:00 AM 9.02 48.236 0.416 7.79 410.2 10.54
3/27/2021 8:45:00 AM 9.03 48.254 0.416 7.8 506.6 10.81
3/27/2021 9:00:00 AM 9.05 48.29 0.416 7.82 380.1 11.07
3/27/2021 9:15:00 AM 9.1 48.38 0.415 7.84 357.5 11.36
3/27/2021 9:30:00 AM 9.17 48.506 0.415 7.87 569.8 11.66
3/27/2021 9:45:00 AM 9.26 48.668 0.408 7.89 423.6 11.97
3/27/2021 10:00:00 AM 9.36 48.848 0.414 7.92 281.4 12.26
3/27/2021 10:15:00 AM 9.49 49.082 0.413 7.94 408.3 12.51
3/27/2021 10:30:00 AM 9.63 49.334 0.413 7.96 478.1 12.81
3/27/2021 10:45:00 AM 9.78 49.604 0.412 7.99 371.2 13.02
3/27/2021 11:00:00 AM 9.94 49.892 0.412 8.01 417.2 13.22
3/27/2021 11:15:00 AM 10.06 50.108 0.412 8.03 376.3 13.35
3/27/2021 11:30:00 AM 10.25 50.45 0.412 8.05 357.5 13.56
3/27/2021 11:45:00 AM 10.47 50.846 0.412 8.08 315 13.81
3/27/2021 12:00:00 PM 10.7 51.26 0.411 8.11 343 14.03
3/27/2021 12:15:00 PM 10.93 51.674 0.41 8.14 298.3 14.23
3/27/2021 12:30:00 PM 11.16 52.088 0.409 8.17 353.5 14.38
3/27/2021 12:45:00 PM 11.38 52.484 0.409 8.2 404.7 14.52
3/27/2021 1:00:00 PM 11.61 52.898 0.408 8.21 240.6 14.64
3/27/2021 1:15:00 PM 11.82 53.276 0.406 8.26 418.6 14.78
3/27/2021 1:30:00 PM 12.02 53.636 0.405 8.29 372.2 14.88
3/27/2021 1:45:00 PM 12.23 54.014 0.404 8.32 369.9 14.99
3/27/2021 2:00:00 PM 12.4 54.32 0.403 8.34 422 15.05
3/27/2021 2:15:00 PM 12.58 54.644 0.402 8.37 331.4 15.13
3/27/2021 2:30:00 PM 12.75 54.95 0.402 8.39 292.2 15.13
3/27/2021 2:45:00 PM 12.9 55.22 0.4 8.41 250.2 15.13
3/27/2021 3:00:00 PM 13.05 55.49 0.399 8.44 911.1 15.14
3/27/2021 3:15:00 PM 13.17 55.706 0.398 8.45 271.8 15.15
3/27/2021 3:30:00 PM 13.29 55.922 0.398 8.47 321.7 15.02
3/27/2021 3:45:00 PM 13.39 56.102 0.397 8.48 335.2 14.91
3/27/2021 4:00:00 PM 13.49 56.282 0.397 8.48 524.7 14.8
3/27/2021 4:15:00 PM 13.59 56.462 0.397 8.49 363.5 14.61
3/27/2021 4:30:00 PM 13.68 56.624 0.397 8.47 433.5 14.46
3/27/2021 4:45:00 PM 13.76 56.768 0.397 8.47 304.6 14.3
3/27/2021 5:00:00 PM 13.85 56.93 0.396 8.48 295.3 14.09
3/27/2021 5:15:00 PM 13.92 57.056 0.396 8.47 317.7 13.9
3/27/2021 5:30:00 PM 13.98 57.164 0.396 8.49 463.4 13.67
3/27/2021 5:45:00 PM 14.04 57.272 0.395 8.48 332.7 13.46
3/27/2021 6:00:00 PM 14.09 57.362 0.395 8.47 469 13.2
3/27/2021 6:15:00 PM 14.15 57.47 0.395 8.46 329.8 12.94
3/27/2021 6:30:00 PM 14.19 57.542 0.395 8.45 347.4 12.71
3/27/2021 6:45:00 PM 14.2 57.56 0.396 8.44 271.3 12.4
3/27/2021 7:00:00 PM 14.22 57.596 0.395 8.42 313.2 12.14
3/27/2021 7:15:00 PM 14.23 57.614 0.396 8.4 564.7 11.8
3/27/2021 7:30:00 PM 14.22 57.596 0.397 8.37 363.6 11.47
3/27/2021 7:45:00 PM 14.21 57.578 0.398 8.34 524.3 11.13
3/27/2021 8:00:00 PM 14.18 57.524 0.399 8.31 318.8 10.79
3/27/2021 8:15:00 PM 14.16 57.488 0.399 8.28 348.6 10.51
3/27/2021 8:30:00 PM 14.13 57.434 0.399 8.24 510.8 10.28
3/27/2021 8:45:00 PM 14.09 57.362 0.4 8.21 382.6 10.05
3/27/2021 9:00:00 PM 14.06 57.308 0.401 8.18 385.2 9.87
3/27/2021 9:15:00 PM 14.02 57.236 0.401 8.15 304.8 9.69
3/27/2021 9:30:00 PM 13.97 57.146 0.402 8.12 376.2 9.54
3/27/2021 9:45:00 PM 13.92 57.056 0.402 8.09 453.4 9.39
3/27/2021 10:00:00 PM 13.85 56.93 0.403 8.06 505.3 9.27
3/27/2021 10:15:00 PM 13.79 56.822 0.404 8.04 437.3 9.16
3/27/2021 10:30:00 PM 13.72 56.696 0.405 8.02 326.7 9.07
3/27/2021 10:45:00 PM 13.64 56.552 0.405 7.99 234.9 8.99
3/27/2021 11:00:00 PM 13.55 56.39 0.406 7.97 248.1 8.9
3/27/2021 11:15:00 PM 13.46 56.228 0.407 7.95 265 8.83
3/27/2021 11:30:00 PM 13.37 56.066 0.408 7.93 548.9 8.75
3/27/2021 11:45:00 PM 13.27 55.886 0.409 7.91 274.5 8.71
3/28/2021 12:00:00 AM 13.17 55.706 0.41 7.9 337.3 8.67
3/28/2021 12:15:00 AM 13.08 55.544 0.41 7.88 365.5 8.65
3/28/2021 12:30:00 AM 12.97 55.346 0.411 7.86 355.2 8.64
3/28/2021 12:45:00 AM 12.86 55.148 0.413 7.85 411.3 8.63
3/28/2021 1:00:00 AM 12.76 54.968 0.413 7.84 303.6 8.62
3/28/2021 1:15:00 AM 12.65 54.77 0.414 7.83 275.5 8.61
3/28/2021 1:30:00 AM 12.53 54.554 0.417 7.82 305.5 8.63
3/28/2021 1:45:00 AM 12.41 54.338 0.416 7.81 419.6 8.65
3/28/2021 2:00:00 AM 12.28 54.104 0.417 7.8 414.4 8.67
3/28/2021 2:15:00 AM 12.16 53.888 0.418 7.79 371.5 8.69
3/28/2021 2:30:00 AM 12.03 53.654 0.419 7.78 382.5 8.73
3/28/2021 2:45:00 AM 11.91 53.438 0.42 7.78 380.4 8.75
3/28/2021 3:00:00 AM 11.79 53.222 0.42 7.77 431.3 8.77
3/28/2021 3:15:00 AM 11.67 53.006 0.421 7.77 472.4 8.81
3/28/2021 3:30:00 AM 11.56 52.808 0.422 7.76 298.3 8.84
3/28/2021 3:45:00 AM 11.45 52.61 0.422 7.75 399.8 8.88
3/28/2021 4:00:00 AM 11.34 52.412 0.423 7.75 340.8 8.9
3/28/2021 4:15:00 AM 11.24 52.232 0.423 7.75 328.2 8.94
3/28/2021 4:30:00 AM 11.14 52.052 0.424 7.75 354.3 8.98
3/28/2021 4:45:00 AM 11.05 51.89 0.424 7.75 375.8 9.02
3/28/2021 5:00:00 AM 10.96 51.728 0.424 7.75 400.9 9.04
3/28/2021 5:15:00 AM 10.88 51.584 0.425 7.75 380.1 9.09
3/28/2021 5:30:00 AM 10.81 51.458 0.425 7.74 495 9.11
3/28/2021 5:45:00 AM 10.74 51.332 0.425 7.74 373.6 9.14
3/28/2021 6:00:00 AM 10.69 51.242 0.424 7.74 294.4 9.17
3/28/2021 6:15:00 AM 10.63 51.134 0.425 7.75 406.9 9.2
3/28/2021 6:30:00 AM 10.58 51.044 0.425 7.75 373.7 9.24
3/28/2021 6:45:00 AM 10.52 50.936 0.425 7.75 395.9 9.26
3/28/2021 7:00:00 AM 10.47 50.846 0.425 7.75 299.8 9.27
3/28/2021 7:15:00 AM 10.43 50.774 0.427 7.74 414.6 9.3
3/28/2021 7:30:00 AM 10.39 50.702 0.441 7.74 359 9.29
3/28/2021 7:45:00 AM 10.35 50.63 0.442 7.74 430.6 9.32
3/28/2021 8:00:00 AM 10.32 50.576 0.436 7.74 308.1 9.38
3/28/2021 8:15:00 AM 10.29 50.522 0.433 7.74 379.6 9.44
3/28/2021 8:30:00 AM 10.26 50.468 0.428 7.74 435 9.52
3/28/2021 8:45:00 AM 10.24 50.432 0.427 7.75 296.9 9.61
3/28/2021 9:00:00 AM 10.24 50.432 0.429 7.75 328.9 9.66
3/28/2021 9:15:00 AM 10.22 50.396 0.426 7.76 401.4 9.73
3/28/2021 9:30:00 AM 10.21 50.378 0.423 7.77 426.8 9.81
3/28/2021 9:45:00 AM 10.2 50.36 0.422 7.77 399.3 9.86
3/28/2021 10:00:00 AM 10.2 50.36 0.42 7.78 609.8 9.99
3/28/2021 10:15:00 AM 10.21 50.378 0.418 7.78 499.6 10.09
3/28/2021 10:30:00 AM 10.21 50.378 0.416 7.79 578.8 10.19
3/28/2021 10:45:00 AM 10.24 50.432 0.412 7.8 487.2 10.34
3/28/2021 11:00:00 AM 10.28 50.504 0.41 7.8 646.6 10.51
3/28/2021 11:15:00 AM 10.32 50.576 0.408 7.81 540.6 10.65
3/28/2021 11:30:00 AM 10.36 50.648 0.405 7.81 536.9 10.74
3/28/2021 11:45:00 AM 10.4 50.72 0.402 7.82 506.2 10.8
3/28/2021 12:00:00 PM 10.45 50.81 0.4 7.83 696.7 10.87
3/28/2021 12:15:00 PM 10.48 50.864 0.398 7.83 788.9 10.92
3/28/2021 12:30:00 PM 10.5 50.9 0.397 7.83 727.2 10.87
3/28/2021 12:45:00 PM 10.53 50.954 0.395 7.84 883.2 10.87
3/28/2021 1:00:00 PM 10.57 51.026 0.395 7.84 647.6 10.97
3/28/2021 1:15:00 PM 10.62 51.116 0.395 7.86 588.5 11.14
3/28/2021 1:30:00 PM 10.7 51.26 0.396 7.88 656.1 11.45
3/28/2021 1:45:00 PM 10.75 51.35 0.398 7.91 936.8 11.58
3/28/2021 2:00:00 PM 10.78 51.404 0.399 7.92 926.3 11.6
3/28/2021 2:15:00 PM 10.81 51.458 0.4 7.94 1150 11.6
3/28/2021 2:30:00 PM 10.86 51.548 0.398 7.95 1144 11.69
3/28/2021 2:45:00 PM 10.94 51.692 0.397 7.97 1057 11.85
3/28/2021 3:00:00 PM 11.08 51.944 0.394 8 1262 12.14
3/28/2021 3:15:00 PM 11.25 52.25 0.391 8.04 1109 12.35
3/28/2021 3:30:00 PM 11.37 52.466 0.387 8.04 1166 12.16
3/28/2021 3:45:00 PM 11.42 52.556 0.397 8.02 1400 11.88
3/28/2021 4:00:00 PM 11.39 52.502 0.387 8.04 1364 12.04
3/28/2021 4:15:00 PM 11.48 52.664 0.385 8.05 1187 12.25
3/28/2021 4:30:00 PM 11.52 52.736 0.384 8.07 1382 12.31
3/28/2021 4:45:00 PM 11.54 52.772 0.383 8.07 1329 12.25
3/28/2021 5:00:00 PM 11.53 52.754 0.383 7.98 1162 11.92
3/28/2021 5:15:00 PM 11.55 52.79 0.385 8.05 1368 11.71
3/28/2021 5:30:00 PM 11.57 52.826 0.385 8.05 1349 11.68
3/28/2021 5:45:00 PM 11.59 52.862 0.382 8.04 1246 11.65
3/28/2021 6:00:00 PM 11.64 52.952 0.379 8.04 1435 11.6
3/28/2021 6:15:00 PM 11.69 53.042 0.375 8.03 1343 11.39
3/28/2021 6:30:00 PM 11.71 53.078 0.373 8.01 1325 11.07
3/28/2021 6:45:00 PM 11.73 53.114 0.37 7.93 1224 10.75
3/28/2021 7:00:00 PM 11.75 53.15 0.371 7.94 1212 10.57
3/28/2021 7:15:00 PM 11.72 53.096 0.374 7.94 1494 10.57
3/28/2021 7:30:00 PM 11.65 52.97 0.378 7.93 1229 10.54
3/28/2021 7:45:00 PM 11.56 52.808 0.38 7.93 1040 10.46
3/28/2021 8:00:00 PM 11.48 52.664 0.381 7.92 1234 10.32
3/28/2021 8:15:00 PM 11.42 52.556 0.38 7.92 1378 10.2
3/28/2021 8:30:00 PM 11.35 52.43 0.379 7.89 1229 10.1
3/28/2021 8:45:00 PM 11.27 52.286 0.375 7.89 1521 10.04
3/28/2021 9:00:00 PM 11.16 52.088 0.37 7.88 1068 9.99
3/28/2021 9:15:00 PM 11.08 51.944 0.364 7.87 1358 9.92
3/28/2021 9:30:00 PM 11.01 51.818 0.36 7.86 1338 9.83
3/28/2021 9:45:00 PM 10.93 51.674 0.357 7.85 1221 9.75
3/28/2021 10:00:00 PM 10.85 51.53 0.356 7.82 1237 9.71
3/28/2021 10:15:00 PM 10.76 51.368 0.355 7.82 1334 9.66
3/28/2021 10:30:00 PM 10.67 51.206 0.356 7.81 1486 9.62
3/28/2021 10:45:00 PM 10.57 51.026 0.358 7.8 1397 9.59
3/28/2021 11:00:00 PM 10.49 50.882 0.361 7.77 1441 9.54
3/28/2021 11:15:00 PM 10.38 50.684 0.364 7.78 1353 9.51
3/28/2021 11:30:00 PM 10.25 50.45 0.367 7.71 1311 9.5
3/28/2021 11:45:00 PM 10.13 50.234 0.369 7.78 1347 9.5
3/29/2021 12:00:00 AM 10.01 50.018 0.371 7.71 1634 9.51
3/29/2021 12:15:00 AM 9.9 49.82 0.372 7.75 1319 9.53
3/29/2021 12:30:00 AM 9.78 49.604 0.374 7.72 1272 9.56
3/29/2021 12:45:00 AM 9.66 49.388 0.376 7.76 1152 9.6
3/29/2021 1:00:00 AM 9.54 49.172 0.378 7.72 1303 9.63
3/29/2021 1:15:00 AM 9.42 48.956 0.379 7.75 1363 9.67
3/29/2021 1:30:00 AM 9.31 48.758 0.381 7.72 1299 9.7
3/29/2021 1:45:00 AM 9.2 48.56 0.382 7.76 1353 9.75
3/29/2021 2:00:00 AM 9.08 48.344 0.383 7.76 1325 9.79
3/29/2021 2:15:00 AM 8.97 48.146 0.384 7.76 1005 9.81
3/29/2021 2:30:00 AM 8.86 47.948 0.386 7.76 1332 9.85
3/29/2021 2:45:00 AM 8.75 47.75 0.387 7.75 1186 9.89
3/29/2021 3:00:00 AM 8.65 47.57 0.387 7.71 1163 9.91
3/29/2021 3:15:00 AM 8.54 47.372 0.387 7.74 1091 9.97
3/29/2021 3:30:00 AM 8.45 47.21 0.388 7.72 1393 10
3/29/2021 3:45:00 AM 8.35 47.03 0.387 7.75 1011 10.05
3/29/2021 4:00:00 AM 8.26 46.868 0.387 7.71 851.8 10.08
3/29/2021 4:15:00 AM 8.16 46.688 0.388 7.76 1168 10.12
3/29/2021 4:30:00 AM 8.07 46.526 0.388 7.75 983 10.15
3/29/2021 4:45:00 AM 7.96 46.328 0.388 7.76 909.4 10.2
3/29/2021 5:00:00 AM 7.88 46.184 0.388 7.72 930.9 10.25
3/29/2021 5:15:00 AM 7.78 46.004 0.388 7.76 820.6 10.28
3/29/2021 5:30:00 AM 7.69 45.842 0.388 7.72 899.2 10.32
3/29/2021 5:45:00 AM 7.61 45.698 0.388 7.76 636.1 10.34
3/29/2021 6:00:00 AM 7.54 45.572 0.388 7.76 995.3 10.37
3/29/2021 6:15:00 AM 7.48 45.464 0.388 7.73 1029 10.41
3/29/2021 6:30:00 AM 7.41 45.338 0.388 7.77 934.3 10.44
3/29/2021 6:45:00 AM 7.33 45.194 0.388 7.76 912.1 10.48
3/29/2021 7:00:00 AM 7.27 45.086 0.389 7.77 915 10.5
3/29/2021 7:15:00 AM 7.21 44.978 0.389 7.77 1169 10.55
3/29/2021 7:30:00 AM 7.15 44.87 0.392 7.77 818.5 10.58
3/29/2021 7:45:00 AM 7.08 44.744 0.39 7.78 1115 10.67
3/29/2021 8:00:00 AM 7.02 44.636 0.39 7.75 690.8 10.76
3/29/2021 8:15:00 AM 7 44.6 0.39 7.74 669.3 10.87
3/29/2021 8:30:00 AM 6.96 44.528 0.39 7.78 854.8 10.99
3/29/2021 8:45:00 AM 6.92 44.456 0.39 7.8 769.2 11.13
3/29/2021 9:00:00 AM 6.89 44.402 0.391 7.82 639.3 11.29
3/29/2021 9:15:00 AM 6.87 44.366 0.391 7.79 735.4 11.45
3/29/2021 9:30:00 AM 6.86 44.348 0.391 7.85 680.1 11.6
3/29/2021 9:45:00 AM 6.86 44.348 0.391 7.85 730.9 11.78
3/29/2021 10:00:00 AM 6.89 44.402 0.39 7.88 656.7 12.05
3/29/2021 10:15:00 AM 6.94 44.492 0.39 7.9 966.2 12.29
3/29/2021 10:30:00 AM 6.97 44.546 0.39 7.92 915.7 12.55
3/29/2021 10:45:00 AM 7 44.6 0.39 7.94 742.6 12.73
3/29/2021 11:00:00 AM 7.03 44.654 0.39 7.93 661.5 12.92
3/29/2021 11:15:00 AM 7.08 44.744 0.389 7.96 819.7 13.12
3/29/2021 11:30:00 AM 7.16 44.888 0.389 8.01 661.6 13.37
3/29/2021 11:45:00 AM 7.26 45.068 0.389 8 808.2 13.63
3/29/2021 12:00:00 PM 7.42 45.356 0.388 8.04 773.7 13.89
3/29/2021 12:15:00 PM 7.57 45.626 0.388 8.09 754.6 14.07
3/29/2021 12:30:00 PM 7.78 46.004 0.388 8.13 852.8 14.3
3/29/2021 12:45:00 PM 8.03 46.454 0.388 8.15 775.7 14.5
3/29/2021 1:00:00 PM 8.31 46.958 0.387 8.18 831.9 14.7
3/29/2021 1:15:00 PM 8.54 47.372 0.387 8.21 678.5 14.84
3/29/2021 1:30:00 PM 8.79 47.822 0.386 8.21 666.9 14.94
3/29/2021 1:45:00 PM 9.01 48.218 0.386 8.26 643.2 15.04
3/29/2021 2:00:00 PM 9.22 48.596 0.386 8.27 800.4 15.14
3/29/2021 2:15:00 PM 9.44 48.992 0.385 8.29 862.6 15.19
3/29/2021 2:30:00 PM 9.64 49.352 0.384 8.34 912.1 15.24
3/29/2021 2:45:00 PM 9.84 49.712 0.383 8.36 681.6 15.25
3/29/2021 3:00:00 PM 10.03 50.054 0.383 8.38 756.7 15.28
3/29/2021 3:15:00 PM 10.21 50.378 0.383 8.4 941.4 15.27
3/29/2021 3:30:00 PM 10.38 50.684 0.383 8.41 929.4 15.25
3/29/2021 3:45:00 PM 10.54 50.972 0.382 8.43 864.8 15.24
3/29/2021 4:00:00 PM 10.67 51.206 0.381 8.44 790.8 15.19
3/29/2021 4:15:00 PM 10.81 51.458 0.381 8.45 1059 15.18
3/29/2021 4:30:00 PM 10.94 51.692 0.381 8.46 830.2 15.14
3/29/2021 4:45:00 PM 11.07 51.926 0.38 8.47 648 15.09
3/29/2021 5:00:00 PM 11.18 52.124 0.38 8.48 607.2 14.99
3/29/2021 5:15:00 PM 11.28 52.304 0.38 8.48 673.8 14.84
3/29/2021 5:30:00 PM 11.36 52.448 0.379 8.48 651.9 14.67
3/29/2021 5:45:00 PM 11.43 52.574 0.379 8.48 572.6 14.5
3/29/2021 6:00:00 PM 11.49 52.682 0.38 8.48 959.2 14.31
3/29/2021 6:15:00 PM 11.52 52.736 0.38 8.47 851 14.07
3/29/2021 6:30:00 PM 11.55 52.79 0.379 8.46 973.7 13.82
3/29/2021 6:45:00 PM 11.57 52.826 0.38 8.44 813.3 13.5
3/29/2021 7:00:00 PM 11.59 52.862 0.381 8.42 1026 13.16
3/29/2021 7:15:00 PM 11.61 52.898 0.383 8.39 968.7 12.81
3/29/2021 7:30:00 PM 11.61 52.898 0.387 8.35 1027 12.49
3/29/2021 7:45:00 PM 11.61 52.898 0.39 8.33 1029 12.13
3/29/2021 8:00:00 PM 11.61 52.898 0.39 8.29 1099 11.81
3/29/2021 8:15:00 PM 11.6 52.88 0.388 8.26 1079 11.52
3/29/2021 8:30:00 PM 11.6 52.88 0.387 8.23 983.4 11.26
3/29/2021 8:45:00 PM 11.59 52.862 0.386 8.2 1027 11.02
3/29/2021 9:00:00 PM 11.56 52.808 0.386 8.17 994.4 10.82
3/29/2021 9:15:00 PM 11.53 52.754 0.386 8.14 862.2 10.63
3/29/2021 9:30:00 PM 11.48 52.664 0.386 8.11 1066 10.46
3/29/2021 9:45:00 PM 11.42 52.556 0.387 8.09 935.2 10.32
3/29/2021 10:00:00 PM 11.35 52.43 0.387 8.04 1094 10.17
3/29/2021 10:15:00 PM 11.29 52.322 0.388 8.04 962.9 10.05
3/29/2021 10:30:00 PM 11.21 52.178 0.389 8.01 919.3 9.94
3/29/2021 10:45:00 PM 11.14 52.052 0.389 7.99 928.7 9.83
3/29/2021 11:00:00 PM 11.07 51.926 0.39 7.97 829.2 9.75
3/29/2021 11:15:00 PM 10.99 51.782 0.39 7.95 929.3 9.67
3/29/2021 11:30:00 PM 10.91 51.638 0.391 7.93 909.2 9.6
3/29/2021 11:45:00 PM 10.82 51.476 0.391 7.92 978.2 9.53
3/30/2021 12:00:00 AM 10.74 51.332 0.392 7.88 1015 9.49
3/30/2021 12:15:00 AM 10.64 51.152 0.392 7.88 1102 9.44
3/30/2021 12:30:00 AM 10.53 50.954 0.393 7.87 1603 9.43
3/30/2021 12:45:00 AM 10.42 50.756 0.394 7.86 1222 9.41
3/30/2021 1:00:00 AM 10.3 50.54 0.395 7.84 1115 9.41
3/30/2021 1:15:00 AM 10.18 50.324 0.396 7.83 1149 9.42
3/30/2021 1:30:00 AM 10.05 50.09 0.397 7.83 1199 9.43
3/30/2021 1:45:00 AM 9.92 49.856 0.397 7.81 1299 9.43
3/30/2021 2:00:00 AM 9.78 49.604 0.398 7.8 1160 9.44
3/30/2021 2:15:00 AM 9.65 49.37 0.399 7.79 1191 9.47
3/30/2021 2:30:00 AM 9.51 49.118 0.399 7.79 1183 9.53
3/30/2021 2:45:00 AM 9.37 48.866 0.4 7.78 1204 9.58
3/30/2021 3:00:00 AM 9.23 48.614 0.4 7.78 1293 9.63
3/30/2021 3:15:00 AM 9.09 48.362 0.401 7.78 1332 9.68
3/30/2021 3:30:00 AM 8.95 48.11 0.401 7.77 1271 9.74
3/30/2021 3:45:00 AM 8.81 47.858 0.402 7.77 1255 9.81
3/30/2021 4:00:00 AM 8.67 47.606 0.402 7.77 1555 9.87
3/30/2021 4:15:00 AM 8.52 47.336 0.402 7.76 1597 9.92
3/30/2021 4:30:00 AM 8.38 47.084 0.402 7.76 1183 9.97
3/30/2021 4:45:00 AM 8.25 46.85 0.403 7.76 1376 10.03
3/30/2021 5:00:00 AM 8.11 46.598 0.403 7.73 1205 10.08
3/30/2021 5:15:00 AM 7.98 46.364 0.403 7.73 1353 10.13
3/30/2021 5:30:00 AM 7.85 46.13 0.404 7.73 1290 10.18
3/30/2021 5:45:00 AM 7.72 45.896 0.404 7.76 1302 10.24
3/30/2021 6:00:00 AM 7.6 45.68 0.404 7.76 1301 10.29
3/30/2021 6:15:00 AM 7.48 45.464 0.404 7.76 1554 10.34
3/30/2021 6:30:00 AM 7.37 45.266 0.404 7.76 1420 10.38
3/30/2021 6:45:00 AM 7.26 45.068 0.404 7.76 1336 10.42
3/30/2021 7:00:00 AM 7.16 44.888 0.404 7.76 1377 10.49
3/30/2021 7:15:00 AM 7.06 44.708 0.405 7.76 1661 10.54
3/30/2021 7:30:00 AM 6.98 44.564 0.404 7.76 1318 10.64
3/30/2021 7:45:00 AM 6.9 44.42 0.404 7.77 1384 10.78
3/30/2021 8:00:00 AM 6.84 44.312 0.404 7.78 1402 10.97
3/30/2021 8:15:00 AM 6.79 44.222 0.404 7.78 1412 11.13
3/30/2021 8:30:00 AM 6.77 44.186 0.404 7.8 1616 11.38
3/30/2021 8:45:00 AM 6.77 44.186 0.404 7.81 1384 11.61
3/30/2021 9:00:00 AM 6.8 44.24 0.403 7.83 1355 11.87
3/30/2021 9:15:00 AM 6.85 44.33 0.403 7.85 1182 12.15
3/30/2021 9:30:00 AM 6.93 44.474 0.403 7.87 1353 12.42
3/30/2021 9:45:00 AM 7.02 44.636 0.402 7.89 1371 12.69
3/30/2021 10:00:00 AM 7.15 44.87 0.402 7.92 1560 12.97
3/30/2021 10:15:00 AM 7.29 45.122 0.402 7.94 1562 13.2
3/30/2021 10:30:00 AM 7.44 45.392 0.402 7.96 1128 13.44
3/30/2021 10:45:00 AM 7.61 45.698 0.401 7.93 1494 13.64
3/30/2021 11:00:00 AM 7.8 46.04 0.401 7.99 2007 13.86
3/30/2021 11:15:00 AM 8 46.4 0.401 8.01 1783 14.04
3/30/2021 11:30:00 AM 8.22 46.796 0.4 8.03 1432 14.22
3/30/2021 11:45:00 AM 8.46 47.228 0.4 8.06 1434 14.39
3/30/2021 12:00:00 PM 8.7 47.66 0.399 8.11 1388 14.57
3/30/2021 12:15:00 PM 8.96 48.128 0.399 8.14 1393 14.72
3/30/2021 12:30:00 PM 9.23 48.614 0.397 8.17 1480 14.86
3/30/2021 12:45:00 PM 9.5 49.1 0.397 8.2 1315 14.96
3/30/2021 1:00:00 PM 9.79 49.622 0.389 8.22 1535 15.07
3/30/2021 1:15:00 PM 10.07 50.126 0.396 8.25 1422 15.16
3/30/2021 1:30:00 PM 10.35 50.63 0.395 8.28 1453 15.21
3/30/2021 1:45:00 PM 10.63 51.134 0.395 8.3 1455 15.27
3/30/2021 2:00:00 PM 10.91 51.638 0.394 8.33 1378 15.32
3/30/2021 2:15:00 PM 11.2 52.16 0.393 8.35 1461 15.32
3/30/2021 2:30:00 PM 11.46 52.628 0.392 8.37 1563 15.31
3/30/2021 2:45:00 PM 11.74 53.132 0.392 8.39 1468 15.33
3/30/2021 3:00:00 PM 12.01 53.618 0.391 8.41 1513 15.32
3/30/2021 3:15:00 PM 12.26 54.068 0.39 8.43 1179 15.34
3/30/2021 3:30:00 PM 12.48 54.464 0.39 8.45 1030 15.29
3/30/2021 3:45:00 PM 12.68 54.824 0.39 8.46 1296 15.25
3/30/2021 4:00:00 PM 12.89 55.202 0.389 8.48 1301 15.18
3/30/2021 4:15:00 PM 13.05 55.49 0.389 8.49 2477 15.12
3/30/2021 4:30:00 PM 13.22 55.796 0.389 8.5 1699 15.04
3/30/2021 4:45:00 PM 13.37 56.066 0.388 8.51 1471 14.91
3/30/2021 5:00:00 PM 13.52 56.336 0.388 8.52 1620 14.74
3/30/2021 5:15:00 PM 13.66 56.588 0.387 8.52 1614 14.59
3/30/2021 5:30:00 PM 13.74 56.732 0.387 8.52 1431 14.41
3/30/2021 5:45:00 PM 13.83 56.894 0.387 8.52 1467 14.17
3/30/2021 6:00:00 PM 13.88 56.984 0.387 8.51 1726 13.91
3/30/2021 6:15:00 PM 13.92 57.056 0.387 8.5 1565 13.64
3/30/2021 6:30:00 PM 13.94 57.092 0.388 8.48 1816 13.3
3/30/2021 6:45:00 PM 13.96 57.128 0.388 8.46 1994 12.93
3/30/2021 7:00:00 PM 13.97 57.146 0.389 8.44 1998 12.52
3/30/2021 7:15:00 PM 13.97 57.146 0.39 8.4 2201 12.08
3/30/2021 7:30:00 PM 13.96 57.128 0.391 8.37 1900 11.69
3/30/2021 7:45:00 PM 13.93 57.074 0.392 8.33 1697 11.31
3/30/2021 8:00:00 PM 13.92 57.056 0.393 8.3 1787 10.95
3/30/2021 8:15:00 PM 13.91 57.038 0.393 8.26 1817 10.67
3/30/2021 8:30:00 PM 13.89 57.002 0.394 8.22 1842 10.39
3/30/2021 8:45:00 PM 13.86 56.948 0.394 8.19 1836 10.16
3/30/2021 9:00:00 PM 13.82 56.876 0.395 8.16 1662 9.94
3/30/2021 9:15:00 PM 13.77 56.786 0.395 8.13 1987 9.74
3/30/2021 9:30:00 PM 13.73 56.714 0.396 8.1 1759 9.58
3/30/2021 9:45:00 PM 13.67 56.606 0.396 8.07 1915 9.42
3/30/2021 10:00:00 PM 13.63 56.534 0.397 8.04 1985 9.3
3/30/2021 10:15:00 PM 13.58 56.444 0.398 8.01 2136 9.15
3/30/2021 10:30:00 PM 13.52 56.336 0.398 7.98 1900 9.03
3/30/2021 10:45:00 PM 13.45 56.21 0.399 7.96 1896 8.94
3/30/2021 11:00:00 PM 13.38 56.084 0.4 7.93 2012 8.84
3/30/2021 11:15:00 PM 13.3 55.94 0.401 7.91 1964 8.76
3/30/2021 11:30:00 PM 13.21 55.778 0.401 7.89 2083 8.69
3/30/2021 11:45:00 PM 13.13 55.634 0.402 7.88 2005 8.64
3/31/2021 12:00:00 AM 13.04 55.472 0.403 7.87 1919 8.62
3/31/2021 12:15:00 AM 12.93 55.274 0.403 7.85 1842 8.57
3/31/2021 12:30:00 AM 12.8 55.04 0.404 7.83 1926 8.57
3/31/2021 12:45:00 AM 12.69 54.842 0.405 7.83 2021 8.54
3/31/2021 1:00:00 AM 12.58 54.644 0.405 7.82 2011 8.54
3/31/2021 1:15:00 AM 12.47 54.446 0.406 7.81 1954 8.55
3/31/2021 1:30:00 AM 12.35 54.23 0.407 7.8 1945 8.57
3/31/2021 1:45:00 AM 12.24 54.032 0.407 7.79 2072 8.59
3/31/2021 2:00:00 AM 12.11 53.798 0.408 7.78 2280 8.6
3/31/2021 2:15:00 AM 12 53.6 0.408 7.77 2338 8.64
3/31/2021 2:30:00 AM 11.87 53.366 0.409 7.77 2162 8.67
3/31/2021 2:45:00 AM 11.74 53.132 0.41 7.76 2201 8.71
3/31/2021 3:00:00 AM 11.62 52.916 0.41 7.76 2180 8.74
3/31/2021 3:15:00 AM 11.49 52.682 0.411 7.75 2204 8.79
3/31/2021 3:30:00 AM 11.38 52.484 0.411 7.75 2363 8.82
3/31/2021 3:45:00 AM 11.26 52.268 0.412 7.75 2233 8.87
3/31/2021 4:00:00 AM 11.14 52.052 0.412 7.74 2238 8.91
3/31/2021 4:15:00 AM 11.02 51.836 0.413 7.74 2139 8.94
3/31/2021 4:30:00 AM 10.91 51.638 0.413 7.74 2206 9
3/31/2021 4:45:00 AM 10.79 51.422 0.413 7.74 1880 9.05
3/31/2021 5:00:00 AM 10.69 51.242 0.413 7.67 1906 9.08
3/31/2021 5:15:00 AM 10.58 51.044 0.413 7.71 2123 9.12
3/31/2021 5:30:00 AM 10.48 50.864 0.413 7.73 2067 9.17
3/31/2021 5:45:00 AM 10.38 50.684 0.414 7.74 1872 9.22
3/31/2021 6:00:00 AM 10.28 50.504 0.414 7.74 2191 9.25
3/31/2021 6:15:00 AM 10.18 50.324 0.414 7.73 2041 9.29
3/31/2021 6:30:00 AM 10.09 50.162 0.414 7.72 1903 9.32
3/31/2021 6:45:00 AM 9.98 49.964 0.414 7.74 2546 9.37
3/31/2021 7:00:00 AM 9.89 49.802 0.414 7.74 2242 9.42
3/31/2021 7:15:00 AM 9.8 49.64 0.414 7.74 2110 9.49
3/31/2021 7:30:00 AM 9.73 49.514 0.413 7.74 2129 9.58
3/31/2021 7:45:00 AM 9.67 49.406 0.414 7.75 2353 9.73
3/31/2021 8:00:00 AM 9.62 49.316 0.413 7.76 2271 9.92
3/31/2021 8:15:00 AM 9.59 49.262 0.413 7.77 2018 10.13
3/31/2021 8:30:00 AM 9.56 49.208 0.412 7.79 2236 10.36
3/31/2021 8:45:00 AM 9.54 49.172 0.412 7.8 2004 10.61
3/31/2021 9:00:00 AM 9.54 49.172 0.412 7.82 2297 10.88
3/31/2021 9:15:00 AM 9.54 49.172 0.412 7.84 1936 11.07
3/31/2021 9:30:00 AM 9.53 49.154 0.411 7.85 2157 11.11
3/31/2021 9:45:00 AM 9.52 49.136 0.414 7.84 2254 11.04
3/31/2021 10:00:00 AM 9.5 49.1 0.413 7.84 2305 10.98
3/31/2021 10:15:00 AM 9.48 49.064 0.412 7.83 2059 10.92
3/31/2021 10:30:00 AM 9.47 49.046 0.437 7.76 1919 10.92
3/31/2021 10:45:00 AM 9.48 49.064 0.429 7.77 1996 11.01
3/31/2021 11:00:00 AM 9.48 49.064 0.42 7.79 2562 11.13
3/31/2021 11:15:00 AM 9.48 49.064 0.415 7.83 2270 11.29